Temperatur und Luftfeuchte

Temperatur und Luftfeuchte

Nummer Datum und Zeit Sensor ID Temperatur in Celsius gef├╝hlte Temperatur Luftfeuchte in %
61130 2022-05-22 15:25:33 Terrasse 27.10 25.89 1.00
61129 2022-05-22 14:57:36 Terrasse 26.60 25.34 1.00
61128 2022-05-22 12:57:06 Terrasse 28.40 26.04 1.00
61127 2022-05-22 12:28:35 Terrasse 25.10 23.69 1.00
61126 2022-05-22 12:01:26 Terrasse 25.10 23.69 1.00
61125 2022-05-22 11:01:03 Terrasse 21.70 22.40 94.90
61124 2022-05-22 10:33:19 Terrasse 20.00 20.66 99.90
61123 2022-05-22 10:04:47 Terrasse 18.70 16.65 1.00
61122 2022-05-22 09:37:38 Terrasse 17.70 15.55 1.00
61121 2022-05-22 09:08:56 Terrasse 16.80 14.56 1.00
61120 2022-05-22 08:40:36 Terrasse 15.50 13.13 1.00
61119 2022-05-22 08:12:33 Terrasse 14.80 12.36 1.00
61118 2022-05-22 07:44:23 Terrasse 14.20 11.70 1.00
61117 2022-05-22 07:16:15 Terrasse 13.60 11.35 13.00
61116 2022-05-22 06:48:18 Terrasse 13.50 10.93 1.00
61115 2022-05-22 06:20:54 Terrasse 13.50 11.89 37.70
61114 2022-05-22 05:52:40 Terrasse 13.40 13.40 99.90
61113 2022-05-22 05:24:34 Terrasse 13.60 13.62 99.90
61112 2022-05-22 04:56:40 Terrasse 13.70 11.15 1.00
61111 2022-05-22 04:30:12 Terrasse 13.90 13.95 99.90
61110 2022-05-22 04:00:12 Terrasse 13.80 13.84 99.90
61109 2022-05-22 03:32:53 Terrasse 13.90 11.37 1.00
61108 2022-05-22 03:04:36 Terrasse 13.90 13.95 99.90
61107 2022-05-22 02:36:40 Terrasse 14.20 14.28 99.90
61106 2022-05-22 02:08:43 Terrasse 14.40 11.92 1.00
61105 2022-05-22 01:41:24 Terrasse 14.80 12.36 1.00
61104 2022-05-22 01:13:21 Terrasse 15.30 15.49 99.90
61103 2022-05-22 00:15:10 Terrasse 15.80 16.00 98.20
61102 2022-05-21 23:47:46 Terrasse 16.00 16.26 99.90
61101 2022-05-21 23:20:35 Terrasse 16.20 15.11 47.10
61100 2022-05-21 22:52:21 Terrasse 16.60 14.85 20.60
61099 2022-05-21 22:24:05 Terrasse 17.00 14.78 1.00
61098 2022-05-21 21:56:13 Terrasse 17.40 15.22 1.00
61097 2022-05-21 21:28:12 Terrasse 17.80 18.24 99.90
61096 2022-05-21 21:00:13 Terrasse 18.60 19.12 99.90
61095 2022-05-21 20:32:13 Terrasse 19.10 17.95 33.70
61094 2022-05-21 20:04:11 Terrasse 19.70 17.75 1.00
61093 2022-05-21 19:36:10 Terrasse 20.20 18.30 1.00
61092 2022-05-21 19:08:08 Terrasse 20.70 18.85 1.00
61091 2022-05-21 18:40:06 Terrasse 21.00 19.18 1.00
61090 2022-05-21 18:12:03 Terrasse 21.20 19.40 1.00
61089 2022-05-21 17:44:00 Terrasse 21.60 19.84 1.00
61088 2022-05-21 17:15:57 Terrasse 21.80 20.06 1.00
61087 2022-05-21 16:47:54 Terrasse 22.00 20.28 1.00
61086 2022-05-21 16:19:50 Terrasse 22.00 20.28 1.00
61085 2022-05-21 15:51:48 Terrasse 22.00 20.28 1.00
61084 2022-05-21 15:23:45 Terrasse 22.40 20.72 1.00
61083 2022-05-21 14:55:37 Terrasse 21.90 20.17 1.00
61082 2022-05-21 14:27:40 Terrasse 22.80 21.16 1.00
61081 2022-05-21 13:59:49 Terrasse 23.50 21.93 1.00
61080 2022-05-21 13:31:14 Terrasse 21.70 22.53 99.90
61079 2022-05-21 00:14:47 Terrasse 16.90 14.67 1.00
61078 2022-05-20 23:42:04 Terrasse 17.60 18.02 99.90
61077 2022-05-20 23:13:46 Terrasse 18.30 18.79 99.90
61076 2022-05-20 22:45:29 Terrasse 19.00 19.56 99.90
61075 2022-05-20 22:17:12 Terrasse 19.80 20.44 99.90
61074 2022-05-20 21:48:53 Terrasse 20.20 20.88 99.90
61073 2022-05-20 21:20:37 Terrasse 20.90 21.65 99.90
61072 2022-05-20 20:52:21 Terrasse 21.70 22.53 99.90
61071 2022-05-20 20:24:04 Terrasse 22.40 23.30 99.90
61070 2022-05-20 19:55:52 Terrasse 23.80 22.26 1.00
61069 2022-05-20 19:27:32 Terrasse 24.40 24.84 74.30
61068 2022-05-20 18:59:12 Terrasse 24.70 25.83 99.90
61067 2022-05-20 18:30:50 Terrasse 24.70 23.25 1.00
61066 2022-05-20 18:02:29 Terrasse 24.80 25.94 99.90
61065 2022-05-20 17:34:10 Terrasse 25.10 23.69 1.00
61064 2022-05-20 17:05:41 Terrasse 24.50 23.03 1.00
61063 2022-05-20 16:37:26 Terrasse 23.60 22.04 1.00
61062 2022-05-18 03:46:03 Terrasse 17.70 18.13 99.90
61061 2022-05-18 03:17:28 Terrasse 17.90 18.35 99.90
61060 2022-05-18 02:48:40 Terrasse 18.40 16.32 1.00
61059 2022-05-18 02:19:58 Terrasse 18.70 19.23 99.90
61058 2022-05-18 01:51:18 Terrasse 18.80 16.76 1.00
61057 2022-05-18 01:22:25 Terrasse 19.00 19.56 99.90
61056 2022-05-18 00:53:57 Terrasse 19.20 19.78 99.90
61055 2022-05-18 00:25:22 Terrasse 19.40 17.42 1.00
61054 2022-05-17 23:56:45 Terrasse 19.60 18.12 19.40
61053 2022-05-17 23:28:00 Terrasse 19.90 20.55 99.90
61052 2022-05-17 22:59:23 Terrasse 20.20 18.30 1.00
61051 2022-05-17 22:30:46 Terrasse 20.50 18.63 1.00
61050 2022-05-17 22:02:07 Terrasse 20.90 19.07 1.00
61049 2022-05-17 21:33:29 Terrasse 21.20 21.98 99.90
61048 2022-05-17 21:04:53 Terrasse 21.70 19.95 1.00
61047 2022-05-17 20:36:17 Terrasse 22.30 20.61 1.00
61046 2022-05-17 20:07:40 Terrasse 22.80 22.01 33.50
61045 2022-05-17 19:39:03 Terrasse 23.20 21.60 1.00
61044 2022-05-17 19:10:26 Terrasse 23.50 21.93 1.00
61043 2022-05-17 18:41:47 Terrasse 23.80 22.26 1.00
61042 2022-05-17 18:13:09 Terrasse 24.20 22.70 1.00
61041 2022-05-17 17:44:30 Terrasse 24.30 22.81 1.00
61040 2022-05-17 17:15:48 Terrasse 24.00 22.84 14.70
61039 2022-05-17 16:47:06 Terrasse 23.60 24.62 99.90
61038 2022-05-17 16:18:33 Terrasse 24.20 22.70 1.00
61037 2022-05-17 15:50:00 Terrasse 25.10 23.69 1.00
61036 2022-05-17 15:21:14 Terrasse 25.00 23.58 1.00
61035 2022-05-17 14:52:27 Terrasse 23.40 21.82 1.00
61034 2022-05-17 14:23:52 Terrasse 23.90 22.37 1.00
61033 2022-05-17 13:55:31 Terrasse 25.70 24.35 1.00
61032 2022-05-17 13:26:34 Terrasse 24.60 25.72 99.90
61031 2022-05-17 12:58:06 Terrasse 24.60 23.14 1.00
61030 2022-05-17 12:29:32 Terrasse 26.70 25.45 1.00
61029 2022-05-17 12:00:57 Terrasse 25.90 28.09 99.90
61028 2022-05-17 11:32:02 Terrasse 24.30 22.81 1.00
61027 2022-05-17 11:03:06 Terrasse 22.40 20.72 1.00
61026 2022-05-17 10:34:25 Terrasse 21.40 19.62 1.00
61025 2022-05-17 10:05:47 Terrasse 20.30 18.41 1.00
61024 2022-05-17 09:36:54 Terrasse 19.50 19.89 91.40
61023 2022-05-17 09:08:11 Terrasse 18.70 19.23 99.90
61022 2022-05-17 08:39:23 Terrasse 17.60 18.02 99.90
61021 2022-05-17 08:10:39 Terrasse 16.60 16.92 99.90
61020 2022-05-17 07:41:56 Terrasse 16.00 13.68 1.00
61019 2022-05-17 07:13:14 Terrasse 15.20 12.80 1.00
61018 2022-05-17 06:44:35 Terrasse 14.90 12.47 1.00
61017 2022-05-17 06:15:57 Terrasse 14.90 15.05 99.90
61016 2022-05-17 05:47:19 Terrasse 15.00 15.16 99.90
61015 2022-05-17 05:18:42 Terrasse 15.10 15.27 99.90
61014 2022-05-17 04:50:05 Terrasse 15.40 15.60 99.90
61013 2022-05-17 04:21:27 Terrasse 15.60 15.82 99.90
61012 2022-05-17 03:52:52 Terrasse 15.80 16.04 99.90
61011 2022-05-17 03:24:15 Terrasse 16.20 16.48 99.90
61010 2022-05-17 02:55:38 Terrasse 16.60 16.92 99.90
61009 2022-05-17 02:27:02 Terrasse 17.10 14.89 1.00
61008 2022-05-17 01:58:27 Terrasse 17.70 18.13 99.90
61007 2022-05-17 01:29:49 Terrasse 17.90 18.35 99.90
61006 2022-05-17 01:01:12 Terrasse 18.20 17.90 70.00
61005 2022-05-17 00:32:34 Terrasse 18.30 18.79 99.90
61004 2022-05-17 00:03:56 Terrasse 18.60 18.41 72.70
61003 2022-05-16 23:35:20 Terrasse 18.80 16.76 1.00
61002 2022-05-16 23:06:44 Terrasse 19.10 19.67 99.90
61001 2022-05-16 22:38:08 Terrasse 19.30 19.89 99.90
61000 2022-05-16 22:09:31 Terrasse 19.60 17.64 1.00
60999 2022-05-16 21:40:54 Terrasse 19.70 20.33 99.90
60998 2022-05-16 21:12:17 Terrasse 19.90 20.55 99.90
60997 2022-05-16 20:43:41 Terrasse 20.20 19.83 59.70
60996 2022-05-16 20:15:06 Terrasse 20.50 18.63 1.00
60995 2022-05-16 19:46:31 Terrasse 20.90 19.07 1.00
60994 2022-05-16 19:17:54 Terrasse 21.10 19.29 1.00
60993 2022-05-16 18:49:18 Terrasse 21.50 21.97 86.60
60992 2022-05-16 18:20:46 Terrasse 22.10 22.97 99.90
60991 2022-05-16 17:52:14 Terrasse 23.10 21.49 1.00
60990 2022-05-16 17:23:43 Terrasse 23.90 22.37 1.00
60989 2022-05-16 16:55:12 Terrasse 25.20 25.93 99.90
60988 2022-05-16 16:26:45 Terrasse 26.70 31.92 99.90
60987 2022-05-16 15:58:14 Terrasse 28.00 36.35 99.90
60986 2022-05-16 15:29:41 Terrasse 28.70 38.99 99.90
60985 2022-05-16 15:00:57 Terrasse 28.20 37.09 99.90
60984 2022-05-16 14:31:57 Terrasse 25.00 23.58 1.00
60983 2022-05-16 14:03:31 Terrasse 26.20 29.07 99.90
60982 2022-05-16 13:35:32 Terrasse 31.20 49.96 99.90
60981 2022-05-16 13:06:29 Terrasse 28.70 38.99 99.90
60980 2022-05-16 12:37:42 Terrasse 29.10 40.57 99.90
60979 2022-05-16 12:09:05 Terrasse 27.40 34.23 99.90
60978 2022-05-16 11:40:23 Terrasse 26.50 30.08 99.90
60977 2022-05-16 11:11:35 Terrasse 24.80 25.94 99.90
60976 2022-05-16 10:42:37 Terrasse 22.80 21.16 1.00
60975 2022-05-16 10:13:51 Terrasse 21.40 19.62 1.00
60974 2022-05-16 09:45:10 Terrasse 20.60 18.74 1.00
60973 2022-05-16 09:16:29 Terrasse 19.60 17.64 1.00
60972 2022-05-16 08:47:49 Terrasse 19.10 17.09 1.00
60971 2022-05-16 08:19:11 Terrasse 18.80 16.76 1.00
60970 2022-05-16 07:50:33 Terrasse 18.50 16.43 1.00
60969 2022-05-16 07:21:53 Terrasse 18.10 15.99 1.00
60968 2022-05-16 06:53:16 Terrasse 17.80 15.66 1.00
60967 2022-05-16 06:24:39 Terrasse 17.80 15.66 1.00
60966 2022-05-16 05:56:04 Terrasse 17.60 15.44 1.00
60965 2022-05-16 05:27:27 Terrasse 17.90 15.77 1.00
60964 2022-05-16 04:58:50 Terrasse 18.00 15.88 1.00
60963 2022-05-16 04:30:15 Terrasse 18.10 15.99 1.00
60962 2022-05-16 04:01:39 Terrasse 18.30 18.79 99.90
60961 2022-05-16 03:33:05 Terrasse 18.60 19.12 99.90
60960 2022-05-16 03:04:29 Terrasse 18.80 19.34 99.90
60959 2022-05-16 02:35:53 Terrasse 18.80 19.34 99.90
60958 2022-05-16 02:07:17 Terrasse 18.90 19.45 99.90
60957 2022-05-16 01:38:43 Terrasse 19.10 19.67 99.90
60956 2022-05-16 01:10:08 Terrasse 19.40 20.00 99.90
60955 2022-05-16 00:41:33 Terrasse 19.50 20.11 99.90
60954 2022-05-16 00:12:59 Terrasse 19.60 20.22 99.90
60953 2022-05-15 23:44:25 Terrasse 19.90 20.55 99.90
60952 2022-05-15 23:15:51 Terrasse 20.10 20.77 99.90
60951 2022-05-15 22:47:17 Terrasse 20.50 21.21 99.90
60950 2022-05-15 22:18:43 Terrasse 21.00 21.76 99.90
60949 2022-05-15 21:50:11 Terrasse 21.40 22.20 99.90
60948 2022-05-15 21:21:37 Terrasse 22.10 22.97 99.90
60947 2022-05-15 20:53:06 Terrasse 22.80 23.74 99.90
60946 2022-05-15 20:24:35 Terrasse 23.50 24.38 94.60
60945 2022-05-15 19:56:02 Terrasse 24.00 25.06 99.90
60944 2022-05-15 19:27:30 Terrasse 24.80 25.81 94.80
60943 2022-05-15 18:59:00 Terrasse 25.50 26.82 93.00
60942 2022-05-15 18:30:29 Terrasse 26.10 28.74 99.90
60941 2022-05-15 17:33:28 Terrasse 27.00 32.89 99.90
60940 2022-05-15 17:04:55 Terrasse 27.40 28.21 55.30
60939 2022-05-15 16:36:20 Terrasse 27.50 34.58 99.90
60938 2022-05-15 16:07:42 Terrasse 27.30 33.89 99.90
60937 2022-05-15 15:39:14 Terrasse 28.10 36.72 99.90
60936 2022-05-15 15:10:35 Terrasse 28.30 34.96 90.10
60935 2022-05-15 14:42:13 Terrasse 30.10 31.88 54.00
60934 2022-05-15 14:13:44 Terrasse 30.40 35.41 67.60
60933 2022-05-15 13:45:32 Terrasse 32.70 37.61 56.50
60932 2022-05-10 21:55:52 Terrasse 20.50 21.21 99.90
60931 2022-05-10 21:27:26 Terrasse 21.00 21.76 99.90
60930 2022-05-10 20:59:01 Terrasse 21.90 20.17 1.00
60929 2022-05-10 20:30:34 Terrasse 22.60 20.94 1.00
60928 2022-05-10 20:02:06 Terrasse 23.20 21.60 1.00
60927 2022-05-10 19:33:38 Terrasse 23.60 22.04 1.00
60926 2022-05-10 19:05:08 Terrasse 23.60 22.04 1.00
60925 2022-05-10 18:36:43 Terrasse 24.20 22.70 1.00
60924 2022-05-10 18:08:16 Terrasse 24.80 23.36 1.00
60923 2022-05-10 17:39:49 Terrasse 25.30 23.91 1.00
60922 2022-05-10 17:11:20 Terrasse 25.80 24.46 1.00
60921 2022-05-10 16:42:53 Terrasse 26.20 24.90 1.00
60920 2022-05-10 16:14:26 Terrasse 26.90 25.67 1.00
60919 2022-05-10 15:45:58 Terrasse 27.20 26.00 1.00
60918 2022-05-10 15:17:35 Terrasse 28.10 25.85 1.00
60917 2022-05-10 14:49:01 Terrasse 28.20 25.94 1.00
60916 2022-05-10 14:20:38 Terrasse 28.10 25.85 1.00
60915 2022-05-10 13:52:15 Terrasse 29.30 26.75 1.00
60914 2022-05-10 13:23:31 Terrasse 28.10 25.85 1.00
60913 2022-05-10 12:54:48 Terrasse 26.60 25.34 1.00
60912 2022-05-10 12:26:14 Terrasse 26.20 24.90 1.00
60911 2022-05-10 11:57:41 Terrasse 25.60 24.24 1.00
60910 2022-05-10 11:28:59 Terrasse 24.20 25.28 99.90
60909 2022-05-10 11:00:14 Terrasse 22.00 22.86 99.90
60908 2022-05-10 10:31:42 Terrasse 21.80 22.64 99.90
60907 2022-05-10 10:03:02 Terrasse 20.30 18.41 1.00
60906 2022-05-10 09:34:24 Terrasse 19.10 19.67 99.90
60905 2022-05-10 09:05:47 Terrasse 18.00 18.46 99.90
60904 2022-05-10 08:37:13 Terrasse 17.40 17.61 92.50
60903 2022-05-10 08:08:37 Terrasse 16.60 16.92 99.90
60902 2022-05-10 07:40:04 Terrasse 15.90 13.57 1.00
60901 2022-05-10 07:11:31 Terrasse 15.50 15.71 99.90
60900 2022-05-10 06:43:00 Terrasse 15.20 15.38 99.90
60899 2022-05-10 06:14:31 Terrasse 15.10 15.27 99.90
60898 2022-05-10 05:46:03 Terrasse 15.20 12.80 1.00
60897 2022-05-10 05:17:34 Terrasse 15.40 13.02 1.00
60896 2022-05-10 04:49:06 Terrasse 15.80 13.46 1.00
60895 2022-05-10 04:20:37 Terrasse 16.00 13.68 1.00
60894 2022-05-10 03:52:08 Terrasse 16.20 13.90 1.00
60893 2022-05-10 03:23:39 Terrasse 16.30 16.59 99.90
60892 2022-05-10 02:55:11 Terrasse 16.50 14.23 1.00
60891 2022-05-10 02:26:40 Terrasse 16.70 14.45 1.00
60890 2022-05-10 01:58:12 Terrasse 16.50 14.23 1.00
60889 2022-05-10 01:29:44 Terrasse 16.80 17.14 99.90
60888 2022-05-10 01:01:15 Terrasse 16.90 14.67 1.00
60887 2022-05-10 00:32:47 Terrasse 17.30 16.50 54.30
60886 2022-05-10 00:04:19 Terrasse 17.70 15.55 1.00
60885 2022-05-09 23:35:52 Terrasse 18.00 18.46 99.90
60884 2022-05-09 23:07:26 Terrasse 18.40 18.90 99.90
60883 2022-05-09 22:38:59 Terrasse 18.80 18.57 70.40
60882 2022-05-09 22:10:31 Terrasse 19.30 17.31 1.00
60881 2022-05-09 21:42:06 Terrasse 19.80 17.86 1.00
60880 2022-05-09 21:13:41 Terrasse 20.40 18.52 1.00
60879 2022-05-09 20:45:17 Terrasse 21.20 19.40 1.00
60878 2022-05-09 20:16:54 Terrasse 22.40 20.72 1.00
60877 2022-05-09 19:48:28 Terrasse 23.20 21.60 1.00
60876 2022-05-09 19:20:03 Terrasse 23.80 22.26 1.00
60875 2022-05-09 18:51:38 Terrasse 24.50 23.03 1.00
60874 2022-05-09 18:23:11 Terrasse 25.20 23.80 1.00
60873 2022-05-09 17:54:45 Terrasse 25.80 24.46 1.00
60872 2022-05-09 17:26:16 Terrasse 25.90 24.57 1.00
60871 2022-05-09 16:57:52 Terrasse 26.70 25.45 1.00
60870 2022-05-09 16:29:27 Terrasse 27.50 25.41 1.00
60869 2022-05-09 16:00:58 Terrasse 27.60 25.50 1.00
60868 2022-05-09 15:32:34 Terrasse 27.80 25.58 1.00
60867 2022-05-09 15:04:14 Terrasse 29.70 27.03 1.00
60866 2022-05-09 14:35:51 Terrasse 31.20 28.10 1.00
60865 2022-05-09 14:07:26 Terrasse 30.90 27.91 1.00
60864 2022-05-09 13:39:09 Terrasse 32.60 29.14 1.00
60863 2022-05-09 13:10:20 Terrasse 32.00 28.71 1.00
60862 2022-05-09 12:41:10 Terrasse 27.50 25.41 1.00
60861 2022-05-09 12:12:40 Terrasse 25.50 24.13 1.00
60860 2022-05-09 11:44:04 Terrasse 24.20 22.70 1.00
60859 2022-05-09 11:15:13 Terrasse 22.20 23.08 99.90
60858 2022-05-09 10:46:36 Terrasse 20.90 21.65 99.90
60857 2022-05-09 10:17:59 Terrasse 19.60 17.64 1.00
60856 2022-05-09 09:49:24 Terrasse 18.60 19.12 99.90
60855 2022-05-09 09:20:49 Terrasse 17.70 18.13 99.90
60854 2022-05-09 08:52:14 Terrasse 16.80 14.56 1.00
60853 2022-05-09 08:23:39 Terrasse 16.00 16.26 99.90
60852 2022-05-09 07:55:08 Terrasse 15.40 15.60 99.90
60851 2022-05-09 07:26:38 Terrasse 14.90 14.01 60.10
60850 2022-05-09 06:58:07 Terrasse 14.60 14.72 99.90
60849 2022-05-09 06:29:38 Terrasse 14.50 14.61 99.90
60848 2022-05-09 06:01:10 Terrasse 14.70 12.25 1.00
60847 2022-05-09 05:32:43 Terrasse 14.90 12.47 1.00
60846 2022-05-09 05:04:17 Terrasse 15.20 12.80 1.00
60845 2022-05-09 04:35:49 Terrasse 15.40 15.60 99.90
60844 2022-05-09 04:07:23 Terrasse 15.60 13.24 1.00
60843 2022-05-09 03:38:56 Terrasse 15.80 16.04 99.90
60842 2022-05-09 03:10:29 Terrasse 16.10 13.79 1.00
60841 2022-05-09 02:42:02 Terrasse 16.20 13.90 1.00
60840 2022-05-09 02:13:34 Terrasse 16.50 14.23 1.00
60839 2022-05-09 01:45:07 Terrasse 16.60 14.34 1.00
60838 2022-05-09 01:16:40 Terrasse 16.80 17.14 99.90
60837 2022-05-09 00:48:12 Terrasse 17.00 14.78 1.00
60836 2022-05-09 00:19:45 Terrasse 17.10 17.47 99.90
60835 2022-05-08 23:51:17 Terrasse 17.30 15.11 1.00
60834 2022-05-08 23:22:49 Terrasse 17.50 17.91 99.90
60833 2022-05-08 22:54:21 Terrasse 17.70 16.86 51.10
60832 2022-05-08 22:25:54 Terrasse 18.10 18.57 99.90
60831 2022-05-08 21:57:28 Terrasse 18.50 19.01 99.90
60830 2022-05-08 21:29:03 Terrasse 18.90 19.45 99.90
60829 2022-05-08 21:00:38 Terrasse 19.40 20.00 99.90
60828 2022-05-08 20:32:14 Terrasse 20.20 18.30 1.00
60827 2022-05-08 20:03:48 Terrasse 21.00 19.18 1.00
60826 2022-05-08 19:35:24 Terrasse 21.70 19.95 1.00
60825 2022-05-08 19:06:59 Terrasse 22.50 20.83 1.00
60824 2022-05-08 18:38:32 Terrasse 23.00 21.38 1.00
60823 2022-05-08 18:10:04 Terrasse 23.40 21.82 1.00
60822 2022-05-08 17:41:38 Terrasse 23.70 22.15 1.00
60821 2022-05-08 17:13:11 Terrasse 24.40 22.92 1.00
60820 2022-05-08 16:44:44 Terrasse 24.60 23.14 1.00
60819 2022-05-08 16:16:23 Terrasse 25.70 24.35 1.00
60818 2022-05-08 15:48:10 Terrasse 27.20 26.00 1.00
60817 2022-05-08 15:19:44 Terrasse 28.50 26.12 1.00
60816 2022-05-08 14:51:31 Terrasse 29.90 27.20 1.00
60815 2022-05-08 14:22:49 Terrasse 30.60 27.66 1.00
60814 2022-05-08 13:54:44 Terrasse 30.90 27.91 1.00
60813 2022-05-08 13:25:50 Terrasse 29.80 27.11 1.00
60812 2022-05-08 12:57:18 Terrasse 30.30 27.47 1.00
60811 2022-05-08 12:28:23 Terrasse 26.10 24.79 1.00
60810 2022-05-08 11:59:52 Terrasse 25.00 23.58 1.00
60809 2022-05-08 11:31:13 Terrasse 23.50 24.51 99.90
60808 2022-05-08 11:02:28 Terrasse 21.40 22.20 99.90
60807 2022-05-08 10:33:51 Terrasse 20.10 19.34 45.00
60806 2022-05-08 10:05:13 Terrasse 18.90 16.87 1.00
60805 2022-05-08 09:36:40 Terrasse 18.00 15.88 1.00
60804 2022-05-08 09:08:04 Terrasse 17.00 14.78 1.00
60803 2022-05-08 08:39:27 Terrasse 15.90 15.63 79.90
60802 2022-05-08 08:10:54 Terrasse 15.10 15.27 99.90
60801 2022-05-08 07:42:23 Terrasse 14.60 14.72 99.90
60800 2022-05-08 07:13:54 Terrasse 14.40 14.50 99.90
60799 2022-05-08 06:45:26 Terrasse 14.40 14.50 99.90
60798 2022-05-08 06:16:57 Terrasse 14.50 13.43 54.40
60797 2022-05-08 05:48:30 Terrasse 14.60 14.38 86.80
60796 2022-05-08 05:20:02 Terrasse 14.80 14.94 99.90
60795 2022-05-08 04:51:34 Terrasse 14.90 12.47 1.00
60794 2022-05-08 04:23:06 Terrasse 15.20 14.24 56.20
60793 2022-05-08 03:54:39 Terrasse 15.40 15.60 99.90
60792 2022-05-08 03:26:12 Terrasse 15.80 16.04 99.90
60791 2022-05-08 02:57:46 Terrasse 16.20 13.90 1.00
60790 2022-05-08 02:29:19 Terrasse 16.40 14.12 1.00
60789 2022-05-08 02:00:50 Terrasse 16.50 14.23 1.00
60788 2022-05-08 01:32:22 Terrasse 16.60 14.34 1.00
60787 2022-05-08 01:03:54 Terrasse 16.80 17.14 99.90
60786 2022-05-08 00:35:27 Terrasse 16.90 14.67 1.00
60785 2022-05-08 00:07:00 Terrasse 17.20 17.58 99.90
60784 2022-05-07 23:38:35 Terrasse 17.60 15.49 2.90
60783 2022-05-07 23:10:08 Terrasse 17.80 15.66 1.00
60782 2022-05-07 22:41:41 Terrasse 17.80 15.66 1.00
60781 2022-05-07 22:13:14 Terrasse 18.00 15.88 1.00
60780 2022-05-07 21:44:47 Terrasse 18.30 16.21 1.00
60779 2022-05-07 21:16:22 Terrasse 18.70 16.65 1.00
60778 2022-05-07 20:47:56 Terrasse 19.20 17.20 1.00
60777 2022-05-07 20:19:32 Terrasse 19.70 17.75 1.00
60776 2022-05-07 19:51:05 Terrasse 20.10 18.19 1.00
60775 2022-05-07 19:22:40 Terrasse 20.70 18.85 1.00
60774 2022-05-07 18:54:16 Terrasse 21.50 19.73 1.00
60773 2022-05-07 18:25:50 Terrasse 22.20 20.50 1.00
60772 2022-05-07 17:57:27 Terrasse 22.80 21.16 1.00
60771 2022-05-07 17:29:03 Terrasse 23.90 22.37 1.00
60770 2022-05-07 17:00:35 Terrasse 24.00 22.48 1.00
60769 2022-05-07 16:32:08 Terrasse 24.10 22.59 1.00
60768 2022-05-07 16:03:38 Terrasse 24.20 22.70 1.00
60767 2022-05-07 15:35:11 Terrasse 24.70 23.25 1.00
60766 2022-05-07 15:06:39 Terrasse 23.50 21.93 1.00
60765 2022-05-07 14:38:18 Terrasse 25.20 23.80 1.00
60764 2022-05-07 14:09:35 Terrasse 24.90 23.47 1.00
60763 2022-05-07 13:41:17 Terrasse 24.60 23.14 1.00
60762 2022-05-07 13:12:39 Terrasse 22.80 21.16 1.00
60761 2022-05-07 12:44:20 Terrasse 24.60 23.14 1.00
60760 2022-05-07 12:15:50 Terrasse 24.70 23.25 1.00
60759 2022-05-07 11:47:15 Terrasse 23.40 21.82 1.00
60758 2022-05-07 11:18:26 Terrasse 21.50 19.73 1.00
60757 2022-05-07 10:49:47 Terrasse 19.90 17.97 1.00
60756 2022-05-07 10:21:10 Terrasse 18.50 19.01 99.90
60755 2022-05-07 09:52:34 Terrasse 17.20 17.58 99.90
60754 2022-05-07 09:23:59 Terrasse 16.10 13.79 1.00
60753 2022-05-07 08:55:25 Terrasse 15.10 15.27 99.90
60752 2022-05-07 08:26:51 Terrasse 14.10 14.17 99.90
60751 2022-05-07 07:58:19 Terrasse 13.40 10.82 1.00
60750 2022-05-07 07:29:48 Terrasse 12.90 12.85 99.90
60749 2022-05-07 07:01:19 Terrasse 12.60 12.52 99.90
60748 2022-05-07 06:32:50 Terrasse 12.50 12.41 99.90
60747 2022-05-07 06:04:24 Terrasse 12.50 9.83 1.00
60746 2022-05-07 05:35:59 Terrasse 12.60 12.52 99.90
60745 2022-05-07 05:07:31 Terrasse 12.60 9.94 1.00
60744 2022-05-07 04:39:04 Terrasse 12.70 10.05 1.00
60743 2022-05-07 04:10:39 Terrasse 13.00 12.96 99.90
60742 2022-05-07 03:42:13 Terrasse 13.10 10.49 1.00
60741 2022-05-07 03:13:47 Terrasse 13.20 10.60 1.00
60740 2022-05-07 02:45:21 Terrasse 13.50 13.51 99.90
60739 2022-05-07 02:16:56 Terrasse 13.90 12.11 29.20
60738 2022-05-07 01:48:32 Terrasse 14.30 11.81 1.00
60737 2022-05-07 01:20:04 Terrasse 14.30 11.81 1.00
60736 2022-05-07 00:51:37 Terrasse 14.30 11.81 1.00
60735 2022-05-07 00:23:10 Terrasse 14.20 11.70 1.00
60734 2022-05-06 23:54:45 Terrasse 14.70 14.83 99.90
60733 2022-05-06 23:26:19 Terrasse 14.90 12.47 1.00
60732 2022-05-06 22:57:55 Terrasse 15.30 12.91 1.00
60731 2022-05-06 22:29:29 Terrasse 15.60 13.24 1.00
60730 2022-05-06 22:01:03 Terrasse 16.10 13.79 1.00
60729 2022-05-06 21:32:40 Terrasse 16.80 14.56 1.00
60728 2022-05-06 21:04:18 Terrasse 17.60 15.44 1.00
60727 2022-05-06 20:35:56 Terrasse 18.70 16.65 1.00
60726 2022-05-06 20:07:32 Terrasse 19.40 20.00 99.90
60725 2022-05-06 19:39:09 Terrasse 20.20 20.88 99.90
60724 2022-05-06 19:10:45 Terrasse 20.90 21.65 99.90
60723 2022-05-06 18:42:20 Terrasse 21.40 22.20 99.90
60722 2022-05-06 18:13:55 Terrasse 21.50 22.31 99.90
60721 2022-05-06 17:45:30 Terrasse 22.40 23.30 99.90
60720 2022-05-06 17:17:08 Terrasse 23.40 24.40 99.90
60719 2022-05-06 16:48:41 Terrasse 24.10 25.17 99.90
60718 2022-05-06 16:20:13 Terrasse 24.10 25.17 99.90
60717 2022-05-06 15:51:50 Terrasse 24.60 25.72 99.90
60716 2022-05-06 15:23:33 Terrasse 25.90 28.09 99.90
60715 2022-05-06 14:55:15 Terrasse 27.00 32.89 99.90
60714 2022-05-06 14:26:59 Terrasse 28.90 26.40 1.00
60713 2022-05-06 13:58:51 Terrasse 29.50 26.85 1.00
60712 2022-05-06 13:30:17 Terrasse 29.50 26.85 1.00
60711 2022-05-06 13:01:49 Terrasse 29.60 26.94 1.00
60710 2022-05-06 12:32:43 Terrasse 24.30 22.81 1.00
60709 2022-05-06 12:04:18 Terrasse 23.10 21.49 1.00
60708 2022-05-06 11:35:37 Terrasse 21.60 19.84 1.00
60707 2022-05-06 11:06:53 Terrasse 19.70 17.75 1.00
60706 2022-05-06 10:38:16 Terrasse 18.20 16.10 1.00
60705 2022-05-06 10:09:40 Terrasse 16.80 15.03 19.00
60704 2022-05-06 09:41:05 Terrasse 15.60 15.82 99.90
60703 2022-05-06 09:12:30 Terrasse 14.60 12.14 1.00
60702 2022-05-06 08:43:55 Terrasse 13.50 10.93 1.00
60701 2022-05-06 08:15:20 Terrasse 12.30 9.61 1.00
60700 2022-05-06 07:46:50 Terrasse 11.70 11.53 99.90
60699 2022-05-06 07:18:21 Terrasse 11.30 8.51 1.00
60698 2022-05-06 06:49:54 Terrasse 11.10 8.29 1.00
60697 2022-05-06 06:21:29 Terrasse 11.10 8.29 1.00
60696 2022-05-06 05:53:02 Terrasse 11.20 8.40 1.00
60695 2022-05-06 05:24:36 Terrasse 11.30 11.09 99.90
60694 2022-05-06 04:56:10 Terrasse 11.50 8.73 1.00
60693 2022-05-06 04:27:44 Terrasse 11.70 10.07 43.90
60692 2022-05-06 03:59:20 Terrasse 12.10 11.91 97.60
60691 2022-05-06 03:30:53 Terrasse 12.40 12.30 99.90
60690 2022-05-06 03:02:27 Terrasse 12.30 12.19 99.90
60689 2022-05-06 02:34:01 Terrasse 12.40 9.72 1.00
60688 2022-05-06 02:05:34 Terrasse 12.30 12.19 99.90
60687 2022-05-06 01:37:09 Terrasse 12.50 9.83 1.00
60686 2022-05-06 01:08:43 Terrasse 12.80 12.74 99.90
60685 2022-05-06 00:40:19 Terrasse 13.20 10.60 1.00
60684 2022-05-06 00:11:55 Terrasse 13.60 13.62 99.90
60683 2022-05-05 23:43:29 Terrasse 13.90 11.59 9.40
60682 2022-05-05 23:15:03 Terrasse 14.20 11.70 1.00
60681 2022-05-05 22:46:38 Terrasse 14.50 14.61 99.90
60680 2022-05-05 22:18:14 Terrasse 14.80 12.36 1.00
60679 2022-05-05 21:49:49 Terrasse 15.30 15.49 99.90
60678 2022-05-05 21:21:24 Terrasse 15.60 13.24 1.00
60677 2022-05-05 20:52:59 Terrasse 16.00 13.68 1.00
60676 2022-05-05 20:24:32 Terrasse 16.40 14.12 1.00
60675 2022-05-05 19:56:06 Terrasse 16.80 14.56 1.00
60674 2022-05-05 19:27:40 Terrasse 17.10 17.47 99.90
60673 2022-05-05 18:59:16 Terrasse 17.50 15.33 1.00
60672 2022-05-05 18:30:49 Terrasse 17.90 18.35 99.90
60671 2022-05-05 18:02:23 Terrasse 18.10 18.57 99.90
60670 2022-05-05 17:33:57 Terrasse 18.30 18.79 99.90
60669 2022-05-05 17:05:32 Terrasse 18.80 19.34 99.90
60668 2022-05-05 16:37:10 Terrasse 19.80 17.86 1.00
60667 2022-05-05 16:08:46 Terrasse 20.50 18.63 1.00
60666 2022-05-05 15:40:11 Terrasse 19.90 20.55 99.90
60665 2022-05-05 15:11:38 Terrasse 18.70 19.23 99.90
60664 2022-05-05 14:43:07 Terrasse 18.30 17.65 56.10
60663 2022-05-05 14:14:41 Terrasse 18.30 16.49 11.60
60662 2022-05-05 13:46:14 Terrasse 18.40 18.90 99.90
60661 2022-05-05 13:17:57 Terrasse 20.00 20.50 93.80
60660 2022-05-05 12:49:06 Terrasse 17.70 15.55 1.00
60659 2022-05-05 12:20:24 Terrasse 15.70 13.35 1.00
60658 2022-05-05 11:51:53 Terrasse 15.30 12.91 1.00
60657 2022-05-05 11:23:22 Terrasse 14.60 14.72 99.90
60656 2022-05-05 10:54:50 Terrasse 14.10 11.59 1.00
60655 2022-05-05 10:26:19 Terrasse 13.40 11.58 29.90
60654 2022-05-05 09:57:51 Terrasse 13.10 10.49 1.00
60653 2022-05-05 09:29:26 Terrasse 13.10 13.07 99.90
60652 2022-05-05 09:01:00 Terrasse 13.20 13.18 99.90
60651 2022-05-05 08:32:31 Terrasse 12.80 10.16 1.00
60650 2022-05-05 08:04:05 Terrasse 12.80 10.16 1.00
60649 2022-05-05 07:35:38 Terrasse 12.60 12.52 99.90
60648 2022-05-05 07:07:15 Terrasse 12.60 12.52 99.90
60647 2022-05-05 06:38:50 Terrasse 13.00 12.96 99.90
60646 2022-05-05 06:10:25 Terrasse 13.30 10.71 1.00
60645 2022-05-05 05:42:00 Terrasse 13.60 11.04 1.00
60644 2022-05-05 05:13:33 Terrasse 13.80 13.84 99.90
60643 2022-05-05 04:45:07 Terrasse 13.90 11.37 1.00
60642 2022-05-05 04:16:41 Terrasse 14.00 11.76 11.60
60641 2022-05-05 03:48:15 Terrasse 14.10 14.17 99.90
60640 2022-05-05 03:19:48 Terrasse 14.20 11.70 1.00
60639 2022-05-05 02:51:22 Terrasse 14.20 11.70 1.00
60638 2022-05-05 02:22:57 Terrasse 14.30 14.39 99.90
60637 2022-05-05 01:54:32 Terrasse 14.40 14.50 99.90
60636 2022-05-05 01:26:06 Terrasse 14.60 12.30 6.90
60635 2022-05-05 00:57:41 Terrasse 14.70 13.23 38.40
60634 2022-05-05 00:29:17 Terrasse 14.80 12.36 1.00
60633 2022-05-05 00:00:51 Terrasse 15.00 12.76 7.80
60632 2022-05-04 23:32:25 Terrasse 14.90 15.05 99.90
60631 2022-05-04 23:03:59 Terrasse 15.00 12.58 1.00
60630 2022-05-04 22:35:33 Terrasse 15.00 15.16 99.90
60629 2022-05-04 22:07:09 Terrasse 15.50 13.13 1.00
60628 2022-05-04 21:38:47 Terrasse 16.20 16.48 99.90
60627 2022-05-04 21:10:25 Terrasse 16.90 14.67 1.00
60626 2022-05-04 20:42:02 Terrasse 17.60 18.02 99.90
60625 2022-05-04 20:13:38 Terrasse 18.20 18.68 99.90
60624 2022-05-04 19:45:13 Terrasse 18.50 19.01 99.90
60623 2022-05-04 19:16:48 Terrasse 18.80 19.34 99.90
60622 2022-05-04 18:48:26 Terrasse 19.30 19.89 99.90
60621 2022-05-04 18:20:02 Terrasse 19.80 20.33 95.40
60620 2022-05-04 17:51:36 Terrasse 20.10 20.77 99.90
60619 2022-05-04 17:23:11 Terrasse 20.40 21.07 98.70
60618 2022-05-04 16:54:48 Terrasse 20.90 19.07 1.00
60617 2022-05-04 16:26:21 Terrasse 21.20 19.40 1.00
60616 2022-05-04 15:57:57 Terrasse 21.30 19.51 1.00
60615 2022-05-04 15:29:37 Terrasse 22.60 20.94 1.00
60614 2022-05-04 15:01:01 Terrasse 21.70 22.53 99.90
60613 2022-05-04 14:32:39 Terrasse 20.80 21.54 99.90
60612 2022-05-04 14:04:01 Terrasse 20.50 21.21 99.90
60611 2022-05-04 13:35:39 Terrasse 20.40 21.10 99.90
60610 2022-05-04 13:07:22 Terrasse 21.70 19.95 1.00
60609 2022-05-04 12:38:54 Terrasse 24.00 22.48 1.00
60608 2022-05-04 12:10:22 Terrasse 21.60 22.42 99.90
60607 2022-05-04 11:41:37 Terrasse 19.50 20.11 99.90
60606 2022-05-04 11:13:06 Terrasse 18.80 19.34 99.90
60605 2022-05-04 10:44:34 Terrasse 17.30 17.69 99.90
60604 2022-05-04 10:16:01 Terrasse 16.50 16.81 99.90
60603 2022-05-04 09:47:31 Terrasse 15.90 16.15 99.90
60602 2022-05-04 09:19:00 Terrasse 15.00 12.58 1.00
60601 2022-05-04 08:50:32 Terrasse 14.30 11.81 1.00
60600 2022-05-04 08:22:03 Terrasse 13.60 11.04 1.00
60599 2022-05-04 07:53:34 Terrasse 13.20 10.60 1.00
60598 2022-05-04 07:25:06 Terrasse 12.90 12.85 99.90
60597 2022-05-04 06:56:38 Terrasse 12.50 12.41 99.90
60596 2022-05-04 06:28:12 Terrasse 12.50 12.41 99.90
60595 2022-05-04 05:59:47 Terrasse 12.70 10.08 1.90
60594 2022-05-04 05:31:23 Terrasse 13.00 12.96 99.90
60593 2022-05-04 05:03:01 Terrasse 13.60 13.62 99.90
60592 2022-05-04 04:34:36 Terrasse 13.80 13.84 99.90
60591 2022-05-04 04:06:11 Terrasse 14.00 14.06 99.90
60590 2022-05-04 03:37:47 Terrasse 14.10 14.17 99.90
60589 2022-05-04 03:09:25 Terrasse 14.40 11.92 1.00
60588 2022-05-04 02:40:59 Terrasse 14.50 12.03 1.00
60587 2022-05-04 02:12:33 Terrasse 14.50 14.61 99.90
60586 2022-05-04 01:44:08 Terrasse 14.50 12.03 1.00
60585 2022-05-04 01:15:42 Terrasse 14.70 14.83 99.90
60584 2022-05-04 00:47:17 Terrasse 14.70 14.83 99.90
60583 2022-05-04 00:18:52 Terrasse 14.70 14.83 99.90
60582 2022-05-03 23:50:26 Terrasse 14.80 12.36 1.00
60581 2022-05-03 23:22:01 Terrasse 14.80 12.36 1.00
60580 2022-05-03 22:53:34 Terrasse 14.50 12.13 4.60
60579 2022-05-03 22:25:10 Terrasse 14.60 12.69 22.00
60578 2022-05-03 21:56:47 Terrasse 15.00 12.58 1.00
60577 2022-05-03 21:28:24 Terrasse 15.40 15.60 99.90
60576 2022-05-03 21:00:01 Terrasse 15.90 13.57 1.00
60575 2022-05-03 20:31:38 Terrasse 16.50 16.81 99.90
60574 2022-05-03 20:03:15 Terrasse 17.20 15.00 1.00
60573 2022-05-03 19:34:49 Terrasse 17.30 15.11 1.00
60572 2022-05-03 19:06:25 Terrasse 17.30 17.69 99.90
60571 2022-05-03 18:38:04 Terrasse 18.40 16.32 1.00
60570 2022-05-03 18:09:45 Terrasse 19.40 17.42 1.00
60569 2022-05-03 17:41:25 Terrasse 20.50 18.63 1.00
60568 2022-05-03 17:12:59 Terrasse 20.90 19.07 1.00
60567 2022-05-03 16:44:34 Terrasse 21.30 19.51 1.00
60566 2022-05-03 16:16:05 Terrasse 20.60 18.74 1.00
60565 2022-05-03 15:47:44 Terrasse 21.20 19.40 1.00
60564 2022-05-03 15:19:29 Terrasse 22.90 21.27 1.00
60563 2022-05-03 14:51:10 Terrasse 24.80 23.36 1.00
60562 2022-05-03 14:22:58 Terrasse 26.60 25.34 1.00
60561 2022-05-03 13:54:43 Terrasse 26.70 25.45 1.00
60560 2022-05-03 13:26:05 Terrasse 26.40 25.12 1.00
60559 2022-05-03 12:57:29 Terrasse 24.00 22.48 1.00
60558 2022-05-03 12:28:45 Terrasse 22.20 20.50 1.00
60557 2022-05-03 12:00:10 Terrasse 19.80 20.39 97.80
60556 2022-05-03 11:31:33 Terrasse 18.80 16.76 1.00
60555 2022-05-03 11:03:04 Terrasse 17.70 15.55 1.00
60554 2022-05-03 10:34:35 Terrasse 17.40 15.22 1.00
60553 2022-05-03 10:06:03 Terrasse 16.70 17.03 99.90
60552 2022-05-03 09:37:31 Terrasse 15.50 13.13 1.00
60551 2022-05-03 09:09:02 Terrasse 15.20 12.80 1.00
60550 2022-05-03 08:40:33 Terrasse 14.60 12.14 1.00
60549 2022-05-03 08:12:05 Terrasse 14.20 12.22 21.00
60548 2022-05-03 07:43:38 Terrasse 13.90 11.37 1.00
60547 2022-05-03 07:15:12 Terrasse 13.80 11.26 1.00
60546 2022-05-03 06:46:47 Terrasse 14.00 11.95 18.90
60545 2022-05-03 06:18:23 Terrasse 14.00 11.48 1.00
60544 2022-05-03 05:49:59 Terrasse 14.30 14.39 99.90
60543 2022-05-03 05:21:34 Terrasse 14.50 14.61 99.90
60542 2022-05-03 04:53:09 Terrasse 14.60 14.72 99.90
60541 2022-05-03 04:24:43 Terrasse 14.60 14.72 99.90
60540 2022-05-03 03:56:17 Terrasse 14.50 14.61 99.90
60539 2022-05-03 03:27:51 Terrasse 14.50 12.03 1.00
60538 2022-05-03 02:59:28 Terrasse 14.50 12.03 1.00
60537 2022-05-03 02:31:03 Terrasse 14.70 12.25 1.00
60536 2022-05-03 02:02:38 Terrasse 14.90 15.05 99.90
60535 2022-05-03 01:34:13 Terrasse 15.10 15.27 99.90
60534 2022-05-03 01:05:48 Terrasse 15.20 13.57 30.60
60533 2022-05-03 00:37:22 Terrasse 15.30 14.90 77.10
60532 2022-05-03 00:08:56 Terrasse 15.30 12.91 1.00
60531 2022-05-02 23:40:29 Terrasse 15.10 12.69 1.00
60530 2022-05-02 23:12:04 Terrasse 14.80 14.94 99.90
60529 2022-05-02 22:43:39 Terrasse 15.00 12.58 1.00
60528 2022-05-02 22:15:16 Terrasse 15.50 13.13 1.00
60527 2022-05-02 21:46:52 Terrasse 15.80 16.04 99.90
60526 2022-05-02 21:18:30 Terrasse 16.30 16.59 99.90
60525 2022-05-02 20:50:07 Terrasse 16.90 17.25 99.90
60524 2022-05-02 20:21:47 Terrasse 17.80 15.66 1.00
60523 2022-05-02 19:53:27 Terrasse 18.80 16.76 1.00
60522 2022-05-02 19:25:06 Terrasse 19.50 17.53 1.00
60521 2022-05-02 18:56:43 Terrasse 20.10 18.19 1.00
60520 2022-05-02 18:28:22 Terrasse 21.00 19.18 1.00
60519 2022-05-02 18:00:02 Terrasse 22.00 20.28 1.00
60518 2022-05-02 17:31:39 Terrasse 22.90 21.27 1.00
60517 2022-05-02 17:03:14 Terrasse 22.80 21.16 1.00
60516 2022-05-02 16:34:53 Terrasse 23.30 21.71 1.00
60515 2022-05-02 16:06:30 Terrasse 24.00 22.48 1.00
60514 2022-05-02 15:38:09 Terrasse 24.60 23.14 1.00
60513 2022-05-02 15:09:49 Terrasse 25.60 24.24 1.00
60512 2022-05-02 14:41:39 Terrasse 27.50 25.41 1.00
60511 2022-05-02 14:13:14 Terrasse 27.30 25.22 1.00
60510 2022-05-02 13:45:03 Terrasse 28.20 25.94 1.00
60509 2022-05-02 13:16:18 Terrasse 27.40 25.31 1.00
60508 2022-05-02 12:47:25 Terrasse 23.70 22.15 1.00
60507 2022-05-02 12:18:41 Terrasse 20.00 20.66 99.90
60506 2022-05-02 11:50:10 Terrasse 18.80 19.34 99.90
60505 2022-05-02 11:21:45 Terrasse 18.40 16.32 1.00
60504 2022-05-02 10:53:12 Terrasse 17.60 15.44 1.00
60503 2022-05-02 10:24:35 Terrasse 15.80 13.46 1.00
60502 2022-05-02 09:56:07 Terrasse 15.40 13.02 1.00
60501 2022-05-02 09:27:33 Terrasse 14.00 11.48 1.00
60500 2022-05-02 08:59:02 Terrasse 13.10 10.49 1.00
60499 2022-05-02 08:30:29 Terrasse 12.00 9.28 1.00
60498 2022-05-02 08:01:57 Terrasse 11.00 8.18 1.00
60497 2022-05-02 07:33:30 Terrasse 10.40 9.09 60.90
60496 2022-05-02 07:05:04 Terrasse 10.20 8.41 43.40
60495 2022-05-02 06:36:37 Terrasse 10.00 7.70 24.50
60494 2022-05-02 06:08:13 Terrasse 10.20 7.30 1.00
60493 2022-05-02 05:39:51 Terrasse 10.70 7.85 1.00
60492 2022-05-02 05:11:27 Terrasse 11.00 8.18 1.00
60491 2022-05-02 04:43:03 Terrasse 11.20 10.98 99.90
60490 2022-05-02 04:14:37 Terrasse 11.30 11.09 99.90
60489 2022-05-02 03:46:15 Terrasse 11.50 11.31 99.90
60488 2022-05-02 03:17:50 Terrasse 11.60 11.42 99.90
60487 2022-05-02 02:49:26 Terrasse 11.80 11.64 99.90
60486 2022-05-02 02:21:02 Terrasse 12.10 11.97 99.90
60485 2022-05-02 01:52:37 Terrasse 12.20 9.50 1.00
60484 2022-05-02 01:24:12 Terrasse 12.40 9.72 1.00
60483 2022-05-02 00:55:47 Terrasse 12.40 9.72 1.00
60482 2022-05-02 00:27:21 Terrasse 12.30 10.28 26.50
60481 2022-05-01 23:58:57 Terrasse 12.40 12.30 99.90
60480 2022-05-01 23:30:34 Terrasse 12.60 9.94 1.00
60479 2022-05-01 23:02:09 Terrasse 12.70 12.63 99.90
60478 2022-05-01 22:33:46 Terrasse 12.90 12.85 99.90
60477 2022-05-01 22:05:23 Terrasse 13.20 13.18 99.90
60476 2022-05-01 21:37:00 Terrasse 13.60 13.62 99.90
60475 2022-05-01 21:08:37 Terrasse 13.90 11.37 1.00
60474 2022-05-01 20:40:14 Terrasse 14.20 11.70 1.00
60473 2022-05-01 20:11:50 Terrasse 14.50 12.03 1.00
60472 2022-05-01 19:43:28 Terrasse 14.90 13.86 54.20
60471 2022-05-01 19:15:04 Terrasse 15.40 15.60 99.90
60470 2022-05-01 18:46:41 Terrasse 15.80 15.15 65.70
60469 2022-05-01 18:18:18 Terrasse 16.10 13.79 1.00
60468 2022-05-01 17:50:00 Terrasse 16.90 14.87 8.70
60467 2022-05-01 17:21:34 Terrasse 17.20 17.58 99.90
60466 2022-05-01 16:53:05 Terrasse 16.90 17.25 99.90
60465 2022-05-01 16:24:38 Terrasse 16.70 17.03 99.90
60464 2022-05-01 15:56:11 Terrasse 16.60 16.92 99.90
60463 2022-05-01 15:27:45 Terrasse 16.50 14.31 4.10
60462 2022-05-01 14:59:30 Terrasse 17.90 15.77 1.00
60461 2022-05-01 14:30:47 Terrasse 16.80 14.56 1.00
60460 2022-05-01 14:02:17 Terrasse 16.20 13.90 1.00
60459 2022-05-01 13:33:47 Terrasse 16.00 16.26 99.90
60458 2022-05-01 13:05:19 Terrasse 15.10 15.27 99.90
60457 2022-05-01 12:36:55 Terrasse 15.10 12.69 1.00
60456 2022-05-01 12:08:36 Terrasse 16.00 14.44 30.00
60455 2022-05-01 11:40:20 Terrasse 17.60 18.02 99.90
60454 2022-05-01 11:11:39 Terrasse 15.50 13.13 1.00
60453 2022-05-01 10:43:06 Terrasse 14.10 11.59 1.00
60452 2022-05-01 10:14:27 Terrasse 12.10 9.39 1.00
60451 2022-05-01 09:45:57 Terrasse 10.90 9.97 73.70
60450 2022-05-01 09:17:30 Terrasse 10.50 7.63 1.00
60449 2022-05-01 08:49:04 Terrasse 10.10 7.19 1.00
60448 2022-05-01 08:20:38 Terrasse 9.90 6.97 1.00
60447 2022-05-01 07:52:13 Terrasse 9.70 6.75 1.00
60446 2022-05-01 07:23:47 Terrasse 9.70 9.33 99.90
60445 2022-05-01 06:55:21 Terrasse 9.50 6.53 1.00
60444 2022-05-01 06:26:55 Terrasse 9.40 9.00 99.90
60443 2022-05-01 05:58:31 Terrasse 9.30 6.31 1.00
60442 2022-05-01 05:30:06 Terrasse 9.20 6.20 1.00
60441 2022-05-01 05:01:42 Terrasse 9.40 6.42 1.00
60440 2022-05-01 04:33:17 Terrasse 9.50 6.53 1.00
60439 2022-05-01 04:04:52 Terrasse 9.60 7.81 45.60
60438 2022-05-01 03:36:28 Terrasse 9.50 6.53 1.00
60437 2022-05-01 03:08:03 Terrasse 9.50 7.78 48.70
60436 2022-05-01 02:39:40 Terrasse 9.50 9.11 99.90
60435 2022-05-01 02:11:18 Terrasse 9.60 9.22 99.90
60434 2022-05-01 01:42:53 Terrasse 9.80 9.44 99.90
60433 2022-05-01 01:14:28 Terrasse 9.80 6.86 1.00
60432 2022-05-01 00:46:04 Terrasse 9.70 6.75 1.00
60431 2022-05-01 00:17:40 Terrasse 9.80 6.86 1.00
60430 2022-04-30 23:49:15 Terrasse 9.80 6.86 1.00
60429 2022-04-30 23:20:52 Terrasse 10.10 9.77 99.90
60428 2022-04-30 22:52:27 Terrasse 10.20 7.30 1.00
60427 2022-04-30 22:24:04 Terrasse 10.30 8.48 41.90
60426 2022-04-30 21:55:41 Terrasse 10.40 10.10 99.90
60425 2022-04-30 21:27:17 Terrasse 10.60 7.74 1.00
60424 2022-04-30 20:58:55 Terrasse 10.70 10.43 99.90
60423 2022-04-30 20:30:33 Terrasse 10.90 8.07 1.00
60422 2022-04-30 20:02:10 Terrasse 11.30 11.09 99.90
60421 2022-04-30 19:33:47 Terrasse 11.60 11.42 99.90
60420 2022-04-30 19:05:24 Terrasse 11.70 11.53 99.90
60419 2022-04-30 18:37:01 Terrasse 12.10 11.97 99.90
60418 2022-04-30 18:08:36 Terrasse 12.20 9.50 1.00
60417 2022-04-30 17:40:11 Terrasse 12.30 12.19 99.90
60416 2022-04-30 17:11:46 Terrasse 12.20 12.08 99.90
60415 2022-04-30 16:43:22 Terrasse 12.10 9.39 1.00
60414 2022-04-30 16:14:56 Terrasse 12.00 9.28 1.00
60413 2022-04-30 15:46:34 Terrasse 12.30 12.19 99.90
60412 2022-04-30 15:18:02 Terrasse 11.20 10.98 99.90
60411 2022-04-30 14:49:36 Terrasse 10.80 10.54 99.90
60410 2022-04-30 14:21:09 Terrasse 10.30 9.99 99.90
60409 2022-04-30 13:52:43 Terrasse 10.10 9.77 99.90
60408 2022-04-30 13:24:18 Terrasse 10.00 9.66 99.90
60407 2022-04-30 12:55:53 Terrasse 10.00 9.66 99.90
60406 2022-04-30 12:27:34 Terrasse 10.10 9.77 99.90
60405 2022-04-30 11:59:10 Terrasse 10.20 9.88 99.90
60404 2022-04-30 11:30:47 Terrasse 10.60 10.32 99.90
60403 2022-04-30 11:02:24 Terrasse 10.70 10.43 99.90
60402 2022-04-30 10:33:59 Terrasse 10.50 10.21 99.90
60401 2022-04-30 10:05:34 Terrasse 10.50 10.21 99.90
60400 2022-04-30 09:37:10 Terrasse 10.50 10.21 99.90
60399 2022-04-30 09:08:46 Terrasse 10.70 7.85 1.00
60398 2022-04-30 08:40:23 Terrasse 10.90 8.07 1.00
60397 2022-04-30 08:11:59 Terrasse 11.10 8.29 1.00
60396 2022-04-30 07:43:36 Terrasse 11.20 8.40 1.00
60395 2022-04-30 07:15:11 Terrasse 11.20 9.05 26.00
60394 2022-04-30 06:46:47 Terrasse 11.20 8.40 1.00
60393 2022-04-30 06:18:24 Terrasse 11.40 8.62 1.00
60392 2022-04-30 05:50:02 Terrasse 11.70 8.95 1.00
60391 2022-04-30 05:21:38 Terrasse 11.60 11.42 99.90
60390 2022-04-30 04:53:15 Terrasse 11.90 9.17 1.00
60389 2022-04-30 04:24:53 Terrasse 12.10 9.39 1.00
60388 2022-04-30 03:56:30 Terrasse 12.40 9.90 7.70
60387 2022-04-30 03:28:08 Terrasse 12.80 10.16 1.00
60386 2022-04-30 02:59:43 Terrasse 13.00 10.38 1.00
60385 2022-04-30 02:31:20 Terrasse 13.30 10.71 1.00
60384 2022-04-30 02:02:57 Terrasse 13.40 10.82 1.00
60383 2022-04-30 01:34:34 Terrasse 13.60 11.04 1.00
60382 2022-04-30 01:06:11 Terrasse 14.00 11.48 1.00
60381 2022-04-30 00:37:47 Terrasse 14.30 11.81 1.00
60380 2022-04-30 00:09:25 Terrasse 14.60 14.72 99.90
60379 2022-04-29 23:41:04 Terrasse 14.90 12.47 1.00
60378 2022-04-29 23:12:41 Terrasse 15.30 12.91 1.00
60377 2022-04-29 22:44:18 Terrasse 15.50 15.71 99.90
60376 2022-04-29 22:15:55 Terrasse 15.70 13.35 1.00
60375 2022-04-29 21:47:31 Terrasse 15.90 15.97 93.00
60374 2022-04-29 21:19:08 Terrasse 16.20 13.90 1.00
60373 2022-04-29 20:50:45 Terrasse 16.40 14.12 1.00
60372 2022-04-29 20:22:23 Terrasse 16.90 14.67 1.00
60371 2022-04-29 19:54:02 Terrasse 17.70 15.55 1.00
60370 2022-04-29 19:25:41 Terrasse 18.40 16.32 1.00
60369 2022-04-29 18:57:22 Terrasse 19.20 17.20 1.00
60368 2022-04-29 18:29:00 Terrasse 19.70 17.75 1.00
60367 2022-04-29 18:00:37 Terrasse 20.10 18.19 1.00
60366 2022-04-29 17:32:15 Terrasse 20.70 18.85 1.00
60365 2022-04-29 17:03:56 Terrasse 21.10 19.29 1.00
60364 2022-04-29 16:35:28 Terrasse 21.30 19.51 1.00
60363 2022-04-29 16:07:08 Terrasse 21.90 20.17 1.00
60362 2022-04-29 15:38:44 Terrasse 22.60 20.94 1.00
60361 2022-04-29 15:10:12 Terrasse 22.30 20.61 1.00
60360 2022-04-29 14:41:52 Terrasse 22.30 20.61 1.00
60359 2022-04-29 14:13:18 Terrasse 20.80 18.96 1.00
60358 2022-04-29 13:44:54 Terrasse 20.40 18.52 1.00
60357 2022-04-29 13:16:27 Terrasse 19.30 17.31 1.00
60356 2022-04-29 12:48:00 Terrasse 19.60 17.64 1.00
60355 2022-04-29 12:19:36 Terrasse 19.40 17.42 1.00
60354 2022-04-29 11:51:07 Terrasse 18.90 19.45 99.90
60353 2022-04-29 11:22:33 Terrasse 17.80 15.66 1.00
60352 2022-04-29 10:54:02 Terrasse 16.60 14.34 1.00
60351 2022-04-29 10:25:33 Terrasse 15.80 16.04 99.90
60350 2022-04-29 09:57:03 Terrasse 14.70 14.04 69.50
60349 2022-04-29 09:28:32 Terrasse 14.00 11.48 1.00
60348 2022-04-29 09:00:03 Terrasse 12.90 10.27 1.00
60347 2022-04-29 08:31:36 Terrasse 12.40 9.72 1.00
60346 2022-04-29 08:03:07 Terrasse 11.90 9.17 1.00
60345 2022-04-29 07:34:41 Terrasse 11.50 9.31 23.00
60344 2022-04-29 07:06:14 Terrasse 11.00 9.31 44.30
60343 2022-04-29 06:37:49 Terrasse 10.60 7.74 1.00
60342 2022-04-29 06:09:26 Terrasse 10.60 7.74 1.00
60341 2022-04-29 05:41:04 Terrasse 10.90 8.07 1.00
60340 2022-04-29 05:12:43 Terrasse 11.20 8.40 1.00
60339 2022-04-29 04:44:22 Terrasse 11.60 8.84 1.00
60338 2022-04-29 04:16:01 Terrasse 12.10 11.97 99.90
60337 2022-04-29 03:47:38 Terrasse 12.30 9.61 1.00
60336 2022-04-29 03:19:15 Terrasse 12.50 9.83 1.00
60335 2022-04-29 02:50:53 Terrasse 12.70 12.63 99.90
60334 2022-04-29 02:22:29 Terrasse 13.00 12.96 99.90
60333 2022-04-29 01:54:04 Terrasse 13.00 12.96 99.90
60332 2022-04-29 01:25:41 Terrasse 13.00 12.96 99.90
60331 2022-04-29 00:57:16 Terrasse 12.90 12.85 99.90
60330 2022-04-29 00:28:52 Terrasse 12.90 10.27 1.00
60329 2022-04-29 00:00:30 Terrasse 13.10 13.07 99.90
60328 2022-04-28 23:32:06 Terrasse 13.40 12.47 64.00
60327 2022-04-28 23:03:46 Terrasse 13.70 12.79 63.60
60326 2022-04-28 22:35:23 Terrasse 14.10 13.25 64.50
60325 2022-04-28 22:07:03 Terrasse 14.50 13.65 62.90
60324 2022-04-28 21:38:40 Terrasse 14.80 13.93 61.00
60323 2022-04-28 21:10:20 Terrasse 15.20 14.34 60.10
60322 2022-04-28 20:42:00 Terrasse 16.00 15.18 58.40
60321 2022-04-28 20:13:43 Terrasse 17.10 16.35 56.70
60320 2022-04-28 19:45:25 Terrasse 18.00 17.22 52.40
60319 2022-04-28 19:17:05 Terrasse 18.70 17.91 49.30
60318 2022-04-28 18:48:42 Terrasse 19.20 18.47 49.60
60317 2022-04-28 18:20:23 Terrasse 20.00 19.35 49.70
60316 2022-04-28 17:52:00 Terrasse 20.20 19.54 48.30
60315 2022-04-28 17:23:41 Terrasse 20.70 20.05 46.80
60314 2022-04-28 16:55:19 Terrasse 21.50 21.01 50.10
60313 2022-04-28 16:26:57 Terrasse 21.50 21.03 50.80
60312 2022-04-28 15:58:37 Terrasse 23.10 22.73 48.60
60311 2022-04-28 15:30:09 Terrasse 22.30 21.85 48.60
60310 2022-04-28 15:01:58 Terrasse 23.80 23.50 48.40
60309 2022-04-28 14:33:27 Terrasse 24.30 24.08 49.60
60308 2022-04-28 14:05:08 Terrasse 22.40 21.97 48.70
60307 2022-04-28 13:36:42 Terrasse 23.20 22.82 47.50
60306 2022-04-28 13:08:06 Terrasse 24.20 22.70 1.00
60305 2022-04-28 12:39:13 Terrasse 18.00 15.88 1.00
60304 2022-04-28 12:10:54 Terrasse 18.30 16.21 1.00
60303 2022-04-28 11:42:35 Terrasse 18.90 16.87 1.00
60302 2022-04-28 11:14:01 Terrasse 17.80 17.65 77.00
60301 2022-04-28 10:45:25 Terrasse 16.30 14.01 1.00
60300 2022-04-28 10:16:51 Terrasse 14.80 12.36 1.00
60299 2022-04-28 09:48:19 Terrasse 13.40 10.82 1.00
60298 2022-04-28 09:19:49 Terrasse 12.40 12.30 99.90
60297 2022-04-28 08:51:18 Terrasse 11.40 11.20 99.90
60296 2022-04-28 08:22:47 Terrasse 10.30 7.41 1.00
60295 2022-04-28 07:54:20 Terrasse 9.50 6.53 1.00
60294 2022-04-28 07:25:55 Terrasse 9.10 8.67 99.90
60293 2022-04-28 06:57:30 Terrasse 8.80 8.34 99.90
60292 2022-04-28 06:29:06 Terrasse 8.90 5.87 1.00
60291 2022-04-28 06:00:43 Terrasse 9.10 8.67 99.90
60290 2022-04-28 05:32:21 Terrasse 9.30 7.17 34.00
60289 2022-04-28 05:03:57 Terrasse 9.30 6.31 1.00
60288 2022-04-28 04:35:36 Terrasse 9.50 6.53 1.00
60287 2022-04-28 04:07:14 Terrasse 9.70 9.33 99.90
60286 2022-04-28 03:38:51 Terrasse 10.00 7.08 1.00
60285 2022-04-28 03:10:29 Terrasse 10.20 7.30 1.00
60284 2022-04-28 02:42:07 Terrasse 10.40 10.10 99.90
60283 2022-04-28 02:13:45 Terrasse 10.60 7.74 1.00
60282 2022-04-28 01:45:22 Terrasse 10.80 7.96 1.00
60281 2022-04-28 01:17:00 Terrasse 11.10 8.29 1.00
60280 2022-04-28 00:48:37 Terrasse 11.30 11.09 99.90
60279 2022-04-28 00:20:15 Terrasse 11.50 8.73 1.00
60278 2022-04-27 23:51:54 Terrasse 11.80 9.06 1.00
60277 2022-04-27 23:23:33 Terrasse 12.10 9.39 1.00
60276 2022-04-27 22:55:11 Terrasse 12.50 10.50 26.70
60275 2022-04-27 22:26:50 Terrasse 12.80 10.97 32.10
60274 2022-04-27 21:58:28 Terrasse 13.30 13.29 99.90
60273 2022-04-27 21:30:08 Terrasse 13.90 13.95 99.90
60272 2022-04-27 21:01:47 Terrasse 14.50 13.62 61.70
60271 2022-04-27 20:33:30 Terrasse 15.50 14.66 59.50
60270 2022-04-27 20:05:12 Terrasse 16.80 16.00 55.90
60269 2022-04-27 19:36:52 Terrasse 17.40 16.57 52.80
60268 2022-04-27 19:08:32 Terrasse 17.80 16.98 51.60
60267 2022-04-27 18:40:11 Terrasse 18.30 17.51 50.90
60266 2022-04-27 18:11:53 Terrasse 19.10 18.28 46.70
60265 2022-04-27 17:43:31 Terrasse 19.60 18.79 44.80
60264 2022-04-27 17:15:08 Terrasse 19.80 18.98 43.80
60263 2022-04-27 16:46:53 Terrasse 21.40 20.77 44.90
60262 2022-04-27 16:18:32 Terrasse 21.90 21.33 45.20
60261 2022-04-27 15:50:11 Terrasse 22.10 21.46 42.10
60260 2022-04-27 15:21:48 Terrasse 22.70 22.20 45.10
60259 2022-04-27 14:53:39 Terrasse 24.40 24.04 43.90
60258 2022-04-27 14:25:14 Terrasse 26.60 26.74 43.60
60257 2022-04-27 13:57:05 Terrasse 25.80 25.68 47.70
60256 2022-04-27 13:28:39 Terrasse 27.20 27.73 51.80
60255 2022-04-27 12:59:58 Terrasse 25.90 25.96 54.20
60254 2022-04-27 12:30:53 Terrasse 20.40 18.52 1.00
60253 2022-04-27 12:02:30 Terrasse 18.60 16.54 1.00
60252 2022-04-27 11:33:48 Terrasse 17.10 14.89 1.00
60251 2022-04-27 11:05:09 Terrasse 15.00 12.58 1.00
60250 2022-04-27 10:36:35 Terrasse 13.40 10.82 1.00
60249 2022-04-27 10:08:02 Terrasse 12.10 11.97 99.90
60248 2022-04-27 09:39:32 Terrasse 11.00 8.18 1.00
60247 2022-04-27 09:11:02 Terrasse 10.10 7.19 1.00
60246 2022-04-27 08:42:29 Terrasse 9.00 5.98 1.00
60245 2022-04-27 08:14:02 Terrasse 8.00 4.88 1.00
60244 2022-04-27 07:45:34 Terrasse 7.50 4.33 1.00
60243 2022-04-27 07:17:10 Terrasse 6.90 3.67 1.00
60242 2022-04-27 06:48:47 Terrasse 6.80 3.56 1.00
60241 2022-04-27 06:20:23 Terrasse 6.90 3.67 1.00
60240 2022-04-27 05:52:00 Terrasse 7.20 4.00 1.00
60239 2022-04-27 05:23:38 Terrasse 7.50 4.33 1.00
60238 2022-04-27 04:55:15 Terrasse 7.90 4.77 1.00
60237 2022-04-27 04:26:52 Terrasse 7.90 4.77 1.00
60236 2022-04-27 03:58:28 Terrasse 7.90 4.77 1.00
60235 2022-04-27 03:30:05 Terrasse 7.90 4.77 1.00
60234 2022-04-27 03:01:42 Terrasse 7.80 4.66 1.00
60233 2022-04-27 02:33:19 Terrasse 7.80 4.66 1.00
60232 2022-04-27 02:04:57 Terrasse 7.90 4.77 1.00
60231 2022-04-27 01:36:36 Terrasse 8.10 4.99 1.00
60230 2022-04-27 01:08:14 Terrasse 8.30 5.21 1.00
60229 2022-04-27 00:39:51 Terrasse 8.10 4.99 1.00
60228 2022-04-27 00:11:26 Terrasse 8.10 4.99 1.00
60227 2022-04-26 23:43:03 Terrasse 8.00 4.88 1.00
60226 2022-04-26 23:14:40 Terrasse 8.20 5.10 1.00
60225 2022-04-26 22:46:17 Terrasse 8.10 4.99 1.00
60224 2022-04-26 22:17:57 Terrasse 8.10 4.99 1.00
60223 2022-04-26 21:49:34 Terrasse 8.20 5.10 1.00
60222 2022-04-26 21:21:12 Terrasse 8.50 5.43 1.00
60221 2022-04-26 20:52:50 Terrasse 8.70 5.65 1.00
60220 2022-04-26 20:24:34 Terrasse 9.00 5.98 1.00
60219 2022-04-26 19:56:10 Terrasse 9.20 6.20 1.00
60218 2022-04-26 19:27:48 Terrasse 9.40 6.42 1.00
60217 2022-04-26 18:59:27 Terrasse 9.90 6.97 1.00
60216 2022-04-26 18:31:04 Terrasse 10.00 9.66 99.90
60215 2022-04-26 18:02:43 Terrasse 10.00 9.66 99.90
60214 2022-04-26 17:34:23 Terrasse 10.40 10.10 99.90
60213 2022-04-26 17:06:00 Terrasse 10.60 10.32 99.90
60212 2022-04-26 16:37:34 Terrasse 9.90 9.55 99.90
60211 2022-04-26 16:09:12 Terrasse 10.00 9.66 99.90
60210 2022-04-26 15:40:51 Terrasse 10.40 7.52 1.00
60209 2022-04-26 15:12:25 Terrasse 10.20 7.30 1.00
60208 2022-04-26 14:44:00 Terrasse 10.00 7.08 1.00
60207 2022-04-26 14:15:32 Terrasse 9.50 6.53 1.00
60206 2022-04-26 13:47:10 Terrasse 9.60 6.64 1.00
60205 2022-04-26 13:18:48 Terrasse 9.60 6.64 1.00
60204 2022-04-26 12:50:22 Terrasse 9.40 6.42 1.00
60203 2022-04-26 12:21:59 Terrasse 9.40 6.42 1.00
60202 2022-04-26 11:53:36 Terrasse 9.40 6.42 1.00
60201 2022-04-26 11:25:13 Terrasse 9.50 6.53 1.00
60200 2022-04-26 10:56:48 Terrasse 9.20 6.20 1.00
60199 2022-04-26 10:28:23 Terrasse 8.90 5.87 1.00
60198 2022-04-26 09:59:59 Terrasse 8.70 5.65 1.00
60197 2022-04-26 09:31:36 Terrasse 8.70 5.65 1.00
60196 2022-04-26 09:03:12 Terrasse 8.70 5.65 1.00
60195 2022-04-26 08:34:49 Terrasse 8.40 5.32 1.00
60194 2022-04-26 08:06:24 Terrasse 8.10 4.99 1.00
60193 2022-04-26 07:37:59 Terrasse 8.00 4.88 1.00
60192 2022-04-26 07:09:36 Terrasse 8.00 4.88 1.00
60191 2022-04-26 06:41:13 Terrasse 8.10 4.99 1.00
60190 2022-04-26 06:12:50 Terrasse 8.10 4.99 1.00
60189 2022-04-26 05:44:27 Terrasse 8.10 4.99 1.00
60188 2022-04-26 05:16:05 Terrasse 8.10 4.99 1.00
60187 2022-04-26 04:47:40 Terrasse 8.00 4.88 1.00
60186 2022-04-26 04:19:17 Terrasse 8.10 4.99 1.00
60185 2022-04-26 03:50:55 Terrasse 8.30 5.21 1.00
60184 2022-04-26 03:22:34 Terrasse 8.30 5.21 1.00
60183 2022-04-26 02:54:09 Terrasse 8.10 4.99 1.00
60182 2022-04-26 02:25:47 Terrasse 8.10 4.99 1.00
60181 2022-04-26 01:57:23 Terrasse 8.10 4.99 1.00
60180 2022-04-26 01:29:01 Terrasse 8.20 5.10 1.00
60179 2022-04-26 01:00:39 Terrasse 8.40 5.32 1.00
60178 2022-04-26 00:32:16 Terrasse 8.50 5.43 1.00
60177 2022-04-26 00:03:54 Terrasse 8.80 5.76 1.00
60176 2022-04-25 23:35:32 Terrasse 8.90 5.87 1.00
60175 2022-04-25 23:07:12 Terrasse 9.30 6.31 1.00
60174 2022-04-25 22:38:50 Terrasse 9.70 6.75 1.00
60173 2022-04-25 22:10:28 Terrasse 10.00 7.08 1.00
60172 2022-04-25 21:42:06 Terrasse 10.30 7.41 1.00
60171 2022-04-25 21:13:46 Terrasse 10.50 7.63 1.00
60170 2022-04-25 20:45:25 Terrasse 10.70 7.85 1.00
60169 2022-04-25 20:17:04 Terrasse 11.00 8.18 1.00
60168 2022-04-25 19:48:44 Terrasse 11.60 11.42 99.90
60167 2022-04-25 19:20:24 Terrasse 12.00 11.86 99.90
60166 2022-04-25 18:52:01 Terrasse 11.90 11.75 99.90
60165 2022-04-25 18:23:44 Terrasse 12.70 12.63 99.90
60164 2022-04-25 17:55:28 Terrasse 14.20 14.28 99.90
60163 2022-04-25 17:27:08 Terrasse 14.90 12.47 1.00
60162 2022-04-25 16:58:47 Terrasse 15.50 13.13 1.00
60161 2022-04-25 16:30:26 Terrasse 16.10 16.37 99.90
60160 2022-04-25 16:02:04 Terrasse 16.40 14.12 1.00
60159 2022-04-25 15:33:48 Terrasse 17.30 15.11 1.00
60158 2022-04-25 15:05:26 Terrasse 17.90 15.77 1.00
60157 2022-04-25 14:37:17 Terrasse 19.60 20.22 99.90
60156 2022-04-25 14:08:28 Terrasse 16.50 15.80 61.20
60155 2022-04-25 13:40:14 Terrasse 17.80 15.66 1.00
60154 2022-04-25 13:11:28 Terrasse 15.60 13.24 1.00
60153 2022-04-25 12:43:02 Terrasse 14.90 15.05 99.90
60152 2022-04-25 12:14:40 Terrasse 15.30 12.91 1.00
60151 2022-04-25 11:46:07 Terrasse 14.30 11.81 1.00
60150 2022-04-25 11:17:38 Terrasse 13.80 13.84 99.90
60149 2022-04-25 10:49:11 Terrasse 12.90 10.27 1.00
60148 2022-04-25 10:20:48 Terrasse 12.80 12.74 99.90
60147 2022-04-25 09:52:21 Terrasse 12.10 9.39 1.00
60146 2022-04-25 09:23:53 Terrasse 11.20 8.40 1.00
60145 2022-04-25 08:55:28 Terrasse 10.80 7.96 1.00
60144 2022-04-25 08:27:02 Terrasse 10.50 10.21 99.90
60143 2022-04-25 07:58:32 Terrasse 9.20 8.78 99.90
60142 2022-04-25 07:30:07 Terrasse 8.80 8.34 99.90
60141 2022-04-25 07:01:45 Terrasse 8.70 8.23 99.90
60140 2022-04-25 06:33:22 Terrasse 8.80 8.34 99.90
60139 2022-04-25 06:04:58 Terrasse 8.70 8.23 99.90
60138 2022-04-25 05:36:33 Terrasse 8.60 8.12 99.90
60137 2022-04-25 05:08:10 Terrasse 8.30 7.79 99.90
60136 2022-04-25 04:39:47 Terrasse 8.40 7.90 99.90
60135 2022-04-25 04:11:27 Terrasse 8.50 8.01 99.90
60134 2022-04-25 03:43:07 Terrasse 8.90 8.45 99.90
60133 2022-04-25 03:14:46 Terrasse 9.40 8.79 91.80
60132 2022-04-25 02:46:24 Terrasse 9.40 7.75 52.00
60131 2022-04-25 02:18:01 Terrasse 9.40 8.59 84.00
60130 2022-04-25 01:49:38 Terrasse 9.30 8.51 85.30
60129 2022-04-25 01:21:17 Terrasse 9.50 6.53 1.00
60128 2022-04-25 00:52:55 Terrasse 9.50 6.53 1.00
60127 2022-04-25 00:24:34 Terrasse 9.60 6.64 1.00
60126 2022-04-24 23:56:13 Terrasse 9.80 6.86 1.00
60125 2022-04-24 23:27:52 Terrasse 10.10 9.77 99.90
60124 2022-04-24 22:59:33 Terrasse 10.70 10.43 99.90
60123 2022-04-24 22:31:13 Terrasse 11.10 8.29 1.00
60122 2022-04-24 22:02:52 Terrasse 11.50 8.73 1.00
60121 2022-04-24 21:34:31 Terrasse 11.60 8.84 1.00
60120 2022-04-24 21:06:11 Terrasse 11.90 9.98 31.80
60119 2022-04-24 20:37:49 Terrasse 12.40 9.72 1.00
60118 2022-04-24 20:09:27 Terrasse 12.80 12.74 99.90
60117 2022-04-24 19:41:06 Terrasse 13.20 10.60 1.00
60116 2022-04-24 19:12:44 Terrasse 13.40 10.82 1.00
60115 2022-04-24 18:44:22 Terrasse 13.50 10.93 1.00
60114 2022-04-24 18:16:02 Terrasse 13.70 11.15 1.00
60113 2022-04-24 17:47:40 Terrasse 13.80 11.26 1.00
60112 2022-04-24 17:19:19 Terrasse 14.20 11.70 1.00
60111 2022-04-24 16:51:00 Terrasse 14.90 12.47 1.00
60110 2022-04-24 16:22:39 Terrasse 15.10 12.69 1.00
60109 2022-04-24 15:54:16 Terrasse 15.30 15.49 99.90
60108 2022-04-24 15:25:55 Terrasse 15.60 14.04 31.60
60107 2022-04-24 14:57:33 Terrasse 15.90 13.57 1.00
60106 2022-04-24 14:29:10 Terrasse 16.00 13.68 1.00
60105 2022-04-24 14:00:43 Terrasse 15.30 12.91 1.00
60104 2022-04-24 13:32:20 Terrasse 15.50 13.13 1.00
60103 2022-04-24 13:03:57 Terrasse 15.60 13.24 1.00
60102 2022-04-24 12:35:36 Terrasse 16.20 13.90 1.00
60101 2022-04-24 12:07:19 Terrasse 16.50 14.23 1.00
60100 2022-04-24 11:38:59 Terrasse 17.20 15.00 1.00
60099 2022-04-24 11:10:23 Terrasse 15.30 12.91 1.00
60098 2022-04-24 10:41:56 Terrasse 14.70 14.83 99.90
60097 2022-04-24 10:13:29 Terrasse 14.10 14.17 99.90
60096 2022-04-24 09:45:02 Terrasse 13.50 13.51 99.90
60095 2022-04-24 09:16:34 Terrasse 12.50 12.41 99.90
60094 2022-04-24 08:48:07 Terrasse 11.90 11.75 99.90
60093 2022-04-24 08:19:41 Terrasse 11.50 11.31 99.90
60092 2022-04-24 07:51:19 Terrasse 11.30 11.09 99.90
60091 2022-04-24 07:22:57 Terrasse 11.40 8.62 1.00
60090 2022-04-24 06:54:36 Terrasse 11.60 8.84 1.00
60089 2022-04-24 06:26:15 Terrasse 11.60 8.84 1.00
60088 2022-04-24 05:57:52 Terrasse 11.70 11.53 99.90
60087 2022-04-24 05:29:29 Terrasse 11.80 11.64 99.90
60086 2022-04-24 05:01:07 Terrasse 11.90 9.17 1.00
60085 2022-04-24 04:32:45 Terrasse 12.00 9.28 1.00
60084 2022-04-24 04:04:24 Terrasse 12.00 9.28 1.00
60083 2022-04-24 03:36:00 Terrasse 12.10 9.39 1.00
60082 2022-04-24 03:07:38 Terrasse 12.10 9.39 1.00
60081 2022-04-24 02:39:16 Terrasse 12.10 9.39 1.00
60080 2022-04-24 02:10:55 Terrasse 12.20 9.50 1.00
60079 2022-04-24 01:42:33 Terrasse 12.40 12.30 99.90
60078 2022-04-24 01:14:11 Terrasse 12.70 10.05 1.00
60077 2022-04-24 00:45:49 Terrasse 12.80 10.16 1.00
60076 2022-04-24 00:17:28 Terrasse 12.90 12.85 99.90
60075 2022-04-23 23:49:05 Terrasse 13.20 10.60 1.00
60074 2022-04-23 23:20:43 Terrasse 13.20 10.60 1.00
60073 2022-04-23 22:52:21 Terrasse 13.30 10.71 1.00
60072 2022-04-23 22:23:59 Terrasse 13.30 13.29 99.90
60071 2022-04-23 21:55:38 Terrasse 13.60 13.62 99.90
60070 2022-04-23 21:27:17 Terrasse 13.80 13.12 72.30
60069 2022-04-23 20:58:57 Terrasse 14.10 11.59 1.00
60068 2022-04-23 20:30:36 Terrasse 14.40 11.92 1.00
60067 2022-04-23 20:02:15 Terrasse 14.90 15.05 99.90
60066 2022-04-23 19:33:57 Terrasse 15.50 15.71 99.90
60065 2022-04-23 19:05:36 Terrasse 15.80 14.91 56.30
60064 2022-04-23 18:37:14 Terrasse 16.00 16.26 99.90
60063 2022-04-23 18:08:52 Terrasse 16.20 13.90 1.00
60062 2022-04-23 17:40:30 Terrasse 16.50 16.81 99.90
60061 2022-04-23 17:12:07 Terrasse 16.30 16.59 99.90
60060 2022-04-23 16:43:40 Terrasse 15.80 13.46 1.00
60059 2022-04-23 16:15:13 Terrasse 15.20 12.80 1.00
60058 2022-04-23 15:46:47 Terrasse 15.00 12.58 1.00
60057 2022-04-23 15:18:25 Terrasse 15.00 12.58 1.00
60056 2022-04-23 14:50:02 Terrasse 15.10 12.69 1.00
60055 2022-04-23 14:21:40 Terrasse 15.20 15.38 99.90
60054 2022-04-23 13:53:17 Terrasse 15.10 15.27 99.90
60053 2022-04-23 13:24:58 Terrasse 15.50 13.13 1.00
60052 2022-04-23 12:56:38 Terrasse 16.00 16.26 99.90
60051 2022-04-23 12:28:21 Terrasse 16.70 14.45 1.00
60050 2022-04-23 11:59:55 Terrasse 16.90 17.25 99.90
60049 2022-04-23 11:31:22 Terrasse 14.60 14.72 99.90
60048 2022-04-23 11:02:58 Terrasse 14.50 12.03 1.00
60047 2022-04-23 10:34:29 Terrasse 13.70 11.15 1.00
60046 2022-04-23 10:06:04 Terrasse 13.20 10.60 1.00
60045 2022-04-23 09:37:39 Terrasse 12.70 12.63 99.90
60044 2022-04-23 09:09:15 Terrasse 12.30 9.61 1.00
60043 2022-04-23 08:40:50 Terrasse 11.80 9.06 1.00
60042 2022-04-23 08:12:27 Terrasse 11.50 8.73 1.00
60041 2022-04-23 07:44:03 Terrasse 11.40 8.62 1.00
60040 2022-04-23 07:15:41 Terrasse 11.20 8.40 1.00
60039 2022-04-23 06:47:18 Terrasse 11.00 8.18 1.00
60038 2022-04-23 06:18:58 Terrasse 11.10 10.87 99.90
60037 2022-04-23 05:50:37 Terrasse 11.10 10.87 99.90
60036 2022-04-23 05:22:16 Terrasse 11.10 8.29 1.00
60035 2022-04-23 04:53:55 Terrasse 11.10 10.87 99.90
60034 2022-04-23 04:25:34 Terrasse 11.20 10.98 99.90
60033 2022-04-23 03:57:12 Terrasse 11.30 8.51 1.00
60032 2022-04-23 03:28:51 Terrasse 11.50 8.73 1.00
60031 2022-04-23 03:00:31 Terrasse 11.60 8.84 1.00
60030 2022-04-23 02:32:10 Terrasse 11.80 11.64 99.90
60029 2022-04-23 02:03:49 Terrasse 12.00 11.86 99.90
60028 2022-04-23 01:35:28 Terrasse 12.30 9.61 1.00
60027 2022-04-23 01:07:09 Terrasse 12.70 12.63 99.90
60026 2022-04-23 00:38:49 Terrasse 13.00 10.38 1.00
60025 2022-04-23 00:10:30 Terrasse 13.30 10.71 1.00
60024 2022-04-22 23:42:11 Terrasse 13.80 11.26 1.00
60023 2022-04-22 23:13:51 Terrasse 14.10 14.17 99.90
60022 2022-04-22 22:45:31 Terrasse 14.50 12.33 12.30
60021 2022-04-22 22:17:10 Terrasse 14.80 12.36 1.00
60020 2022-04-22 21:48:50 Terrasse 15.10 12.69 1.00
60019 2022-04-22 21:20:29 Terrasse 15.50 13.13 1.00
60018 2022-04-22 20:52:09 Terrasse 15.80 13.46 1.00
60017 2022-04-22 20:23:49 Terrasse 16.50 14.33 4.80
60016 2022-04-22 19:55:30 Terrasse 17.00 14.78 1.00
60015 2022-04-22 19:27:11 Terrasse 17.80 15.66 1.00
60014 2022-04-22 18:58:54 Terrasse 18.70 16.65 1.00
60013 2022-04-22 18:30:36 Terrasse 19.70 17.75 1.00
60012 2022-04-22 18:02:18 Terrasse 20.40 21.10 99.90
60011 2022-04-22 17:33:58 Terrasse 21.10 21.87 99.90
60010 2022-04-22 17:05:39 Terrasse 22.00 22.86 99.90
60009 2022-04-22 16:37:22 Terrasse 22.80 23.74 99.90
60008 2022-04-22 16:09:01 Terrasse 23.30 24.29 99.90
60007 2022-04-22 15:40:41 Terrasse 23.60 24.62 99.90
60006 2022-04-22 15:12:25 Terrasse 24.60 25.72 99.90
60005 2022-04-22 14:44:22 Terrasse 27.40 34.23 99.90
60004 2022-04-22 14:15:52 Terrasse 26.90 32.56 99.90
60003 2022-04-22 13:48:01 Terrasse 28.30 26.03 1.00
60002 2022-04-22 13:19:28 Terrasse 28.80 26.39 1.00
60001 2022-04-22 12:50:31 Terrasse 25.30 23.91 1.00
60000 2022-04-22 12:21:41 Terrasse 19.90 17.97 1.00
59999 2022-04-22 11:53:06 Terrasse 18.10 18.57 99.90
59998 2022-04-22 11:24:35 Terrasse 16.40 14.12 1.00
59997 2022-04-22 10:56:03 Terrasse 15.00 12.58 1.00
59996 2022-04-22 10:27:34 Terrasse 13.80 11.26 1.00
59995 2022-04-22 09:59:05 Terrasse 12.80 12.74 99.90
59994 2022-04-22 09:30:39 Terrasse 11.90 9.80 25.10
59993 2022-04-22 09:02:12 Terrasse 11.10 8.29 1.00
59992 2022-04-22 08:33:44 Terrasse 10.30 9.99 99.90
59991 2022-04-22 08:05:18 Terrasse 9.70 6.75 1.00
59990 2022-04-22 07:36:55 Terrasse 9.40 6.42 1.00
59989 2022-04-22 07:08:32 Terrasse 9.20 6.20 1.00
59988 2022-04-22 06:40:11 Terrasse 9.20 6.20 1.00
59987 2022-04-22 06:11:50 Terrasse 9.20 6.20 1.00
59986 2022-04-22 05:43:29 Terrasse 9.30 6.31 1.00
59985 2022-04-22 05:15:07 Terrasse 9.40 6.42 1.00
59984 2022-04-22 04:46:46 Terrasse 9.50 6.53 1.00
59983 2022-04-22 04:18:26 Terrasse 9.70 6.75 1.00
59982 2022-04-22 03:50:06 Terrasse 9.80 6.86 1.00
59981 2022-04-22 03:21:43 Terrasse 9.90 6.97 1.00
59980 2022-04-22 02:53:24 Terrasse 10.10 9.77 99.90
59979 2022-04-22 02:25:03 Terrasse 10.30 9.99 99.90
59978 2022-04-22 01:56:43 Terrasse 10.40 10.10 99.90
59977 2022-04-22 01:28:21 Terrasse 10.70 7.85 1.00
59976 2022-04-22 01:00:01 Terrasse 10.90 10.65 99.90
59975 2022-04-22 00:31:41 Terrasse 11.20 10.98 99.90
59974 2022-04-22 00:03:22 Terrasse 11.50 8.73 1.00
59973 2022-04-21 23:35:01 Terrasse 11.80 9.06 1.00
59972 2022-04-21 23:06:41 Terrasse 12.30 12.19 99.90
59971 2022-04-21 22:38:23 Terrasse 12.80 10.16 1.00
59970 2022-04-21 22:10:04 Terrasse 13.20 10.60 1.00
59969 2022-04-21 21:41:45 Terrasse 13.70 13.73 99.90
59968 2022-04-21 21:13:27 Terrasse 14.00 14.06 99.90
59967 2022-04-21 20:45:08 Terrasse 14.70 12.25 1.00
59966 2022-04-21 20:16:49 Terrasse 15.30 15.49 99.90
59965 2022-04-21 19:48:29 Terrasse 15.60 13.24 1.00
59964 2022-04-21 19:20:11 Terrasse 16.10 13.79 1.00
59963 2022-04-21 18:51:51 Terrasse 16.70 17.03 99.90
59962 2022-04-21 18:23:29 Terrasse 16.90 14.67 1.00
59961 2022-04-21 17:55:10 Terrasse 17.50 15.33 1.00
59960 2022-04-21 17:26:48 Terrasse 17.70 15.55 1.00
59959 2022-04-21 16:58:31 Terrasse 18.60 16.54 1.00
59958 2022-04-21 16:30:18 Terrasse 20.30 20.99 99.90
59957 2022-04-21 16:01:59 Terrasse 20.90 21.65 99.90
59956 2022-04-21 15:33:37 Terrasse 21.20 21.98 99.90
59955 2022-04-21 15:05:21 Terrasse 21.80 22.64 99.90
59954 2022-04-21 14:37:08 Terrasse 23.90 24.95 99.90
59953 2022-04-21 14:08:49 Terrasse 25.30 26.22 99.90
59952 2022-04-21 13:40:51 Terrasse 27.40 34.23 99.90
59951 2022-04-21 13:12:13 Terrasse 26.70 25.45 1.00
59950 2022-04-21 12:42:58 Terrasse 20.30 18.41 1.00
59949 2022-04-21 12:14:17 Terrasse 15.80 13.46 1.00
59948 2022-04-21 11:45:49 Terrasse 14.20 13.45 67.80
59947 2022-04-21 11:17:27 Terrasse 14.30 14.39 99.90
59946 2022-04-21 10:49:00 Terrasse 13.60 11.04 1.00
59945 2022-04-21 10:20:35 Terrasse 12.80 10.69 21.20
59944 2022-04-21 09:52:08 Terrasse 12.40 12.30 99.90
59943 2022-04-21 09:23:42 Terrasse 11.60 8.84 1.00
59942 2022-04-21 08:55:16 Terrasse 10.70 7.85 1.00
59941 2022-04-21 08:26:51 Terrasse 10.30 7.41 1.00
59940 2022-04-21 07:58:25 Terrasse 9.60 9.22 99.90
59939 2022-04-21 07:30:02 Terrasse 9.30 6.31 1.00
59938 2022-04-21 07:01:39 Terrasse 9.00 5.98 1.00
59937 2022-04-21 06:33:16 Terrasse 8.70 5.65 1.00
59936 2022-04-21 06:04:54 Terrasse 8.30 6.37 45.20
59935 2022-04-21 05:36:34 Terrasse 8.40 7.90 99.90
59934 2022-04-21 05:08:13 Terrasse 8.60 8.12 99.90
59933 2022-04-21 04:39:55 Terrasse 8.80 5.76 1.00
59932 2022-04-21 04:11:36 Terrasse 9.30 6.31 1.00
59931 2022-04-21 03:43:15 Terrasse 9.60 6.64 1.00
59930 2022-04-21 03:14:55 Terrasse 9.90 9.55 99.90
59929 2022-04-21 02:46:36 Terrasse 10.20 9.88 99.90
59928 2022-04-21 02:18:17 Terrasse 10.60 7.74 1.00
59927 2022-04-21 01:49:55 Terrasse 10.80 8.99 40.40
59926 2022-04-21 01:21:35 Terrasse 11.20 10.98 99.90
59925 2022-04-21 00:53:15 Terrasse 11.40 11.20 99.90
59924 2022-04-21 00:24:55 Terrasse 11.70 8.95 1.00
59923 2022-04-20 23:56:37 Terrasse 12.20 9.50 1.00
59922 2022-04-20 23:28:16 Terrasse 12.50 12.41 99.90
59921 2022-04-20 22:59:57 Terrasse 13.00 12.96 99.90
59920 2022-04-20 22:31:38 Terrasse 13.30 10.79 3.90
59919 2022-04-20 22:03:19 Terrasse 13.70 11.15 1.00
59918 2022-04-20 21:35:00 Terrasse 14.10 11.59 1.00
59917 2022-04-20 21:06:41 Terrasse 14.40 11.92 1.00
59916 2022-04-20 20:38:22 Terrasse 14.90 12.47 1.00
59915 2022-04-20 20:10:05 Terrasse 15.80 16.04 99.90
59914 2022-04-20 19:41:50 Terrasse 17.00 17.36 99.90
59913 2022-04-20 19:13:31 Terrasse 17.90 18.35 99.90
59912 2022-04-20 18:45:12 Terrasse 18.40 18.90 99.90
59911 2022-04-20 18:16:53 Terrasse 19.10 19.67 99.90
59910 2022-04-20 17:48:32 Terrasse 19.40 20.00 99.90
59909 2022-04-20 17:20:13 Terrasse 19.90 20.55 99.90
59908 2022-04-20 16:51:54 Terrasse 20.30 20.99 99.90
59907 2022-04-20 16:23:33 Terrasse 20.70 21.43 99.90
59906 2022-04-20 15:55:15 Terrasse 21.50 22.31 99.90
59905 2022-04-20 15:26:57 Terrasse 22.20 23.08 99.90
59904 2022-04-20 14:58:47 Terrasse 23.80 24.84 99.90
59903 2022-04-20 14:30:32 Terrasse 26.30 29.40 99.90
59902 2022-04-20 14:02:13 Terrasse 25.60 27.14 99.90
59901 2022-04-20 13:34:01 Terrasse 28.10 36.72 99.90
59900 2022-04-20 13:05:19 Terrasse 27.00 32.89 99.90
59899 2022-04-20 12:36:07 Terrasse 20.80 21.54 99.90
59898 2022-04-20 12:07:41 Terrasse 17.70 18.13 99.90
59897 2022-04-20 11:39:05 Terrasse 16.10 13.79 1.00
59896 2022-04-20 11:10:35 Terrasse 14.60 12.14 1.00
59895 2022-04-20 10:42:07 Terrasse 13.60 11.04 1.00
59894 2022-04-20 10:13:39 Terrasse 12.50 9.83 1.00
59893 2022-04-20 09:45:13 Terrasse 11.50 8.73 1.00
59892 2022-04-20 09:16:45 Terrasse 10.70 7.85 1.00
59891 2022-04-20 08:48:19 Terrasse 10.00 7.08 1.00
59890 2022-04-20 08:19:54 Terrasse 9.30 6.31 1.00
59889 2022-04-20 07:51:30 Terrasse 8.70 7.21 60.70
59888 2022-04-20 07:23:05 Terrasse 8.20 7.68 99.90
59887 2022-04-20 06:54:45 Terrasse 7.90 4.77 1.00
59886 2022-04-20 06:26:25 Terrasse 8.00 7.46 99.90
59885 2022-04-20 05:58:06 Terrasse 8.30 7.00 69.50
59884 2022-04-20 05:29:46 Terrasse 8.70 5.65 1.00
59883 2022-04-20 05:01:28 Terrasse 8.80 5.76 1.00
59882 2022-04-20 04:33:09 Terrasse 9.10 6.09 1.00
59881 2022-04-20 04:04:50 Terrasse 9.40 6.42 1.00
59880 2022-04-20 03:36:32 Terrasse 9.80 6.86 1.00
59879 2022-04-20 03:08:12 Terrasse 10.20 7.30 1.00
59878 2022-04-20 02:39:53 Terrasse 10.50 10.21 99.90
59877 2022-04-20 02:11:33 Terrasse 10.80 10.54 99.90
59876 2022-04-20 01:43:13 Terrasse 11.20 10.98 99.90
59875 2022-04-20 01:14:53 Terrasse 11.50 11.31 99.90
59874 2022-04-20 00:46:34 Terrasse 11.60 11.42 99.90
59873 2022-04-20 00:18:16 Terrasse 12.00 11.86 99.90
59872 2022-04-19 23:49:58 Terrasse 12.40 12.30 99.90
59871 2022-04-19 23:21:38 Terrasse 12.90 12.85 99.90
59870 2022-04-19 22:53:20 Terrasse 13.40 13.40 99.90
59869 2022-04-19 22:25:02 Terrasse 13.90 13.95 99.90
59868 2022-04-19 21:56:43 Terrasse 14.40 14.50 99.90
59867 2022-04-19 21:28:24 Terrasse 14.80 14.94 99.90
59866 2022-04-19 21:00:06 Terrasse 15.40 15.60 99.90
59865 2022-04-19 20:31:49 Terrasse 16.30 16.59 99.90
59864 2022-04-19 20:03:31 Terrasse 17.00 17.36 99.90
59863 2022-04-19 19:35:16 Terrasse 18.20 18.68 99.90
59862 2022-04-19 19:07:00 Terrasse 19.00 19.56 99.90
59861 2022-04-19 18:38:40 Terrasse 19.60 20.22 99.90
59860 2022-04-19 18:10:22 Terrasse 20.20 20.88 99.90
59859 2022-04-19 17:42:03 Terrasse 21.00 21.76 99.90
59858 2022-04-19 17:13:43 Terrasse 21.60 22.42 99.90
59857 2022-04-19 16:45:25 Terrasse 22.30 23.19 99.90
59856 2022-04-19 16:17:07 Terrasse 22.90 23.85 99.90
59855 2022-04-19 15:48:49 Terrasse 23.40 24.40 99.90
59854 2022-04-19 15:20:33 Terrasse 24.40 25.50 99.90
59853 2022-04-19 14:52:35 Terrasse 26.80 32.24 99.90
59852 2022-04-19 14:24:13 Terrasse 27.90 35.99 99.90
59851 2022-04-19 13:56:04 Terrasse 28.00 36.35 99.90
59850 2022-04-19 13:27:48 Terrasse 30.10 44.76 99.90
59849 2022-04-19 12:58:58 Terrasse 27.60 34.93 99.90
59848 2022-04-19 12:29:49 Terrasse 21.10 19.29 1.00
59847 2022-04-19 12:01:18 Terrasse 18.60 16.54 1.00
59846 2022-04-19 11:32:45 Terrasse 16.60 14.34 1.00
59845 2022-04-19 11:04:21 Terrasse 16.30 14.01 1.00
59844 2022-04-19 10:35:51 Terrasse 15.00 12.58 1.00
59843 2022-04-19 10:07:22 Terrasse 13.80 11.26 1.00
59842 2022-04-19 09:38:54 Terrasse 12.70 10.05 1.00
59841 2022-04-19 09:10:26 Terrasse 11.60 8.84 1.00
59840 2022-04-19 08:41:59 Terrasse 10.60 10.32 99.90
59839 2022-04-19 08:13:32 Terrasse 9.60 6.64 1.00
59838 2022-04-19 07:45:10 Terrasse 8.90 8.45 99.90
59837 2022-04-19 07:16:49 Terrasse 8.60 8.12 99.90
59836 2022-04-19 06:48:28 Terrasse 8.80 8.34 99.90
59835 2022-04-19 06:20:08 Terrasse 8.90 5.87 1.00
59834 2022-04-19 05:51:49 Terrasse 8.90 5.87 1.00
59833 2022-04-19 05:23:30 Terrasse 9.10 8.67 99.90
59832 2022-04-19 04:55:10 Terrasse 9.40 9.00 99.90
59831 2022-04-19 04:26:51 Terrasse 9.40 9.00 99.90
59830 2022-04-19 03:58:33 Terrasse 9.60 8.47 71.10
59829 2022-04-19 03:30:15 Terrasse 10.10 7.19 1.00
59828 2022-04-19 03:01:55 Terrasse 10.40 7.52 1.00
59827 2022-04-19 02:33:37 Terrasse 10.90 8.07 1.00
59826 2022-04-19 02:05:18 Terrasse 11.50 8.73 1.00
59825 2022-04-19 01:36:57 Terrasse 11.70 8.95 1.00
59824 2022-04-19 01:08:37 Terrasse 11.70 8.95 1.00
59823 2022-04-19 00:40:18 Terrasse 11.90 9.17 1.00
59822 2022-04-19 00:11:58 Terrasse 12.20 9.50 1.00
59821 2022-04-18 23:43:38 Terrasse 12.20 9.50 1.00
59820 2022-04-18 23:15:19 Terrasse 12.40 9.72 1.00
59819 2022-04-18 22:47:01 Terrasse 12.60 12.52 99.90
59818 2022-04-18 22:18:43 Terrasse 13.20 13.18 99.90
59817 2022-04-18 21:50:24 Terrasse 13.90 13.95 99.90
59816 2022-04-18 21:22:07 Terrasse 14.30 14.39 99.90
59815 2022-04-18 20:53:50 Terrasse 15.00 15.16 99.90
59814 2022-04-18 20:25:34 Terrasse 16.00 16.26 99.90
59813 2022-04-18 19:57:17 Terrasse 17.00 17.36 99.90
59812 2022-04-18 19:28:58 Terrasse 17.80 18.24 99.90
59811 2022-04-18 19:00:41 Terrasse 18.60 19.12 99.90
59810 2022-04-18 18:32:27 Terrasse 19.40 20.00 99.90
59809 2022-04-18 18:04:18 Terrasse 20.00 20.66 99.90
59808 2022-04-18 17:35:56 Terrasse 20.60 21.32 99.90
59807 2022-04-18 17:07:36 Terrasse 21.10 21.87 99.90
59806 2022-04-18 16:39:17 Terrasse 21.50 22.31 99.90
59805 2022-04-18 16:10:58 Terrasse 21.90 22.75 99.90
59804 2022-04-18 15:42:41 Terrasse 22.50 23.41 99.90
59803 2022-04-18 15:14:27 Terrasse 23.40 24.40 99.90
59802 2022-04-18 14:46:27 Terrasse 26.20 29.07 99.90
59801 2022-04-18 14:18:07 Terrasse 26.70 31.92 99.90
59800 2022-04-18 13:50:12 Terrasse 26.80 32.24 99.90
59799 2022-04-18 13:21:47 Terrasse 28.50 38.22 99.90
59798 2022-04-18 12:52:51 Terrasse 25.40 26.53 99.90
59797 2022-04-18 12:23:55 Terrasse 19.20 17.20 1.00
59796 2022-04-18 11:55:21 Terrasse 17.50 15.33 1.00
59795 2022-04-18 11:26:51 Terrasse 16.00 13.68 1.00
59794 2022-04-18 10:58:20 Terrasse 14.50 12.03 1.00
59793 2022-04-18 10:29:51 Terrasse 13.30 10.71 1.00
59792 2022-04-18 10:01:22 Terrasse 12.10 9.39 1.00
59791 2022-04-18 09:32:56 Terrasse 11.30 8.51 1.00
59790 2022-04-18 09:04:30 Terrasse 10.40 7.52 1.00
59789 2022-04-18 08:36:03 Terrasse 9.60 6.64 1.00
59788 2022-04-18 08:07:36 Terrasse 8.80 5.76 1.00
59787 2022-04-18 07:39:13 Terrasse 8.00 7.46 99.90
59786 2022-04-18 07:10:52 Terrasse 7.80 7.24 99.90
59785 2022-04-18 06:42:32 Terrasse 7.90 4.77 1.00
59784 2022-04-18 06:14:12 Terrasse 7.90 5.92 45.00
59783 2022-04-18 05:45:53 Terrasse 8.20 5.10 1.00
59782 2022-04-18 05:17:34 Terrasse 8.70 5.65 1.00
59781 2022-04-18 04:49:14 Terrasse 9.10 6.09 1.00
59780 2022-04-18 04:20:55 Terrasse 9.30 6.31 1.00
59779 2022-04-18 03:52:34 Terrasse 9.30 6.31 1.00
59778 2022-04-18 03:24:15 Terrasse 9.30 6.31 1.00
59777 2022-04-18 02:55:56 Terrasse 9.60 6.64 1.00
59776 2022-04-18 02:27:36 Terrasse 9.90 9.55 99.90
59775 2022-04-18 01:59:17 Terrasse 10.00 9.66 99.90
59774 2022-04-18 01:30:58 Terrasse 10.20 9.88 99.90
59773 2022-04-18 01:02:37 Terrasse 10.30 9.99 99.90
59772 2022-04-18 00:34:17 Terrasse 10.50 10.21 99.90
59771 2022-04-18 00:05:57 Terrasse 10.50 10.21 99.90
59770 2022-04-17 23:37:38 Terrasse 10.90 10.65 99.90
59769 2022-04-17 23:09:20 Terrasse 11.30 11.09 99.90
59768 2022-04-17 22:41:02 Terrasse 11.80 11.64 99.90
59767 2022-04-17 22:12:42 Terrasse 12.30 12.19 99.90
59766 2022-04-17 21:44:25 Terrasse 12.80 12.74 99.90
59765 2022-04-17 21:16:07 Terrasse 13.30 13.29 99.90
59764 2022-04-17 20:47:50 Terrasse 13.90 13.95 99.90
59763 2022-04-17 20:19:35 Terrasse 14.80 14.94 99.90
59762 2022-04-17 19:51:20 Terrasse 15.80 16.04 99.90
59761 2022-04-17 19:23:02 Terrasse 16.80 17.14 99.90
59760 2022-04-17 18:54:44 Terrasse 17.50 17.91 99.90
59759 2022-04-17 18:26:26 Terrasse 18.10 18.57 99.90
59758 2022-04-17 17:58:08 Terrasse 18.60 19.12 99.90
59757 2022-04-17 17:29:50 Terrasse 19.30 19.89 99.90
59756 2022-04-17 17:01:31 Terrasse 19.70 20.33 99.90
59755 2022-04-17 16:33:12 Terrasse 20.20 20.88 99.90
59754 2022-04-17 16:04:53 Terrasse 20.70 21.43 99.90
59753 2022-04-17 15:36:34 Terrasse 21.30 22.09 99.90
59752 2022-04-17 15:08:21 Terrasse 22.20 23.08 99.90
59751 2022-04-17 14:40:11 Terrasse 24.50 25.61 99.90
59750 2022-04-17 14:11:49 Terrasse 24.00 25.06 99.90
59749 2022-04-17 13:43:48 Terrasse 24.60 25.72 99.90
59748 2022-04-17 13:15:11 Terrasse 25.10 23.69 1.00
59747 2022-04-17 12:46:13 Terrasse 20.60 18.74 1.00
59746 2022-04-17 12:17:38 Terrasse 17.20 15.00 1.00
59745 2022-04-17 11:49:03 Terrasse 15.50 13.13 1.00
59744 2022-04-17 11:20:33 Terrasse 14.20 11.70 1.00
59743 2022-04-17 10:52:05 Terrasse 12.90 10.27 1.00
59742 2022-04-17 10:23:36 Terrasse 11.70 8.95 1.00
59741 2022-04-17 09:55:08 Terrasse 10.70 7.85 1.00
59740 2022-04-17 09:26:43 Terrasse 9.90 8.00 40.30
59739 2022-04-17 08:58:25 Terrasse 9.10 8.67 99.90
59738 2022-04-17 08:29:55 Terrasse 8.30 5.21 1.00
59737 2022-04-17 08:01:30 Terrasse 7.50 4.59 10.80
59736 2022-04-17 07:33:07 Terrasse 6.90 6.25 99.90
59735 2022-04-17 07:04:46 Terrasse 6.60 3.34 1.00
59734 2022-04-17 06:36:27 Terrasse 6.60 3.34 1.00
59733 2022-04-17 06:08:08 Terrasse 6.70 6.03 99.90
59732 2022-04-17 05:39:49 Terrasse 7.00 6.36 99.90
59731 2022-04-17 05:11:30 Terrasse 7.10 3.89 1.00
59730 2022-04-17 04:43:13 Terrasse 7.30 4.11 1.00
59729 2022-04-17 04:14:56 Terrasse 7.50 6.91 99.90
59728 2022-04-17 03:46:38 Terrasse 7.80 7.24 99.90
59727 2022-04-17 03:18:19 Terrasse 8.00 4.94 3.20
59726 2022-04-17 02:50:02 Terrasse 8.50 5.43 1.00
59725 2022-04-17 02:21:43 Terrasse 8.80 5.76 1.00
59724 2022-04-17 01:53:26 Terrasse 9.20 6.20 1.00
59723 2022-04-17 01:25:06 Terrasse 9.40 6.42 1.00
59722 2022-04-17 00:56:46 Terrasse 9.70 6.75 1.00
59721 2022-04-17 00:28:28 Terrasse 9.90 6.97 1.00
59720 2022-04-17 00:00:10 Terrasse 10.30 7.41 1.00
59719 2022-04-16 23:31:52 Terrasse 10.70 7.85 1.00
59718 2022-04-16 23:03:34 Terrasse 11.10 8.29 1.00
59717 2022-04-16 22:35:16 Terrasse 11.50 8.73 1.00
59716 2022-04-16 22:06:59 Terrasse 11.90 9.17 1.00
59715 2022-04-16 21:38:40 Terrasse 12.20 9.50 1.00
59714 2022-04-16 21:10:23 Terrasse 12.70 10.05 1.00
59713 2022-04-16 20:42:04 Terrasse 13.00 10.38 1.00
59712 2022-04-16 20:13:46 Terrasse 13.70 11.15 1.00
59711 2022-04-16 19:45:29 Terrasse 14.60 12.14 1.00
59710 2022-04-16 19:17:13 Terrasse 15.40 13.02 1.00
59709 2022-04-16 18:48:56 Terrasse 16.20 13.90 1.00
59708 2022-04-16 18:20:41 Terrasse 17.00 14.78 1.00
59707 2022-04-16 17:52:27 Terrasse 18.10 15.99 1.00
59706 2022-04-16 17:24:07 Terrasse 18.50 16.43 1.00
59705 2022-04-16 16:55:48 Terrasse 18.80 16.76 1.00
59704 2022-04-16 16:27:28 Terrasse 18.00 18.46 99.90
59703 2022-04-16 15:59:08 Terrasse 17.10 14.89 1.00
59702 2022-04-16 15:30:47 Terrasse 16.40 14.13 1.50
59701 2022-04-16 15:02:50 Terrasse 20.00 20.66 99.90
59700 2022-04-16 14:34:36 Terrasse 24.60 23.14 1.00
59699 2022-04-16 14:06:06 Terrasse 24.20 22.70 1.00
59698 2022-04-16 13:38:05 Terrasse 25.40 24.02 1.00
59697 2022-04-16 13:09:31 Terrasse 25.00 23.58 1.00
59696 2022-04-16 12:40:21 Terrasse 19.80 17.86 1.00
59695 2022-04-16 12:11:53 Terrasse 16.30 14.01 1.00
59694 2022-04-16 11:43:21 Terrasse 15.10 12.69 1.00
59693 2022-04-16 11:14:52 Terrasse 13.50 10.93 1.00
59692 2022-04-16 10:46:26 Terrasse 12.80 11.86 66.20
59691 2022-04-16 10:18:00 Terrasse 12.40 12.30 99.90
59690 2022-04-16 09:49:38 Terrasse 11.90 9.17 1.00
59689 2022-04-16 09:21:16 Terrasse 11.60 11.42 99.90
59688 2022-04-16 08:52:53 Terrasse 11.00 10.76 99.90
59687 2022-04-16 08:24:32 Terrasse 10.70 7.85 1.00
59686 2022-04-16 07:56:11 Terrasse 10.60 7.74 1.00
59685 2022-04-16 07:27:49 Terrasse 10.50 7.63 1.00
59684 2022-04-16 06:59:30 Terrasse 10.60 7.74 1.00
59683 2022-04-16 06:31:10 Terrasse 10.50 10.21 99.90
59682 2022-04-16 06:02:50 Terrasse 10.70 7.85 1.00
59681 2022-04-16 05:34:30 Terrasse 10.80 7.96 1.00
59680 2022-04-16 05:06:10 Terrasse 10.90 8.07 1.00
59679 2022-04-16 04:37:50 Terrasse 10.90 8.07 1.00
59678 2022-04-16 04:09:30 Terrasse 11.00 8.18 1.00
59677 2022-04-16 03:41:10 Terrasse 11.10 8.29 1.00
59676 2022-04-16 03:12:50 Terrasse 11.10 8.32 2.20
59675 2022-04-16 02:44:33 Terrasse 11.30 11.09 99.90
59674 2022-04-16 02:16:12 Terrasse 11.40 11.20 99.90
59673 2022-04-16 01:47:52 Terrasse 11.50 8.73 1.00
59672 2022-04-16 01:19:33 Terrasse 11.60 11.42 99.90
59671 2022-04-16 00:51:13 Terrasse 11.70 8.95 1.00
59670 2022-04-16 00:22:53 Terrasse 11.70 11.46 97.20
59669 2022-04-15 23:54:35 Terrasse 11.80 9.06 1.00
59668 2022-04-15 23:26:17 Terrasse 12.20 12.08 99.90
59667 2022-04-15 22:57:59 Terrasse 12.50 11.09 49.20
59666 2022-04-15 22:29:40 Terrasse 12.70 10.05 1.00
59665 2022-04-15 22:01:22 Terrasse 13.10 10.49 1.00
59664 2022-04-15 21:33:03 Terrasse 13.60 11.04 1.00
59663 2022-04-15 21:04:45 Terrasse 14.10 11.59 1.00
59662 2022-04-15 20:36:27 Terrasse 14.70 12.25 1.00
59661 2022-04-15 20:08:12 Terrasse 15.50 13.13 1.00
59660 2022-04-15 19:39:58 Terrasse 16.90 14.67 1.00
59659 2022-04-15 19:11:43 Terrasse 17.90 15.77 1.00
59658 2022-04-15 18:43:28 Terrasse 18.80 16.76 1.00
59657 2022-04-15 18:15:13 Terrasse 19.90 17.97 1.00
59656 2022-04-15 17:47:00 Terrasse 21.30 19.51 1.00
59655 2022-04-15 17:18:45 Terrasse 22.70 21.05 1.00
59654 2022-04-15 16:50:25 Terrasse 23.00 21.38 1.00
59653 2022-04-15 16:22:06 Terrasse 23.20 21.60 1.00
59652 2022-04-15 15:53:44 Terrasse 23.50 21.93 1.00
59651 2022-04-15 15:25:27 Terrasse 23.80 22.26 1.00
59650 2022-04-15 14:57:25 Terrasse 25.60 24.24 1.00
59649 2022-04-15 14:29:01 Terrasse 27.10 25.89 1.00
59648 2022-04-15 14:00:32 Terrasse 25.20 23.80 1.00
59647 2022-04-15 13:32:32 Terrasse 27.80 25.58 1.00
59646 2022-04-15 13:03:43 Terrasse 25.80 24.46 1.00
59645 2022-04-15 12:34:33 Terrasse 21.40 19.62 1.00
59644 2022-04-15 12:06:10 Terrasse 19.60 17.64 1.00
59643 2022-04-15 11:37:37 Terrasse 18.00 18.46 99.90
59642 2022-04-15 11:09:16 Terrasse 16.70 17.03 99.90
59641 2022-04-15 10:40:50 Terrasse 15.90 16.15 99.90
59640 2022-04-15 10:12:21 Terrasse 14.90 15.05 99.90
59639 2022-04-15 09:43:54 Terrasse 14.00 11.48 1.00
59638 2022-04-15 09:15:28 Terrasse 13.10 10.49 1.00
59637 2022-04-15 08:47:02 Terrasse 12.30 9.61 1.00
59636 2022-04-15 08:18:35 Terrasse 11.30 8.51 1.00
59635 2022-04-15 07:50:13 Terrasse 10.70 7.85 1.00
59634 2022-04-15 07:21:53 Terrasse 10.40 7.52 1.00
59633 2022-04-15 06:53:33 Terrasse 10.50 7.63 1.00
59632 2022-04-15 06:25:15 Terrasse 10.80 7.96 1.00
59631 2022-04-15 05:56:54 Terrasse 10.80 7.96 1.00
59630 2022-04-15 05:28:35 Terrasse 11.00 8.18 1.00
59629 2022-04-15 05:00:16 Terrasse 11.30 8.51 1.00
59628 2022-04-15 04:31:57 Terrasse 11.40 8.62 1.00
59627 2022-04-15 04:03:38 Terrasse 11.70 11.53 99.90
59626 2022-04-15 03:35:19 Terrasse 12.10 11.51 82.10
59625 2022-04-15 03:06:59 Terrasse 12.20 12.08 99.90
59624 2022-04-15 02:38:41 Terrasse 12.50 9.83 1.00
59623 2022-04-15 02:10:23 Terrasse 12.80 12.74 99.90
59622 2022-04-15 01:42:05 Terrasse 13.30 10.71 1.00
59621 2022-04-15 01:13:47 Terrasse 13.80 11.26 1.00
59620 2022-04-15 00:45:29 Terrasse 14.30 11.81 1.00
59619 2022-04-15 00:17:09 Terrasse 14.40 11.92 1.00
59618 2022-04-14 23:48:54 Terrasse 14.40 14.50 99.90
59617 2022-04-14 23:20:31 Terrasse 14.40 14.50 99.90
59616 2022-04-14 22:52:10 Terrasse 14.30 14.39 99.90
59615 2022-04-14 22:23:49 Terrasse 14.10 14.17 99.90
59614 2022-04-14 21:55:30 Terrasse 14.20 14.28 99.90
59613 2022-04-14 21:27:12 Terrasse 14.70 14.83 99.90
59612 2022-04-14 20:59:00 Terrasse 15.20 12.80 1.00
59611 2022-04-14 20:30:42 Terrasse 15.80 15.40 75.10
59610 2022-04-14 20:02:26 Terrasse 16.50 14.23 1.00
59609 2022-04-14 19:34:08 Terrasse 17.20 17.58 99.90
59608 2022-04-14 19:05:50 Terrasse 17.80 15.66 1.00
59607 2022-04-14 18:37:32 Terrasse 18.20 16.10 1.00
59606 2022-04-14 18:09:15 Terrasse 18.90 17.75 34.70
59605 2022-04-14 17:40:58 Terrasse 19.20 17.20 1.00
59604 2022-04-14 17:12:37 Terrasse 20.20 20.88 99.90
59603 2022-04-14 16:44:13 Terrasse 19.80 20.44 99.90
59602 2022-04-14 16:15:49 Terrasse 18.90 19.45 99.90
59601 2022-04-14 15:47:27 Terrasse 18.90 16.87 1.00
59600 2022-04-14 15:19:07 Terrasse 19.40 17.42 1.00
59599 2022-04-14 14:50:47 Terrasse 19.60 20.22 99.90
59598 2022-04-14 14:22:32 Terrasse 20.90 21.65 99.90
59597 2022-04-14 13:54:06 Terrasse 19.10 17.09 1.00
59596 2022-04-14 13:25:38 Terrasse 18.80 16.76 1.00
59595 2022-04-14 12:57:15 Terrasse 18.30 18.79 99.90
59594 2022-04-14 12:28:45 Terrasse 17.00 17.36 99.90
59593 2022-04-14 12:00:24 Terrasse 16.70 14.45 1.00
59592 2022-04-14 11:32:02 Terrasse 16.60 15.91 60.90
59591 2022-04-14 11:03:40 Terrasse 16.30 14.01 1.00
59590 2022-04-14 10:35:17 Terrasse 16.10 13.79 1.00
59589 2022-04-14 10:06:56 Terrasse 15.80 13.46 1.00
59588 2022-04-14 09:38:34 Terrasse 15.60 13.24 1.00
59587 2022-04-14 09:10:12 Terrasse 15.50 13.13 1.00
59586 2022-04-14 08:41:48 Terrasse 15.10 12.69 1.00
59585 2022-04-14 08:13:29 Terrasse 15.00 15.16 99.90
59584 2022-04-14 07:45:05 Terrasse 14.70 12.25 1.00
59583 2022-04-14 07:16:43 Terrasse 14.40 14.50 99.90
59582 2022-04-14 06:48:23 Terrasse 14.50 12.57 21.50
59581 2022-04-14 06:20:05 Terrasse 14.60 12.14 1.00
59580 2022-04-14 05:51:45 Terrasse 14.80 12.36 1.00
59579 2022-04-14 05:23:26 Terrasse 14.90 12.47 1.00
59578 2022-04-14 04:55:08 Terrasse 15.20 12.80 1.00
59577 2022-04-14 04:26:49 Terrasse 15.30 15.49 99.90
59576 2022-04-14 03:58:29 Terrasse 15.50 13.13 1.00
59575 2022-04-14 03:30:08 Terrasse 15.60 13.24 1.00
59574 2022-04-14 03:01:49 Terrasse 15.70 15.93 99.90
59573 2022-04-14 02:33:30 Terrasse 15.70 15.93 99.90
59572 2022-04-14 02:05:10 Terrasse 16.00 16.26 99.90
59571 2022-04-14 01:36:50 Terrasse 16.20 13.90 1.00
59570 2022-04-14 01:08:32 Terrasse 16.40 14.12 1.00
59569 2022-04-14 00:40:11 Terrasse 16.70 14.81 14.80
59568 2022-04-14 00:11:52 Terrasse 17.00 14.78 1.00
59567 2022-04-13 23:43:35 Terrasse 17.40 15.22 1.00
59566 2022-04-13 23:15:16 Terrasse 17.70 18.13 99.90
59565 2022-04-13 22:46:56 Terrasse 17.80 18.24 99.90
59564 2022-04-13 22:18:38 Terrasse 17.90 15.77 1.00
59563 2022-04-13 21:50:19 Terrasse 18.30 16.21 1.00
59562 2022-04-13 21:22:01 Terrasse 18.60 19.12 99.90
59561 2022-04-13 20:53:44 Terrasse 19.00 16.98 1.00
59560 2022-04-13 20:25:25 Terrasse 19.60 17.64 1.00
59559 2022-04-13 19:57:10 Terrasse 20.30 18.41 1.00
59558 2022-04-13 19:28:54 Terrasse 21.10 19.29 1.00
59557 2022-04-13 19:00:37 Terrasse 22.00 20.28 1.00
59556 2022-04-13 18:32:22 Terrasse 22.90 21.27 1.00
59555 2022-04-13 18:04:05 Terrasse 23.90 22.37 1.00
59554 2022-04-13 17:35:48 Terrasse 24.60 23.14 1.00
59553 2022-04-13 17:07:29 Terrasse 25.20 23.80 1.00
59552 2022-04-13 16:39:09 Terrasse 25.30 23.91 1.00
59551 2022-04-13 16:10:51 Terrasse 25.80 24.46 1.00
59550 2022-04-13 15:42:29 Terrasse 25.60 24.24 1.00
59549 2022-04-13 15:14:08 Terrasse 25.60 24.24 1.00
59548 2022-04-13 14:45:34 Terrasse 23.60 22.04 1.00
59547 2022-04-13 14:17:29 Terrasse 25.90 24.57 1.00
59546 2022-04-13 13:49:14 Terrasse 25.90 24.57 1.00
59545 2022-04-13 13:21:15 Terrasse 27.10 25.89 1.00
59544 2022-04-13 12:52:38 Terrasse 25.70 24.35 1.00
59543 2022-04-13 12:23:52 Terrasse 22.10 20.39 1.00
59542 2022-04-13 11:55:19 Terrasse 20.60 18.74 1.00
59541 2022-04-13 11:26:53 Terrasse 19.50 17.53 1.00
59540 2022-04-13 10:58:25 Terrasse 18.20 16.10 1.00
59539 2022-04-13 10:29:57 Terrasse 16.90 14.67 1.00
59538 2022-04-13 10:01:31 Terrasse 15.90 13.57 1.00
59537 2022-04-13 09:33:04 Terrasse 14.90 14.25 69.30
59536 2022-04-13 09:04:39 Terrasse 14.10 14.17 99.90
59535 2022-04-13 08:36:14 Terrasse 13.10 13.07 99.90
59534 2022-04-13 08:07:53 Terrasse 12.60 9.94 1.00
59533 2022-04-13 07:39:32 Terrasse 12.30 9.61 1.00
59532 2022-04-13 07:11:11 Terrasse 12.30 9.61 1.00
59531 2022-04-13 06:42:52 Terrasse 12.50 9.83 1.00
59530 2022-04-13 06:14:34 Terrasse 12.60 12.52 99.90
59529 2022-04-13 05:46:15 Terrasse 12.90 11.48 47.20
59528 2022-04-13 05:17:57 Terrasse 13.20 12.18 61.60
59527 2022-04-13 04:49:38 Terrasse 13.20 12.24 63.80
59526 2022-04-13 04:21:20 Terrasse 13.40 12.45 63.40
59525 2022-04-13 03:53:02 Terrasse 13.70 12.72 61.10
59524 2022-04-13 03:24:42 Terrasse 13.90 12.90 59.50
59523 2022-04-13 02:56:26 Terrasse 14.20 13.22 59.30
59522 2022-04-13 02:28:07 Terrasse 14.60 13.63 58.00
59521 2022-04-13 01:59:48 Terrasse 14.70 13.72 57.20
59520 2022-04-13 01:31:31 Terrasse 15.10 14.12 55.60
59519 2022-04-13 01:03:13 Terrasse 15.50 14.53 54.40
59518 2022-04-13 00:34:54 Terrasse 15.70 14.74 54.10
59517 2022-04-13 00:06:37 Terrasse 16.10 15.18 54.10
59516 2022-04-12 23:38:19 Terrasse 16.40 15.49 53.60
59515 2022-04-12 23:10:01 Terrasse 16.70 15.78 51.90
59514 2022-04-12 22:41:43 Terrasse 17.10 16.23 52.20
59513 2022-04-12 22:13:25 Terrasse 17.40 16.56 52.20
59512 2022-04-12 21:45:08 Terrasse 17.80 16.99 51.70
59511 2022-04-12 21:16:49 Terrasse 18.10 17.29 50.90
59510 2022-04-12 20:48:32 Terrasse 18.50 17.74 51.30
59509 2022-04-12 20:20:15 Terrasse 19.20 18.48 49.80
59508 2022-04-12 19:51:58 Terrasse 20.00 19.33 48.90
59507 2022-04-12 19:23:41 Terrasse 20.70 20.03 46.10
59506 2022-04-12 18:55:25 Terrasse 21.50 20.91 46.30
59505 2022-04-12 18:27:07 Terrasse 22.10 21.55 45.30
59504 2022-04-12 17:58:51 Terrasse 22.80 22.29 44.10
59503 2022-04-12 17:30:34 Terrasse 23.40 22.92 42.90
59502 2022-04-12 17:02:15 Terrasse 24.00 23.56 42.40
59501 2022-04-12 16:33:57 Terrasse 24.70 24.29 40.60
59500 2022-04-12 16:05:38 Terrasse 24.80 24.38 39.90
59499 2022-04-12 15:37:21 Terrasse 25.30 24.88 38.20
59498 2022-04-12 15:09:10 Terrasse 26.40 26.10 38.40
59497 2022-04-12 14:40:56 Terrasse 27.70 27.27 37.60
59496 2022-04-12 14:12:26 Terrasse 27.10 26.91 39.40
59495 2022-04-12 13:44:25 Terrasse 27.50 27.25 40.00
59494 2022-04-12 13:15:57 Terrasse 28.30 28.04 41.40
59493 2022-04-12 12:46:52 Terrasse 24.50 24.25 47.60
59492 2022-04-12 12:18:08 Terrasse 19.10 18.37 49.90
59491 2022-04-12 11:49:34 Terrasse 17.30 16.36 48.90
59490 2022-04-12 11:21:06 Terrasse 16.00 14.99 51.30
59489 2022-04-12 10:52:36 Terrasse 14.50 13.47 55.90
59488 2022-04-12 10:24:10 Terrasse 13.40 12.28 57.00
59487 2022-04-12 09:55:41 Terrasse 12.10 10.90 58.60
59486 2022-04-12 09:27:16 Terrasse 11.10 9.82 59.40
59485 2022-04-12 08:58:51 Terrasse 10.20 8.87 61.00
59484 2022-04-12 08:30:30 Terrasse 10.00 8.67 61.90
59483 2022-04-12 08:02:06 Terrasse 9.20 7.87 65.00
59482 2022-04-12 07:33:45 Terrasse 8.80 7.43 64.90
59481 2022-04-12 07:05:25 Terrasse 8.80 7.41 64.00
59480 2022-04-12 06:37:07 Terrasse 8.80 7.38 62.90
59479 2022-04-12 06:08:49 Terrasse 9.00 7.57 62.00
59478 2022-04-12 05:40:29 Terrasse 9.20 7.77 60.90
59477 2022-04-12 05:12:09 Terrasse 9.30 7.85 59.90
59476 2022-04-12 04:43:50 Terrasse 9.50 8.04 58.90
59475 2022-04-12 04:15:30 Terrasse 9.60 8.15 58.80
59474 2022-04-12 03:47:11 Terrasse 9.60 9.22 99.90
59473 2022-04-12 03:18:52 Terrasse 9.90 9.25 88.40
59472 2022-04-12 02:50:33 Terrasse 10.00 8.21 44.20
59471 2022-04-12 02:22:14 Terrasse 10.10 7.19 1.00
59470 2022-04-12 01:53:56 Terrasse 10.30 7.41 1.00
59469 2022-04-12 01:25:39 Terrasse 10.40 7.52 1.00
59468 2022-04-12 00:57:20 Terrasse 10.60 8.94 46.80
59467 2022-04-12 00:29:01 Terrasse 10.60 9.60 72.30
59466 2022-04-12 00:00:41 Terrasse 10.80 8.78 32.20
59465 2022-04-11 23:32:23 Terrasse 11.00 8.32 6.30
59464 2022-04-11 23:04:05 Terrasse 11.20 8.40 1.00
59463 2022-04-11 22:35:47 Terrasse 11.40 8.62 1.00
59462 2022-04-11 22:07:29 Terrasse 11.70 8.95 1.00
59461 2022-04-11 21:39:12 Terrasse 12.00 9.28 1.00
59460 2022-04-11 21:10:56 Terrasse 12.40 9.72 1.00
59459 2022-04-11 20:42:39 Terrasse 13.00 10.38 1.00
59458 2022-04-11 20:14:25 Terrasse 13.90 11.37 1.00
59457 2022-04-11 19:46:10 Terrasse 14.70 12.25 1.00
59456 2022-04-11 19:17:54 Terrasse 15.40 13.02 1.00
59455 2022-04-11 18:49:37 Terrasse 16.00 13.68 1.00
59454 2022-04-11 18:21:21 Terrasse 16.60 14.34 1.00
59453 2022-04-11 17:53:06 Terrasse 17.30 15.11 1.00
59452 2022-04-11 17:24:48 Terrasse 17.90 15.77 1.00
59451 2022-04-11 16:56:30 Terrasse 18.50 16.43 1.00
59450 2022-04-11 16:28:12 Terrasse 19.20 17.20 1.00
59449 2022-04-11 15:59:55 Terrasse 19.40 17.42 1.00
59448 2022-04-11 15:31:39 Terrasse 20.00 18.08 1.00
59447 2022-04-11 15:03:32 Terrasse 21.20 19.40 1.00
59446 2022-04-11 14:35:15 Terrasse 22.60 20.94 1.00
59445 2022-04-11 14:06:36 Terrasse 22.40 20.72 1.00
59444 2022-04-11 13:38:28 Terrasse 21.40 19.62 1.00
59443 2022-04-11 13:10:00 Terrasse 21.60 19.84 1.00
59442 2022-04-11 12:41:00 Terrasse 17.50 15.33 1.00
59441 2022-04-11 12:12:28 Terrasse 14.00 11.48 1.00
59440 2022-04-11 11:43:57 Terrasse 12.50 10.15 13.20
59439 2022-04-11 11:15:30 Terrasse 11.30 10.93 93.70
59438 2022-04-11 10:47:00 Terrasse 9.70 9.33 99.90
59437 2022-04-11 10:18:33 Terrasse 8.60 5.54 1.00
59436 2022-04-11 09:50:08 Terrasse 7.80 7.24 99.90
59435 2022-04-11 09:21:42 Terrasse 6.90 3.67 1.00
59434 2022-04-11 08:53:17 Terrasse 6.10 2.79 1.00
59433 2022-04-11 08:24:51 Terrasse 5.30 1.91 1.00
59432 2022-04-11 07:56:28 Terrasse 4.70 1.25 1.00
59431 2022-04-11 07:28:07 Terrasse 4.30 3.39 99.90
59430 2022-04-11 06:59:49 Terrasse 4.40 3.50 99.90
59429 2022-04-11 06:31:29 Terrasse 4.20 0.70 1.00
59428 2022-04-11 06:03:10 Terrasse 4.40 3.50 99.90
59427 2022-04-11 05:34:51 Terrasse 4.50 3.61 99.90
59426 2022-04-11 05:06:32 Terrasse 4.50 3.61 99.90
59425 2022-04-11 04:38:13 Terrasse 4.60 3.59 94.90
59424 2022-04-11 04:09:54 Terrasse 4.60 1.14 1.00
59423 2022-04-11 03:41:34 Terrasse 4.50 3.61 99.90
59422 2022-04-11 03:13:15 Terrasse 4.50 1.03 1.00
59421 2022-04-11 02:44:58 Terrasse 4.60 1.14 1.00
59420 2022-04-11 02:16:41 Terrasse 4.70 1.25 1.00
59419 2022-04-11 01:48:22 Terrasse 4.90 1.47 1.00
59418 2022-04-11 01:20:04 Terrasse 5.00 3.38 70.00
59417 2022-04-11 00:51:45 Terrasse 5.10 4.27 99.90
59416 2022-04-11 00:23:26 Terrasse 5.30 1.91 1.00
59415 2022-04-10 23:55:06 Terrasse 5.30 1.91 1.00
59414 2022-04-10 23:26:48 Terrasse 5.50 4.71 99.90
59413 2022-04-10 22:58:32 Terrasse 5.90 2.57 1.00
59412 2022-04-10 22:30:13 Terrasse 6.10 5.37 99.90
59411 2022-04-10 22:01:58 Terrasse 6.60 3.34 1.00
59410 2022-04-10 21:33:42 Terrasse 7.10 3.89 1.00
59409 2022-04-10 21:05:26 Terrasse 7.80 4.66 1.00
59408 2022-04-10 20:37:09 Terrasse 8.60 5.54 1.00
59407 2022-04-10 20:08:53 Terrasse 9.30 6.31 1.00
59406 2022-04-10 19:40:37 Terrasse 10.00 7.08 1.00
59405 2022-04-10 19:12:20 Terrasse 10.60 10.32 99.90
59404 2022-04-10 18:44:03 Terrasse 11.20 10.98 99.90
59403 2022-04-10 18:15:44 Terrasse 11.50 8.73 1.00
59402 2022-04-10 17:47:31 Terrasse 12.30 9.61 1.00
59401 2022-04-10 17:19:12 Terrasse 12.80 10.16 1.00
59400 2022-04-10 16:50:57 Terrasse 13.20 10.60 1.00
59399 2022-04-10 16:22:36 Terrasse 13.70 13.73 99.90
59398 2022-04-10 15:54:16 Terrasse 13.00 10.38 1.00
59397 2022-04-10 15:26:07 Terrasse 14.90 12.47 1.00
59396 2022-04-10 14:58:01 Terrasse 15.70 15.93 99.90
59395 2022-04-10 14:29:42 Terrasse 17.80 18.24 99.90
59394 2022-04-10 14:01:13 Terrasse 12.90 12.85 99.90
59393 2022-04-10 13:32:56 Terrasse 12.30 12.19 99.90
59392 2022-04-10 13:05:08 Terrasse 15.70 15.93 99.90
59391 2022-04-10 12:36:04 Terrasse 13.50 13.51 99.90
59390 2022-04-10 12:07:39 Terrasse 11.10 10.87 99.90
59389 2022-04-10 11:39:06 Terrasse 9.40 9.00 99.90
59388 2022-04-10 11:10:37 Terrasse 8.60 7.33 69.40
59387 2022-04-10 10:42:12 Terrasse 7.60 7.02 99.90
59386 2022-04-10 10:13:43 Terrasse 6.50 5.63 92.80
59385 2022-04-10 09:45:26 Terrasse 5.70 2.35 1.00
59384 2022-04-10 09:16:57 Terrasse 4.60 3.72 99.90
59383 2022-04-10 08:48:33 Terrasse 3.90 0.37 1.00
59382 2022-04-10 08:20:12 Terrasse 3.30 -0.29 1.00
59381 2022-04-10 07:51:52 Terrasse 3.00 -0.15 18.90
59380 2022-04-10 07:23:32 Terrasse 2.70 -0.95 1.00
59379 2022-04-10 06:55:12 Terrasse 2.60 -1.06 1.00
59378 2022-04-10 06:26:54 Terrasse 2.60 1.52 99.90
59377 2022-04-10 05:58:37 Terrasse 2.70 -0.95 1.00
59376 2022-04-10 05:30:18 Terrasse 2.60 -1.06 1.00
59375 2022-04-10 05:02:00 Terrasse 2.60 1.52 99.90
59374 2022-04-10 04:33:40 Terrasse 2.30 1.19 99.90
59373 2022-04-10 04:05:25 Terrasse 2.60 -1.06 1.00
59372 2022-04-10 03:37:11 Terrasse 2.90 -0.73 1.00
59371 2022-04-10 03:08:54 Terrasse 3.20 2.18 99.90
59370 2022-04-10 02:40:39 Terrasse 3.70 0.15 1.00
59369 2022-04-10 02:12:23 Terrasse 4.10 0.59 1.00
59368 2022-04-10 01:44:06 Terrasse 4.50 1.03 1.00
59367 2022-04-10 01:15:48 Terrasse 4.80 1.36 1.00
59366 2022-04-10 00:47:31 Terrasse 5.00 1.58 1.00
59365 2022-04-10 00:19:11 Terrasse 5.20 1.80 1.00
59364 2022-04-09 23:50:53 Terrasse 5.20 4.38 99.90
59363 2022-04-09 23:22:33 Terrasse 4.90 1.47 1.00
59362 2022-04-09 22:54:15 Terrasse 4.90 4.05 99.90
59361 2022-04-09 22:26:00 Terrasse 5.40 4.60 99.90
59360 2022-04-09 21:57:44 Terrasse 5.90 5.15 99.90
59359 2022-04-09 21:29:28 Terrasse 6.60 5.92 99.90
59358 2022-04-09 21:01:11 Terrasse 7.10 3.89 1.00
59357 2022-04-09 20:32:54 Terrasse 7.60 7.02 99.90
59356 2022-04-09 20:04:36 Terrasse 8.00 7.46 99.90
59355 2022-04-09 19:36:20 Terrasse 8.50 8.01 99.90
59354 2022-04-09 19:08:06 Terrasse 9.20 8.78 99.90
59353 2022-04-09 18:39:50 Terrasse 10.00 9.66 99.90
59352 2022-04-09 18:11:32 Terrasse 10.60 10.32 99.90
59351 2022-04-09 17:43:18 Terrasse 11.30 11.09 99.90
59350 2022-04-09 17:15:00 Terrasse 11.70 11.53 99.90
59349 2022-04-09 16:46:38 Terrasse 10.90 10.65 99.90
59348 2022-04-09 16:18:26 Terrasse 12.40 12.30 99.90
59347 2022-04-09 15:50:07 Terrasse 13.60 13.62 99.90
59346 2022-04-09 15:21:54 Terrasse 12.60 12.52 99.90
59345 2022-04-09 14:54:09 Terrasse 18.20 18.68 99.90
59344 2022-04-09 14:25:34 Terrasse 17.90 16.39 24.70
59343 2022-04-09 13:57:06 Terrasse 15.00 13.77 46.40
59342 2022-04-09 13:28:55 Terrasse 15.70 13.71 14.90
59341 2022-04-09 13:00:12 Terrasse 13.30 10.71 1.00
59340 2022-04-09 12:31:37 Terrasse 10.70 7.85 1.00
59339 2022-04-09 12:03:14 Terrasse 9.40 6.42 1.00
59338 2022-04-09 11:34:51 Terrasse 8.80 5.76 1.00
59337 2022-04-09 11:06:26 Terrasse 8.30 6.16 37.50
59336 2022-04-09 10:37:57 Terrasse 6.90 6.25 99.90
59335 2022-04-09 10:09:32 Terrasse 6.20 2.90 1.00
59334 2022-04-09 09:41:09 Terrasse 5.70 2.35 1.00
59333 2022-04-09 09:13:03 Terrasse 4.80 3.94 99.90
59332 2022-04-09 08:44:34 Terrasse 4.30 3.39 99.90
59331 2022-04-09 08:16:12 Terrasse 3.60 0.04 1.00
59330 2022-04-09 07:47:52 Terrasse 3.30 -0.29 1.00
59329 2022-04-09 07:19:33 Terrasse 3.20 -0.40 1.00
59328 2022-04-09 06:51:14 Terrasse 3.30 -0.29 1.00
59327 2022-04-09 06:22:56 Terrasse 3.30 -0.29 1.00
59326 2022-04-09 05:54:38 Terrasse 3.40 -0.18 1.00
59325 2022-04-09 05:26:20 Terrasse 3.50 -0.07 1.00
59324 2022-04-09 04:58:02 Terrasse 3.60 0.04 1.00
59323 2022-04-09 04:29:44 Terrasse 3.70 0.15 1.00
59322 2022-04-09 04:01:25 Terrasse 3.70 0.15 1.00
59321 2022-04-09 03:33:07 Terrasse 3.70 0.15 1.00
59320 2022-04-09 03:04:49 Terrasse 3.70 0.15 1.00
59319 2022-04-09 02:36:30 Terrasse 3.80 0.26 1.00
59318 2022-04-09 02:08:11 Terrasse 3.80 0.26 1.00
59317 2022-04-09 01:39:51 Terrasse 3.80 0.26 1.00
59316 2022-04-09 01:11:33 Terrasse 3.80 0.26 1.00
59315 2022-04-09 00:43:14 Terrasse 3.90 0.37 1.00
59314 2022-04-09 00:14:54 Terrasse 3.90 0.37 1.00
59313 2022-04-08 23:46:36 Terrasse 4.00 0.48 1.00
59312 2022-04-08 23:18:17 Terrasse 4.00 0.48 1.00
59311 2022-04-08 22:50:00 Terrasse 4.10 0.59 1.00
59310 2022-04-08 22:21:41 Terrasse 4.20 0.70 1.00
59309 2022-04-08 21:53:23 Terrasse 4.20 0.70 1.00
59308 2022-04-08 21:25:04 Terrasse 4.30 0.81 1.00
59307 2022-04-08 20:56:45 Terrasse 4.50 3.61 99.90
59306 2022-04-08 20:28:27 Terrasse 4.60 3.72 99.90
59305 2022-04-08 20:00:10 Terrasse 4.70 3.83 99.90
59304 2022-04-08 19:31:53 Terrasse 4.70 3.83 99.90
59303 2022-04-08 19:03:34 Terrasse 4.70 3.83 99.90
59302 2022-04-08 18:35:16 Terrasse 4.80 3.94 99.90
59301 2022-04-08 18:06:59 Terrasse 5.00 4.16 99.90
59300 2022-04-08 17:38:42 Terrasse 5.40 4.60 99.90
59299 2022-04-08 17:10:23 Terrasse 5.60 4.82 99.90
59298 2022-04-08 16:42:07 Terrasse 5.70 4.93 99.90
59297 2022-04-08 16:13:49 Terrasse 5.90 5.15 99.90
59296 2022-04-08 15:45:29 Terrasse 5.80 5.04 99.90
59295 2022-04-08 15:17:12 Terrasse 5.80 5.04 99.90
59294 2022-04-08 14:48:54 Terrasse 6.00 5.26 99.90
59293 2022-04-08 14:20:36 Terrasse 6.30 5.59 99.90
59292 2022-04-08 13:52:19 Terrasse 6.70 6.03 99.90
59291 2022-04-08 13:24:01 Terrasse 6.90 6.25 99.90
59290 2022-04-08 12:55:42 Terrasse 7.00 6.36 99.90
59289 2022-04-08 12:27:25 Terrasse 7.30 4.11 1.00
59288 2022-04-08 11:59:06 Terrasse 7.40 5.02 31.50
59287 2022-04-08 11:30:47 Terrasse 7.60 4.53 4.30
59286 2022-04-08 11:02:28 Terrasse 7.70 4.55 1.00
59285 2022-04-08 10:34:07 Terrasse 7.60 4.44 1.00
59284 2022-04-08 10:05:45 Terrasse 7.40 4.22 1.00
59283 2022-04-08 09:37:23 Terrasse 7.00 3.78 1.00
59282 2022-04-08 09:09:03 Terrasse 6.70 3.45 1.00
59281 2022-04-08 08:40:41 Terrasse 6.40 3.12 1.00
59280 2022-04-08 08:12:19 Terrasse 6.00 5.26 99.90
59279 2022-04-08 07:43:59 Terrasse 5.60 2.24 1.00
59278 2022-04-08 07:15:39 Terrasse 5.50 2.13 1.00
59277 2022-04-08 06:47:24 Terrasse 5.70 2.35 1.00
59276 2022-04-08 06:19:05 Terrasse 5.70 4.93 99.90
59275 2022-04-08 05:50:48 Terrasse 5.80 2.46 1.00
59274 2022-04-08 05:22:29 Terrasse 5.80 2.46 1.00
59273 2022-04-08 04:54:10 Terrasse 6.00 2.68 1.00
59272 2022-04-08 04:25:54 Terrasse 6.40 3.12 1.00
59271 2022-04-08 03:57:37 Terrasse 6.80 3.56 1.00
59270 2022-04-08 03:29:19 Terrasse 7.10 3.89 1.00
59269 2022-04-08 03:01:02 Terrasse 7.70 4.55 1.00
59268 2022-04-08 02:32:43 Terrasse 7.70 4.55 1.00
59267 2022-04-08 02:04:24 Terrasse 7.70 4.55 1.00
59266 2022-04-08 01:36:05 Terrasse 7.90 7.35 99.90
59265 2022-04-08 01:07:49 Terrasse 8.10 7.57 99.90
59264 2022-04-08 00:39:31 Terrasse 8.20 7.68 99.90
59263 2022-04-08 00:11:13 Terrasse 8.30 5.93 28.40
59262 2022-04-07 23:42:54 Terrasse 8.50 5.64 8.80
59261 2022-04-07 23:14:37 Terrasse 8.70 5.78 5.90
59260 2022-04-07 22:46:18 Terrasse 8.90 6.77 35.50
59259 2022-04-07 22:18:00 Terrasse 9.20 6.20 1.00
59258 2022-04-07 21:49:46 Terrasse 9.40 6.42 1.00
59257 2022-04-07 21:21:27 Terrasse 9.70 6.75 1.00
59256 2022-04-07 20:53:09 Terrasse 9.90 6.97 1.00
59255 2022-04-07 20:24:52 Terrasse 10.30 7.41 1.00
59254 2022-04-07 19:56:36 Terrasse 10.80 7.96 1.00
59253 2022-04-07 19:28:18 Terrasse 11.30 8.51 1.00
59252 2022-04-07 19:00:00 Terrasse 11.60 8.84 1.00
59251 2022-04-07 18:31:42 Terrasse 12.00 9.28 1.00
59250 2022-04-07 18:03:23 Terrasse 12.30 9.61 1.00
59249 2022-04-07 17:35:05 Terrasse 12.40 9.72 1.00
59248 2022-04-07 17:06:46 Terrasse 12.30 10.57 37.80
59247 2022-04-07 16:38:24 Terrasse 12.30 12.19 99.90
59246 2022-04-07 16:09:58 Terrasse 11.30 11.09 99.90
59245 2022-04-07 15:41:33 Terrasse 10.20 7.30 1.00
59244 2022-04-07 15:13:14 Terrasse 10.10 7.19 1.00
59243 2022-04-07 14:44:59 Terrasse 11.00 8.18 1.00
59242 2022-04-07 14:16:38 Terrasse 10.90 8.07 1.00
59241 2022-04-07 13:48:16 Terrasse 10.60 7.74 1.00
59240 2022-04-07 13:19:55 Terrasse 10.10 7.19 1.00
59239 2022-04-07 12:51:32 Terrasse 9.70 6.75 1.00
59238 2022-04-07 12:23:12 Terrasse 9.50 6.53 1.00
59237 2022-04-07 11:54:51 Terrasse 9.30 6.31 1.00
59236 2022-04-07 11:26:30 Terrasse 9.10 6.09 1.00
59235 2022-04-07 10:58:09 Terrasse 8.90 5.87 1.00
59234 2022-04-07 10:29:50 Terrasse 8.80 5.76 1.00
59233 2022-04-07 10:01:30 Terrasse 8.70 5.65 1.00
59232 2022-04-07 09:33:10 Terrasse 8.60 5.54 1.00
59231 2022-04-07 09:04:51 Terrasse 8.60 5.54 1.00
59230 2022-04-07 08:36:32 Terrasse 8.60 5.54 1.00
59229 2022-04-07 08:08:13 Terrasse 8.70 5.65 1.00
59228 2022-04-07 07:39:52 Terrasse 8.60 5.54 1.00
59227 2022-04-07 07:11:33 Terrasse 8.60 5.54 1.00
59226 2022-04-07 06:43:14 Terrasse 8.60 5.54 1.00
59225 2022-04-07 06:14:55 Terrasse 8.60 5.54 1.00
59224 2022-04-07 05:46:36 Terrasse 8.70 5.65 1.00
59223 2022-04-07 05:18:17 Terrasse 8.70 5.65 1.00
59222 2022-04-07 04:49:58 Terrasse 8.80 5.76 1.00
59221 2022-04-07 04:21:40 Terrasse 9.00 5.98 1.00
59220 2022-04-07 03:53:23 Terrasse 9.20 8.78 99.90
59219 2022-04-07 03:25:04 Terrasse 9.20 8.78 99.90
59218 2022-04-07 02:56:45 Terrasse 9.20 8.78 99.90
59217 2022-04-07 02:28:27 Terrasse 9.30 8.89 99.90
59216 2022-04-07 02:00:09 Terrasse 9.50 9.11 99.90
59215 2022-04-07 01:31:51 Terrasse 9.60 6.64 1.00
59214 2022-04-07 01:03:32 Terrasse 9.70 9.33 99.90
59213 2022-04-07 00:35:13 Terrasse 9.80 9.44 99.90
59212 2022-04-07 00:06:56 Terrasse 10.00 9.66 99.90
59211 2022-04-06 23:38:38 Terrasse 10.10 9.77 99.90
59210 2022-04-06 23:10:20 Terrasse 10.20 9.76 95.10
59209 2022-04-06 22:42:03 Terrasse 10.40 7.52 1.00
59208 2022-04-06 22:13:45 Terrasse 10.50 9.61 76.90
59207 2022-04-06 21:45:26 Terrasse 10.70 7.85 1.00
59206 2022-04-06 21:17:08 Terrasse 10.70 10.43 99.90
59205 2022-04-06 20:48:49 Terrasse 10.80 7.96 1.00
59204 2022-04-06 20:20:30 Terrasse 11.00 10.76 99.90
59203 2022-04-06 19:52:11 Terrasse 11.30 11.09 99.90
59202 2022-04-06 19:23:53 Terrasse 11.50 9.18 18.20
59201 2022-04-06 18:55:37 Terrasse 11.80 9.06 1.00
59200 2022-04-06 18:27:20 Terrasse 12.30 10.10 19.70
59199 2022-04-06 17:59:05 Terrasse 12.90 10.27 1.00
59198 2022-04-06 17:30:50 Terrasse 13.70 13.73 99.90
59197 2022-04-06 17:02:38 Terrasse 15.00 12.58 1.00
59196 2022-04-06 16:34:21 Terrasse 15.50 13.13 1.00
59195 2022-04-06 16:06:03 Terrasse 15.60 13.24 1.00
59194 2022-04-06 15:37:44 Terrasse 16.10 13.79 1.00
59193 2022-04-06 15:09:30 Terrasse 16.50 14.23 1.00
59192 2022-04-06 14:40:53 Terrasse 16.10 16.37 99.90
59191 2022-04-06 14:12:28 Terrasse 12.60 9.94 1.00
59190 2022-04-06 13:44:12 Terrasse 13.20 10.60 1.00
59189 2022-04-06 13:15:54 Terrasse 13.00 10.38 1.00
59188 2022-04-06 12:47:25 Terrasse 12.20 12.08 99.90
59187 2022-04-06 12:19:05 Terrasse 12.00 9.28 1.00
59186 2022-04-06 11:50:45 Terrasse 12.20 9.50 1.00
59185 2022-04-06 11:22:19 Terrasse 11.40 8.69 3.80
59184 2022-04-06 10:53:53 Terrasse 10.60 10.32 99.90
59183 2022-04-06 10:25:31 Terrasse 10.20 7.30 1.00
59182 2022-04-06 09:57:08 Terrasse 9.60 6.64 1.00
59181 2022-04-06 09:28:46 Terrasse 9.10 6.09 1.00
59180 2022-04-06 09:00:22 Terrasse 8.50 5.43 1.00
59179 2022-04-06 08:32:01 Terrasse 8.20 7.68 99.90
59178 2022-04-06 08:03:41 Terrasse 8.00 7.46 99.90
59177 2022-04-06 07:35:26 Terrasse 7.90 7.35 99.90
59176 2022-04-06 07:07:06 Terrasse 7.90 4.77 1.00
59175 2022-04-06 06:38:47 Terrasse 8.00 4.88 1.00
59174 2022-04-06 06:10:28 Terrasse 8.00 4.88 1.00
59173 2022-04-06 05:42:11 Terrasse 8.10 7.57 99.90
59172 2022-04-06 05:13:52 Terrasse 8.20 5.10 1.00
59171 2022-04-06 04:45:32 Terrasse 8.20 5.10 1.00
59170 2022-04-06 04:17:13 Terrasse 8.20 5.10 1.00
59169 2022-04-06 03:48:54 Terrasse 8.20 5.10 1.00
59168 2022-04-06 03:20:34 Terrasse 8.20 5.10 1.00
59167 2022-04-06 02:52:15 Terrasse 8.20 5.10 1.00
59166 2022-04-06 02:23:56 Terrasse 8.30 5.21 1.00
59165 2022-04-06 01:55:38 Terrasse 8.30 5.21 1.00
59164 2022-04-06 01:27:19 Terrasse 8.30 5.21 1.00
59163 2022-04-06 00:59:00 Terrasse 8.30 5.21 1.00
59162 2022-04-06 00:30:41 Terrasse 8.30 5.21 1.00
59161 2022-04-06 00:02:22 Terrasse 8.30 5.21 1.00
59160 2022-04-05 23:34:02 Terrasse 8.30 5.21 1.00
59159 2022-04-05 23:05:44 Terrasse 8.40 5.32 1.00
59158 2022-04-05 22:37:23 Terrasse 8.40 5.32 1.00
59157 2022-04-05 22:09:04 Terrasse 8.40 5.32 1.00
59156 2022-04-05 21:40:46 Terrasse 8.40 5.32 1.00
59155 2022-04-05 21:12:25 Terrasse 8.40 5.32 1.00
59154 2022-04-05 20:44:06 Terrasse 8.40 5.32 1.00
59153 2022-04-05 20:15:48 Terrasse 8.40 5.32 1.00
59152 2022-04-05 19:47:29 Terrasse 8.40 5.32 1.00
59151 2022-04-05 19:19:11 Terrasse 8.40 5.32 1.00
59150 2022-04-05 18:50:53 Terrasse 8.50 5.43 1.00
59149 2022-04-05 18:22:34 Terrasse 8.60 5.54 1.00
59148 2022-04-05 17:54:15 Terrasse 8.80 5.76 1.00
59147 2022-04-05 17:25:57 Terrasse 8.90 5.87 1.00
59146 2022-04-05 16:57:39 Terrasse 9.10 6.09 1.00
59145 2022-04-05 16:29:18 Terrasse 9.20 6.20 1.00
59144 2022-04-05 16:01:00 Terrasse 9.30 6.31 1.00
59143 2022-04-05 15:32:42 Terrasse 9.30 6.31 1.00
59142 2022-04-05 15:04:23 Terrasse 9.10 6.09 1.00
59141 2022-04-05 14:36:04 Terrasse 8.90 5.87 1.00
59140 2022-04-05 14:07:44 Terrasse 8.70 5.65 1.00
59139 2022-04-05 13:39:22 Terrasse 8.50 5.43 1.00
59138 2022-04-05 13:11:02 Terrasse 8.40 5.32 1.00
59137 2022-04-05 12:42:37 Terrasse 7.60 4.44 1.00
59136 2022-04-05 12:14:14 Terrasse 6.80 3.56 1.00
59135 2022-04-05 11:45:52 Terrasse 6.40 3.12 1.00
59134 2022-04-05 11:17:33 Terrasse 6.20 2.90 1.00
59133 2022-04-05 10:49:13 Terrasse 6.00 2.68 1.00
59132 2022-04-05 10:20:55 Terrasse 5.90 2.57 1.00
59131 2022-04-05 09:52:36 Terrasse 5.80 2.46 1.00
59130 2022-04-05 09:24:17 Terrasse 5.60 2.24 1.00
59129 2022-04-05 08:55:57 Terrasse 5.50 2.13 1.00
59128 2022-04-05 08:27:39 Terrasse 5.50 2.13 1.00
59127 2022-04-05 07:59:19 Terrasse 5.40 2.02 1.00
59126 2022-04-05 07:31:07 Terrasse 5.40 2.02 1.00
59125 2022-04-05 07:02:48 Terrasse 5.40 2.02 1.00
59124 2022-04-05 06:34:29 Terrasse 5.30 1.91 1.00
59123 2022-04-05 06:06:11 Terrasse 5.30 1.91 1.00
59122 2022-04-05 05:37:53 Terrasse 5.30 1.91 1.00
59121 2022-04-05 05:09:34 Terrasse 5.20 1.80 1.00
59120 2022-04-05 04:41:14 Terrasse 5.10 1.69 1.00
59119 2022-04-05 04:12:57 Terrasse 5.10 1.69 1.00
59118 2022-04-05 03:44:38 Terrasse 5.10 1.69 1.00
59117 2022-04-05 03:16:19 Terrasse 5.10 1.69 1.00
59116 2022-04-05 02:48:00 Terrasse 5.10 1.69 1.00
59115 2022-04-05 02:19:43 Terrasse 5.10 4.27 99.90
59114 2022-04-05 01:51:25 Terrasse 5.10 4.27 99.90
59113 2022-04-05 01:23:06 Terrasse 5.10 4.27 99.90
59112 2022-04-05 00:54:46 Terrasse 5.10 4.27 99.90
59111 2022-04-05 00:26:28 Terrasse 5.10 4.27 99.90
59110 2022-04-04 23:58:09 Terrasse 5.00 4.16 99.90
59109 2022-04-04 23:29:50 Terrasse 5.00 4.16 99.90
59108 2022-04-04 23:01:31 Terrasse 4.90 4.05 99.90
59107 2022-04-04 22:33:13 Terrasse 4.90 4.05 99.90
59106 2022-04-04 22:04:54 Terrasse 5.00 3.93 91.00
59105 2022-04-04 21:36:37 Terrasse 5.10 4.27 99.90
59104 2022-04-04 21:08:19 Terrasse 5.20 1.80 1.00
59103 2022-04-04 20:40:01 Terrasse 5.20 1.80 1.00
59102 2022-04-04 20:11:44 Terrasse 5.50 2.13 1.00
59101 2022-04-04 19:43:29 Terrasse 5.80 2.46 1.00
59100 2022-04-04 19:15:12 Terrasse 6.30 5.59 99.90
59099 2022-04-04 18:46:55 Terrasse 6.70 3.45 1.00
59098 2022-04-04 18:18:40 Terrasse 7.10 6.47 99.70
59097 2022-04-04 17:50:24 Terrasse 7.40 6.80 99.90
59096 2022-04-04 17:22:06 Terrasse 7.70 7.13 99.90
59095 2022-04-04 16:53:47 Terrasse 7.60 7.02 99.90
59094 2022-04-04 16:25:31 Terrasse 8.10 4.99 1.00
59093 2022-04-04 15:57:14 Terrasse 8.30 5.21 1.00
59092 2022-04-04 15:28:58 Terrasse 8.70 5.65 1.00
59091 2022-04-04 15:00:41 Terrasse 8.90 5.87 1.00
59090 2022-04-04 14:32:25 Terrasse 9.40 9.00 99.90
59089 2022-04-04 14:04:12 Terrasse 10.70 7.85 1.00
59088 2022-04-04 13:36:06 Terrasse 11.70 8.95 1.00
59087 2022-04-04 13:07:30 Terrasse 9.50 6.53 1.00
59086 2022-04-04 12:39:03 Terrasse 8.60 5.54 1.00
59085 2022-04-04 12:10:47 Terrasse 8.80 8.34 99.90
59084 2022-04-04 11:42:17 Terrasse 7.90 7.35 99.90
59083 2022-04-04 11:13:47 Terrasse 6.20 2.90 1.00
59082 2022-04-04 10:45:17 Terrasse 4.90 1.47 1.00
59081 2022-04-04 10:16:53 Terrasse 3.70 0.15 1.00
59080 2022-04-04 09:48:33 Terrasse 3.00 -0.62 1.00
59079 2022-04-04 09:20:14 Terrasse 2.60 0.12 46.20
59078 2022-04-04 08:51:53 Terrasse 2.00 0.86 99.90
59077 2022-04-04 08:23:32 Terrasse 1.40 -2.38 1.00
59076 2022-04-04 07:55:16 Terrasse 1.30 -2.49 1.00
59075 2022-04-04 07:26:59 Terrasse 1.10 -2.71 1.00
59074 2022-04-04 06:58:41 Terrasse 1.20 -2.60 1.00
59073 2022-04-04 06:30:25 Terrasse 1.40 -2.38 1.00
59072 2022-04-04 06:02:09 Terrasse 1.50 0.31 99.90
59071 2022-04-04 05:33:52 Terrasse 1.70 -2.05 1.00
59070 2022-04-04 05:05:34 Terrasse 1.60 -2.16 1.00
59069 2022-04-04 04:37:15 Terrasse 1.60 0.42 99.90
59068 2022-04-04 04:08:58 Terrasse 1.70 0.53 99.90
59067 2022-04-04 03:40:42 Terrasse 1.60 -2.16 1.00
59066 2022-04-04 03:12:25 Terrasse 1.70 0.53 99.90
59065 2022-04-04 02:44:08 Terrasse 2.00 -1.72 1.00
59064 2022-04-04 02:15:52 Terrasse 2.10 -1.61 1.00
59063 2022-04-04 01:47:35 Terrasse 2.20 -1.32 8.00
59062 2022-04-04 01:19:20 Terrasse 2.50 -1.17 1.00
59061 2022-04-04 00:51:02 Terrasse 2.70 -0.95 1.00
59060 2022-04-04 00:22:45 Terrasse 2.70 -0.95 1.00
59059 2022-04-03 23:54:30 Terrasse 3.20 2.18 99.90
59058 2022-04-03 23:26:16 Terrasse 3.30 -0.29 1.00
59057 2022-04-03 22:58:00 Terrasse 3.40 -0.18 1.00
59056 2022-04-03 22:29:44 Terrasse 3.90 0.37 1.00
59055 2022-04-03 22:01:28 Terrasse 4.10 0.59 1.00
59054 2022-04-03 21:33:13 Terrasse 4.40 0.92 1.00
59053 2022-04-03 21:04:57 Terrasse 4.90 1.47 1.00
59052 2022-04-03 20:36:42 Terrasse 5.40 2.02 1.00
59051 2022-04-03 20:08:29 Terrasse 6.10 2.79 1.00
59050 2022-04-03 19:40:15 Terrasse 6.60 5.92 99.90
59049 2022-04-03 19:11:59 Terrasse 7.10 6.09 85.20
59048 2022-04-03 18:43:45 Terrasse 7.70 7.13 99.90
59047 2022-04-03 18:15:32 Terrasse 8.30 7.79 99.90
59046 2022-04-03 17:47:18 Terrasse 9.00 8.56 99.90
59045 2022-04-03 17:19:05 Terrasse 9.80 9.44 99.90
59044 2022-04-03 16:50:51 Terrasse 10.60 10.32 99.90
59043 2022-04-03 16:22:38 Terrasse 11.00 10.76 99.90
59042 2022-04-03 15:54:27 Terrasse 12.30 12.19 99.90
59041 2022-04-03 15:26:13 Terrasse 12.50 12.41 99.90
59040 2022-04-03 14:58:30 Terrasse 15.90 16.15 99.90
59039 2022-04-03 14:30:19 Terrasse 17.30 17.69 99.90
59038 2022-04-03 14:01:23 Terrasse 16.10 16.37 99.90
59037 2022-04-03 13:33:36 Terrasse 18.20 16.10 1.00
59036 2022-04-03 13:05:01 Terrasse 17.40 15.22 1.00
59035 2022-04-03 12:35:42 Terrasse 11.00 8.18 1.00
59034 2022-04-03 12:07:12 Terrasse 6.70 3.45 1.00
59033 2022-04-03 11:38:51 Terrasse 6.60 3.34 1.00
59032 2022-04-03 11:10:19 Terrasse 5.50 2.13 1.00
59031 2022-04-03 10:41:52 Terrasse 4.20 3.28 99.90
59030 2022-04-03 10:13:27 Terrasse 3.00 -0.62 1.00
59029 2022-04-03 09:45:04 Terrasse 2.20 -1.50 1.00
59028 2022-04-03 09:16:43 Terrasse 1.50 -2.27 1.00
59027 2022-04-03 08:48:22 Terrasse 0.90 -2.93 1.00
59026 2022-04-03 08:20:01 Terrasse 0.40 -0.90 99.90
59025 2022-04-03 07:51:43 Terrasse 0.10 -1.23 99.90
59024 2022-04-03 07:23:27 Terrasse 0.10 -1.23 99.90
59023 2022-04-03 06:55:09 Terrasse 0.10 -1.23 99.90
59022 2022-04-03 06:26:53 Terrasse 0.40 -0.90 99.90
59021 2022-04-03 05:58:36 Terrasse 0.40 -3.48 1.00
59020 2022-04-03 05:30:20 Terrasse 0.60 -3.26 1.00
59019 2022-04-03 05:02:04 Terrasse 0.80 -3.04 1.00
59018 2022-04-03 04:33:46 Terrasse 0.80 -3.04 1.00
59017 2022-04-03 04:05:30 Terrasse 1.00 -2.82 1.00
59016 2022-04-03 03:37:13 Terrasse 1.20 -0.75 71.80
59015 2022-04-03 03:08:56 Terrasse 1.30 0.09 99.90
59014 2022-04-03 02:40:38 Terrasse 1.40 0.20 99.90
59013 2022-04-03 02:12:21 Terrasse 1.50 -2.27 1.00
59012 2022-04-03 01:44:03 Terrasse 1.60 -2.16 1.00
59011 2022-04-03 01:15:46 Terrasse 1.60 -2.16 1.00
59010 2022-04-03 00:47:29 Terrasse 1.60 0.42 99.90
59009 2022-04-03 00:19:13 Terrasse 1.80 0.59 97.90
59008 2022-04-02 23:50:55 Terrasse 1.90 -1.83 1.00
59007 2022-04-02 23:22:38 Terrasse 2.00 0.86 99.90
59006 2022-04-02 22:54:22 Terrasse 2.10 0.97 99.90
59005 2022-04-02 22:26:06 Terrasse 2.20 -1.50 1.00
59004 2022-04-02 21:57:49 Terrasse 2.30 0.44 71.20
59003 2022-04-02 21:29:31 Terrasse 2.40 -1.28 1.00
59002 2022-04-02 21:01:15 Terrasse 2.50 -1.17 1.00
59001 2022-04-02 20:32:57 Terrasse 2.70 -0.95 1.00
59000 2022-04-02 20:04:41 Terrasse 2.80 -0.84 1.00
58999 2022-04-02 19:36:24 Terrasse 3.10 -0.51 1.00
58998 2022-04-02 19:08:07 Terrasse 3.20 -0.40 1.00
58997 2022-04-02 18:39:50 Terrasse 3.40 -0.18 1.00
58996 2022-04-02 18:11:33 Terrasse 3.60 0.04 1.00
58995 2022-04-02 17:43:16 Terrasse 3.60 2.62 99.90
58994 2022-04-02 17:15:01 Terrasse 4.00 0.48 1.00
58993 2022-04-02 16:46:45 Terrasse 4.10 0.59 1.00
58992 2022-04-02 16:18:31 Terrasse 4.40 3.14 85.80
58991 2022-04-02 15:50:13 Terrasse 4.60 3.72 99.90
58990 2022-04-02 15:21:54 Terrasse 4.40 3.50 99.90
58989 2022-04-02 14:53:36 Terrasse 4.40 0.92 1.00
58988 2022-04-02 14:25:17 Terrasse 4.10 3.17 99.90
58987 2022-04-02 13:56:56 Terrasse 3.90 0.37 1.00
58986 2022-04-02 13:28:35 Terrasse 3.40 -0.18 1.00
58985 2022-04-02 13:00:15 Terrasse 3.00 1.53 83.30
58984 2022-04-02 12:31:54 Terrasse 2.60 1.52 99.90
58983 2022-04-02 12:03:34 Terrasse 2.40 0.31 61.80
58982 2022-04-02 11:35:15 Terrasse 2.10 0.97 99.90
58981 2022-04-02 11:06:56 Terrasse 1.90 -1.83 1.00
58980 2022-04-02 10:38:36 Terrasse 1.50 -2.27 1.00
58979 2022-04-02 10:10:17 Terrasse 1.10 -0.13 99.90
58978 2022-04-02 09:41:57 Terrasse 0.90 -0.35 99.90
58977 2022-04-02 09:13:39 Terrasse 0.80 -0.46 99.90
58976 2022-04-02 08:45:22 Terrasse 0.60 -3.26 1.00
58975 2022-04-02 08:17:03 Terrasse 0.50 -0.79 99.90
58974 2022-04-02 07:48:47 Terrasse 0.50 -3.37 1.00
58973 2022-04-02 07:20:28 Terrasse 0.60 -3.26 1.00
58972 2022-04-02 06:52:12 Terrasse 0.60 -3.26 1.00
58971 2022-04-02 06:23:55 Terrasse 0.60 -0.68 99.90
58970 2022-04-02 05:55:39 Terrasse 0.70 -3.15 1.00
58969 2022-04-02 05:27:22 Terrasse 0.80 -0.46 99.90
58968 2022-04-02 04:59:05 Terrasse 0.90 -2.93 1.00
58967 2022-04-02 04:30:48 Terrasse 1.00 -0.24 99.90
58966 2022-04-02 04:02:31 Terrasse 1.00 -2.82 1.00
58965 2022-04-02 03:34:15 Terrasse 1.10 -2.71 1.00
58964 2022-04-02 03:05:57 Terrasse 1.20 -0.02 99.90
58963 2022-04-02 02:37:40 Terrasse 1.30 0.09 99.90
58962 2022-04-02 02:09:23 Terrasse 1.30 0.09 99.90
58961 2022-04-02 01:41:06 Terrasse 1.50 -2.27 1.00
58960 2022-04-02 01:12:48 Terrasse 1.50 -2.27 1.00
58959 2022-04-02 00:44:31 Terrasse 1.40 -2.38 1.00
58958 2022-04-02 00:16:16 Terrasse 1.40 -2.38 1.00
58957 2022-04-01 23:47:59 Terrasse 1.40 -2.38 1.00
58956 2022-04-01 23:19:41 Terrasse 1.50 -2.27 1.00
58955 2022-04-01 22:51:24 Terrasse 1.60 -2.16 1.00
58954 2022-04-01 22:23:08 Terrasse 1.70 0.31 91.40
58953 2022-04-01 21:54:52 Terrasse 1.70 0.53 99.90
58952 2022-04-01 21:26:37 Terrasse 1.80 0.64 99.90
58951 2022-04-01 20:58:20 Terrasse 1.90 0.75 99.90
58950 2022-04-01 20:30:04 Terrasse 2.00 -1.72 1.00
58949 2022-04-01 20:01:49 Terrasse 2.10 0.97 99.90
58948 2022-04-01 19:33:32 Terrasse 2.20 -1.50 1.00
58947 2022-04-01 19:05:17 Terrasse 2.40 1.30 99.90
58946 2022-04-01 18:37:04 Terrasse 2.60 -0.60 18.60
58945 2022-04-01 18:08:48 Terrasse 2.90 -0.73 1.00
58944 2022-04-01 17:40:32 Terrasse 2.80 -0.84 1.00
58943 2022-04-01 17:12:15 Terrasse 3.00 1.96 99.90
58942 2022-04-01 16:43:58 Terrasse 3.20 2.18 99.90
58941 2022-04-01 16:15:42 Terrasse 3.40 -0.18 1.00
58940 2022-04-01 15:47:25 Terrasse 3.50 -0.07 1.00
58939 2022-04-01 15:19:08 Terrasse 3.60 0.04 1.00
58938 2022-04-01 14:50:52 Terrasse 3.80 2.84 99.90
58937 2022-04-01 14:22:34 Terrasse 3.90 2.95 99.90
58936 2022-04-01 13:54:17 Terrasse 3.90 2.03 64.40
58935 2022-04-01 13:26:05 Terrasse 4.30 3.39 99.90
58934 2022-04-01 12:57:47 Terrasse 4.30 3.39 99.90
58933 2022-04-01 12:29:30 Terrasse 4.40 3.50 99.90
58932 2022-04-01 12:01:08 Terrasse 4.00 0.48 1.00
58931 2022-04-01 11:32:49 Terrasse 3.80 0.26 1.00
58930 2022-04-01 11:04:31 Terrasse 3.70 0.15 1.00
58929 2022-04-01 10:36:14 Terrasse 3.60 0.04 1.00
58928 2022-04-01 10:07:57 Terrasse 3.70 0.15 1.00
58927 2022-04-01 09:39:40 Terrasse 3.70 0.15 1.00
58926 2022-04-01 09:11:24 Terrasse 3.70 0.15 1.00
58925 2022-04-01 08:43:09 Terrasse 3.80 2.84 99.90
58924 2022-04-01 08:14:52 Terrasse 3.80 0.35 4.50
58923 2022-04-01 07:46:36 Terrasse 3.90 0.96 23.60
58922 2022-04-01 07:18:18 Terrasse 4.00 0.48 1.00
58921 2022-04-01 06:50:02 Terrasse 4.10 0.59 1.00
58920 2022-04-01 06:21:45 Terrasse 4.30 0.81 1.00
58919 2022-04-01 05:53:28 Terrasse 4.30 3.39 99.90
58918 2022-04-01 05:25:11 Terrasse 4.30 0.81 1.00
58917 2022-04-01 04:56:54 Terrasse 4.40 0.92 1.00
58916 2022-04-01 04:28:37 Terrasse 4.40 3.50 99.90
58915 2022-04-01 04:00:20 Terrasse 4.50 3.61 99.90
58914 2022-04-01 03:32:03 Terrasse 4.60 3.72 99.90
58913 2022-04-01 03:03:47 Terrasse 4.70 3.83 99.90
58912 2022-04-01 02:35:30 Terrasse 4.70 1.25 1.00
58911 2022-04-01 02:07:14 Terrasse 4.90 1.47 1.00
58910 2022-04-01 01:38:58 Terrasse 5.10 1.69 1.00
58909 2022-04-01 01:10:41 Terrasse 5.20 1.80 1.00
58908 2022-04-01 00:42:25 Terrasse 5.40 2.02 1.00
58907 2022-04-01 00:14:08 Terrasse 5.50 2.13 1.00
58906 2022-03-31 23:45:51 Terrasse 5.70 4.93 99.90
58905 2022-03-31 23:17:34 Terrasse 5.80 2.46 1.00
58904 2022-03-31 22:49:18 Terrasse 6.00 5.26 99.90
58903 2022-03-31 22:21:00 Terrasse 6.30 3.01 1.00
58902 2022-03-31 21:52:50 Terrasse 6.40 5.70 99.90
58901 2022-03-31 21:24:35 Terrasse 6.60 5.55 85.70
58900 2022-03-31 20:56:18 Terrasse 6.80 6.14 99.90
58899 2022-03-31 20:28:02 Terrasse 7.10 3.89 1.00
58898 2022-03-31 19:59:46 Terrasse 7.30 4.11 1.00
58897 2022-03-31 19:31:29 Terrasse 7.70 4.55 1.00
58896 2022-03-31 19:03:14 Terrasse 8.00 4.88 1.00
58895 2022-03-31 18:34:58 Terrasse 8.30 5.21 1.00
58894 2022-03-31 18:06:42 Terrasse 8.50 5.43 1.00
58893 2022-03-31 17:38:26 Terrasse 8.70 6.26 24.20
58892 2022-03-31 17:10:09 Terrasse 9.00 8.56 99.90
58891 2022-03-31 16:41:54 Terrasse 9.70 9.33 99.90
58890 2022-03-31 16:13:36 Terrasse 9.70 6.75 1.00
58889 2022-03-31 15:45:15 Terrasse 9.60 9.22 99.90
58888 2022-03-31 15:16:55 Terrasse 9.30 8.89 99.90
58887 2022-03-31 14:48:39 Terrasse 9.30 8.89 99.90
58886 2022-03-31 14:20:20 Terrasse 9.40 9.00 99.90
58885 2022-03-31 13:52:01 Terrasse 9.50 9.11 99.90
58884 2022-03-31 13:23:38 Terrasse 9.00 8.56 99.90
58883 2022-03-31 12:55:20 Terrasse 8.90 6.55 27.00
58882 2022-03-31 12:27:00 Terrasse 8.40 5.32 1.00
58881 2022-03-31 11:58:41 Terrasse 8.30 7.79 99.90
58880 2022-03-31 11:30:22 Terrasse 7.80 4.66 1.00
58879 2022-03-31 11:02:04 Terrasse 7.60 7.02 99.90
58878 2022-03-31 10:33:47 Terrasse 7.40 6.80 99.90
58877 2022-03-31 10:05:28 Terrasse 7.20 4.00 1.00
58876 2022-03-31 09:37:17 Terrasse 7.00 3.95 7.50
58875 2022-03-31 09:08:55 Terrasse 6.70 4.92 57.40
58874 2022-03-31 08:40:52 Terrasse 6.40 3.12 1.00
58873 2022-03-31 08:12:29 Terrasse 6.10 2.79 1.00
58872 2022-03-31 07:44:56 Terrasse 5.90 5.15 99.90
58871 2022-03-31 07:16:54 Terrasse 5.80 2.46 1.00
58870 2022-03-31 06:48:06 Terrasse 6.00 4.61 75.00
58869 2022-03-31 06:19:50 Terrasse 6.30 5.59 99.90
58868 2022-03-31 05:51:34 Terrasse 6.50 3.23 1.00
58867 2022-03-31 05:23:17 Terrasse 6.60 3.34 1.00
58866 2022-03-31 04:55:01 Terrasse 6.70 3.45 1.00
58865 2022-03-31 04:26:44 Terrasse 6.80 3.56 1.00
58864 2022-03-31 03:58:28 Terrasse 7.00 6.36 99.90
58863 2022-03-31 03:30:12 Terrasse 7.20 6.00 77.50
58862 2022-03-31 03:01:54 Terrasse 7.30 6.69 99.90
58861 2022-03-31 02:33:37 Terrasse 7.30 6.69 99.90
58860 2022-03-31 02:05:21 Terrasse 7.50 4.95 24.70
58859 2022-03-31 01:37:05 Terrasse 7.90 4.77 1.00
58858 2022-03-31 01:08:49 Terrasse 8.40 5.32 1.00
58857 2022-03-31 00:40:33 Terrasse 8.60 5.54 1.00
58856 2022-03-31 00:12:15 Terrasse 8.50 8.01 99.90
58855 2022-03-30 23:43:59 Terrasse 8.80 5.76 1.00
58854 2022-03-30 23:15:43 Terrasse 9.00 5.98 1.00
58853 2022-03-30 22:47:28 Terrasse 9.30 8.89 99.90
58852 2022-03-30 22:19:12 Terrasse 9.60 9.22 99.90
58851 2022-03-30 21:50:56 Terrasse 9.70 8.34 62.00
58850 2022-03-30 21:22:41 Terrasse 9.90 6.97 1.00
58849 2022-03-30 20:54:27 Terrasse 10.60 10.32 99.90
58848 2022-03-30 20:26:12 Terrasse 11.20 10.00 62.20
58847 2022-03-30 19:57:58 Terrasse 11.70 8.95 1.00
58846 2022-03-30 19:29:45 Terrasse 12.30 9.61 1.00
58845 2022-03-30 19:01:34 Terrasse 13.10 10.49 1.00
58844 2022-03-30 18:33:23 Terrasse 14.30 11.81 1.00
58843 2022-03-30 18:05:10 Terrasse 14.90 12.47 1.00
58842 2022-03-30 17:36:54 Terrasse 15.60 13.24 1.00
58841 2022-03-30 17:08:41 Terrasse 16.60 14.34 1.00
58840 2022-03-30 16:40:23 Terrasse 16.50 14.23 1.00
58839 2022-03-30 16:12:06 Terrasse 16.70 14.45 1.00
58838 2022-03-30 15:43:53 Terrasse 16.90 14.67 1.00
58837 2022-03-30 15:15:31 Terrasse 16.10 13.79 1.00
58836 2022-03-30 14:47:10 Terrasse 16.00 13.68 1.00
58835 2022-03-30 14:18:53 Terrasse 15.90 13.57 1.00
58834 2022-03-30 13:50:24 Terrasse 14.80 12.36 1.00
58833 2022-03-30 13:22:22 Terrasse 16.00 13.68 1.00
58832 2022-03-30 12:53:54 Terrasse 15.80 16.04 99.90
58831 2022-03-30 12:25:20 Terrasse 12.20 9.50 1.00
58830 2022-03-30 11:56:55 Terrasse 10.80 9.03 41.90
58829 2022-03-30 11:28:34 Terrasse 10.60 7.74 1.00
58828 2022-03-30 11:00:16 Terrasse 10.20 9.88 99.90
58827 2022-03-30 10:31:55 Terrasse 9.70 6.75 1.00
58826 2022-03-30 10:03:36 Terrasse 9.30 6.31 1.00
58825 2022-03-30 09:35:17 Terrasse 9.00 5.98 1.00
58824 2022-03-30 09:07:00 Terrasse 9.00 8.56 99.90
58823 2022-03-30 08:38:42 Terrasse 8.90 8.45 99.90
58822 2022-03-30 08:10:24 Terrasse 9.00 8.56 99.90
58821 2022-03-30 07:42:08 Terrasse 9.10 6.09 1.00
58820 2022-03-30 07:13:51 Terrasse 9.40 6.42 1.00
58819 2022-03-30 06:45:36 Terrasse 9.60 9.22 99.90
58818 2022-03-30 06:17:20 Terrasse 9.70 6.75 1.00
58817 2022-03-30 05:49:03 Terrasse 9.90 6.97 1.00
58816 2022-03-30 05:20:46 Terrasse 10.00 7.08 1.00
58815 2022-03-30 04:52:30 Terrasse 10.30 9.99 99.90
58814 2022-03-30 04:24:13 Terrasse 10.60 7.74 1.00
58813 2022-03-30 03:55:56 Terrasse 11.00 10.76 99.90
58812 2022-03-30 03:27:39 Terrasse 10.90 10.65 99.90
58811 2022-03-30 02:59:22 Terrasse 11.20 9.87 57.40
58810 2022-03-30 02:31:04 Terrasse 11.40 9.01 15.70
58809 2022-03-30 02:02:47 Terrasse 11.40 11.20 99.90
58808 2022-03-30 01:34:29 Terrasse 11.40 11.20 99.90
58807 2022-03-30 01:06:14 Terrasse 11.70 11.53 99.90
58806 2022-03-30 00:37:58 Terrasse 11.90 9.55 15.60
58805 2022-03-30 00:09:42 Terrasse 12.00 9.98 27.60
58804 2022-03-29 23:41:23 Terrasse 12.20 12.08 99.90
58803 2022-03-29 23:13:05 Terrasse 12.20 12.08 99.90
58802 2022-03-29 22:44:47 Terrasse 12.20 9.50 1.00
58801 2022-03-29 22:16:29 Terrasse 12.30 12.19 99.90
58800 2022-03-29 21:48:12 Terrasse 12.20 9.50 1.00
58799 2022-03-29 21:19:57 Terrasse 12.50 9.83 1.00
58798 2022-03-29 20:51:42 Terrasse 13.00 12.96 99.90
58797 2022-03-29 20:23:28 Terrasse 13.40 10.82 1.00
58796 2022-03-29 19:55:15 Terrasse 14.00 11.48 1.00
58795 2022-03-29 19:27:00 Terrasse 14.80 12.36 1.00
58794 2022-03-29 18:58:45 Terrasse 15.20 12.80 1.00
58793 2022-03-29 18:30:28 Terrasse 15.40 13.02 1.00
58792 2022-03-29 18:02:11 Terrasse 15.70 13.35 1.00
58791 2022-03-29 17:33:54 Terrasse 15.90 13.57 1.00
58790 2022-03-29 17:05:35 Terrasse 16.10 13.79 1.00
58789 2022-03-29 16:37:20 Terrasse 16.50 14.23 1.00
58788 2022-03-29 16:09:04 Terrasse 16.90 14.67 1.00
58787 2022-03-29 15:40:46 Terrasse 17.10 14.89 1.00
58786 2022-03-29 15:12:28 Terrasse 17.20 15.00 1.00
58785 2022-03-29 14:44:13 Terrasse 17.90 15.77 1.00
58784 2022-03-29 14:15:57 Terrasse 18.50 16.43 1.00
58783 2022-03-29 13:47:41 Terrasse 18.50 16.43 1.00
58782 2022-03-29 13:19:15 Terrasse 17.60 15.44 1.00
58781 2022-03-29 12:50:54 Terrasse 17.60 15.44 1.00
58780 2022-03-29 12:22:28 Terrasse 16.50 14.23 1.00
58779 2022-03-29 11:54:06 Terrasse 15.90 13.57 1.00
58778 2022-03-29 11:25:39 Terrasse 14.70 12.25 1.00
58777 2022-03-29 10:57:16 Terrasse 13.80 13.84 99.90
58776 2022-03-29 10:28:55 Terrasse 13.10 13.07 99.90
58775 2022-03-29 10:00:34 Terrasse 12.40 12.30 99.90
58774 2022-03-29 09:32:14 Terrasse 12.00 9.28 1.00
58773 2022-03-29 09:03:54 Terrasse 11.60 8.84 1.00
58772 2022-03-29 08:35:34 Terrasse 11.20 8.40 1.00
58771 2022-03-29 08:07:14 Terrasse 10.80 10.54 99.90
58770 2022-03-29 07:38:56 Terrasse 10.90 10.65 99.90
58769 2022-03-29 07:10:42 Terrasse 11.10 8.29 1.00
58768 2022-03-29 06:42:26 Terrasse 11.20 10.98 99.90
58767 2022-03-29 06:14:09 Terrasse 11.40 8.62 1.00
58766 2022-03-29 05:45:51 Terrasse 11.50 8.73 1.00
58765 2022-03-29 05:17:36 Terrasse 11.60 8.84 1.00
58764 2022-03-29 04:49:20 Terrasse 11.90 9.17 1.00
58763 2022-03-29 04:21:04 Terrasse 12.30 12.19 99.90
58762 2022-03-29 03:52:48 Terrasse 12.70 12.63 99.90
58761 2022-03-29 03:24:34 Terrasse 13.00 12.96 99.90
58760 2022-03-29 02:56:18 Terrasse 13.40 13.40 99.90
58759 2022-03-29 02:28:02 Terrasse 13.70 13.73 99.90
58758 2022-03-29 01:59:48 Terrasse 14.20 14.28 99.90
58757 2022-03-29 01:31:31 Terrasse 14.50 14.61 99.90
58756 2022-03-29 01:03:14 Terrasse 14.60 14.72 99.90
58755 2022-03-29 00:34:58 Terrasse 15.00 15.16 99.90
58754 2022-03-29 00:06:41 Terrasse 15.30 15.49 99.90
58753 2022-03-28 23:38:24 Terrasse 15.50 15.71 99.90
58752 2022-03-28 23:10:07 Terrasse 15.70 15.93 99.90
58751 2022-03-28 22:41:50 Terrasse 15.90 16.15 99.90
58750 2022-03-28 22:13:35 Terrasse 16.20 16.48 99.90
58749 2022-03-28 21:45:19 Terrasse 16.60 16.92 99.90
58748 2022-03-28 21:17:03 Terrasse 16.70 17.03 99.90
58747 2022-03-28 20:48:47 Terrasse 17.10 17.47 99.90
58746 2022-03-28 20:20:33 Terrasse 17.80 18.24 99.90
58745 2022-03-28 19:52:19 Terrasse 18.70 19.23 99.90
58744 2022-03-28 19:24:07 Terrasse 19.50 20.11 99.90
58743 2022-03-28 18:55:53 Terrasse 20.40 21.10 99.90
58742 2022-03-28 18:27:39 Terrasse 21.40 22.20 99.90
58741 2022-03-28 17:59:27 Terrasse 22.30 23.19 99.90
58740 2022-03-28 17:31:15 Terrasse 23.40 24.40 99.90
58739 2022-03-28 17:02:56 Terrasse 23.30 24.29 99.90
58738 2022-03-28 16:34:42 Terrasse 23.70 24.73 99.90
58737 2022-03-28 16:06:34 Terrasse 25.50 26.83 99.90
58736 2022-03-28 15:38:15 Terrasse 25.70 27.45 99.90
58735 2022-03-28 15:10:05 Terrasse 26.30 29.40 99.90
58734 2022-03-28 14:42:00 Terrasse 27.70 35.28 99.90
58733 2022-03-28 14:13:47 Terrasse 28.40 37.84 99.90
58732 2022-03-28 13:45:30 Terrasse 27.50 34.58 99.90
58731 2022-03-28 13:17:09 Terrasse 29.30 26.75 1.00
58730 2022-03-28 12:48:10 Terrasse 25.50 24.13 1.00
58729 2022-03-28 12:19:25 Terrasse 20.00 18.08 1.00
58728 2022-03-28 11:51:02 Terrasse 18.80 19.34 99.90
58727 2022-03-28 11:22:34 Terrasse 17.40 15.22 1.00
58726 2022-03-28 10:54:04 Terrasse 15.30 12.91 1.00
58725 2022-03-28 10:25:38 Terrasse 14.00 11.48 1.00
58724 2022-03-28 09:57:15 Terrasse 13.00 10.38 1.00
58723 2022-03-28 09:28:52 Terrasse 12.20 12.08 99.90
58722 2022-03-28 09:00:29 Terrasse 11.40 11.20 99.90
58721 2022-03-28 08:32:09 Terrasse 10.70 7.85 1.00
58720 2022-03-28 08:03:50 Terrasse 10.40 7.52 1.00
58719 2022-03-28 07:35:32 Terrasse 10.30 9.99 99.90
58718 2022-03-28 07:07:14 Terrasse 10.40 7.52 1.00
58717 2022-03-28 06:38:58 Terrasse 10.70 7.85 1.00
58716 2022-03-28 06:10:41 Terrasse 10.90 8.07 1.00
58715 2022-03-28 05:42:25 Terrasse 11.10 8.29 1.00
58714 2022-03-28 05:14:08 Terrasse 11.40 11.20 99.90
58713 2022-03-28 04:45:53 Terrasse 11.70 8.95 1.00
58712 2022-03-28 04:17:36 Terrasse 12.00 11.86 99.90
58711 2022-03-28 03:49:19 Terrasse 12.10 11.97 99.90
58710 2022-03-28 03:21:03 Terrasse 12.40 9.72 1.00
58709 2022-03-28 02:52:46 Terrasse 12.60 12.52 99.90
58708 2022-03-28 02:24:29 Terrasse 12.90 10.27 1.00
58707 2022-03-28 01:56:11 Terrasse 13.00 10.38 1.00
58706 2022-03-28 01:27:56 Terrasse 13.40 13.40 99.90
58705 2022-03-28 00:59:40 Terrasse 13.90 11.37 1.00
58704 2022-03-28 00:31:25 Terrasse 14.30 14.39 99.90
58703 2022-03-28 00:03:11 Terrasse 14.80 12.36 1.00
58702 2022-03-27 23:34:55 Terrasse 15.10 12.69 1.00
58701 2022-03-27 23:06:40 Terrasse 15.40 13.02 1.00
58700 2022-03-27 22:38:22 Terrasse 15.70 15.93 99.90
58699 2022-03-27 22:10:06 Terrasse 15.80 16.04 99.90
58698 2022-03-27 21:41:50 Terrasse 16.20 14.57 26.70
58697 2022-03-27 21:13:36 Terrasse 16.80 14.56 1.00
58696 2022-03-27 20:45:21 Terrasse 17.10 14.89 1.00
58695 2022-03-27 20:17:07 Terrasse 17.60 15.44 1.00
58694 2022-03-27 19:48:55 Terrasse 18.70 19.23 99.90
58693 2022-03-27 19:20:41 Terrasse 19.50 20.11 99.90
58692 2022-03-27 18:52:27 Terrasse 20.30 20.99 99.90
58691 2022-03-27 18:24:16 Terrasse 21.40 22.20 99.90
58690 2022-03-27 17:56:02 Terrasse 22.50 23.41 99.90
58689 2022-03-27 17:27:50 Terrasse 23.70 24.73 99.90
58688 2022-03-27 16:59:34 Terrasse 24.30 25.39 99.90
58687 2022-03-27 16:31:17 Terrasse 24.90 26.05 99.90
58686 2022-03-27 16:03:03 Terrasse 25.80 27.77 99.90
58685 2022-03-27 15:34:48 Terrasse 25.90 28.09 99.90
58684 2022-03-27 15:06:38 Terrasse 26.60 30.42 99.90
58683 2022-03-27 14:38:37 Terrasse 28.60 38.60 99.90
58682 2022-03-27 14:10:22 Terrasse 29.00 40.17 99.90
58681 2022-03-27 13:42:13 Terrasse 28.20 37.09 99.90
58680 2022-03-27 13:13:48 Terrasse 29.40 41.79 99.90
58679 2022-03-27 12:44:46 Terrasse 24.80 23.36 1.00
58678 2022-03-27 12:16:07 Terrasse 19.60 17.64 1.00
58677 2022-03-27 11:47:43 Terrasse 18.70 16.65 1.00
58676 2022-03-27 11:19:13 Terrasse 17.50 16.00 26.60
58675 2022-03-27 10:50:49 Terrasse 15.80 13.46 1.00
58674 2022-03-27 10:22:23 Terrasse 14.60 14.72 99.90
58673 2022-03-27 09:53:58 Terrasse 13.70 11.15 1.00
58672 2022-03-27 09:25:36 Terrasse 13.00 12.96 99.90
58671 2022-03-27 08:57:13 Terrasse 12.30 9.61 1.00
58670 2022-03-27 08:28:52 Terrasse 11.80 11.64 99.90
58669 2022-03-27 08:00:33 Terrasse 11.30 8.51 1.00
58668 2022-03-27 07:32:15 Terrasse 11.30 8.51 1.00
58667 2022-03-27 07:03:58 Terrasse 11.40 8.62 1.00
58666 2022-03-27 06:35:40 Terrasse 11.50 11.31 99.90
58665 2022-03-27 06:07:23 Terrasse 11.50 8.73 1.00
58664 2022-03-27 05:39:06 Terrasse 11.50 8.73 1.00
58663 2022-03-27 05:10:49 Terrasse 11.50 8.73 1.00
58662 2022-03-27 04:42:33 Terrasse 11.50 11.31 99.90
58661 2022-03-27 04:14:18 Terrasse 12.00 11.86 99.90
58660 2022-03-27 03:46:03 Terrasse 12.30 9.61 1.00
58659 2022-03-27 03:17:47 Terrasse 12.60 12.52 99.90
58658 2022-03-27 01:49:31 Terrasse 12.70 10.05 1.00
58657 2022-03-27 01:21:15 Terrasse 12.90 10.27 1.00
58656 2022-03-27 00:53:00 Terrasse 13.10 10.49 1.00
58655 2022-03-27 00:24:44 Terrasse 13.30 10.71 1.00
58654 2022-03-26 23:56:27 Terrasse 13.50 10.93 1.00
58653 2022-03-26 23:28:09 Terrasse 13.70 13.73 99.90
58652 2022-03-26 22:59:53 Terrasse 13.80 13.84 99.90
58651 2022-03-26 22:31:36 Terrasse 14.00 14.06 99.90
58650 2022-03-26 22:03:19 Terrasse 14.20 14.28 99.90
58649 2022-03-26 21:35:03 Terrasse 14.30 14.39 99.90
58648 2022-03-26 21:06:45 Terrasse 14.50 14.61 99.90
58647 2022-03-26 20:38:29 Terrasse 14.50 14.61 99.90
58646 2022-03-26 20:10:13 Terrasse 14.80 14.94 99.90
58645 2022-03-26 19:42:00 Terrasse 15.50 15.71 99.90
58644 2022-03-26 19:13:48 Terrasse 16.50 16.81 99.90
58643 2022-03-26 18:45:34 Terrasse 17.30 17.69 99.90
58642 2022-03-26 18:17:20 Terrasse 18.30 18.79 99.90
58641 2022-03-26 17:49:06 Terrasse 19.10 19.67 99.90
58640 2022-03-26 17:20:54 Terrasse 20.10 20.77 99.90
58639 2022-03-26 16:52:43 Terrasse 21.30 22.09 99.90
58638 2022-03-26 16:24:32 Terrasse 22.40 23.30 99.90
58637 2022-03-26 15:56:17 Terrasse 23.10 24.07 99.90
58636 2022-03-26 15:28:04 Terrasse 24.10 25.17 99.90
58635 2022-03-26 14:59:50 Terrasse 24.80 25.94 99.90
58634 2022-03-26 14:31:33 Terrasse 24.90 26.05 99.90
58633 2022-03-26 14:03:23 Terrasse 25.60 27.14 99.90
58632 2022-03-26 13:35:20 Terrasse 27.10 33.22 99.90
58631 2022-03-26 13:07:02 Terrasse 27.70 35.28 99.90
58630 2022-03-26 12:39:01 Terrasse 26.90 32.56 99.90
58629 2022-03-26 12:10:34 Terrasse 27.90 35.99 99.90
58628 2022-03-26 11:41:30 Terrasse 23.00 23.96 99.90
58627 2022-03-26 11:12:56 Terrasse 18.50 19.01 99.90
58626 2022-03-26 10:44:32 Terrasse 17.40 17.80 99.90
58625 2022-03-26 10:15:56 Terrasse 15.90 16.15 99.90
58624 2022-03-26 09:47:31 Terrasse 14.20 14.28 99.90
58623 2022-03-26 09:19:04 Terrasse 13.00 12.96 99.90
58622 2022-03-26 08:50:41 Terrasse 12.00 11.86 99.90
58621 2022-03-26 08:22:19 Terrasse 11.20 10.98 99.90
58620 2022-03-26 07:53:58 Terrasse 10.50 10.21 99.90
58619 2022-03-26 07:25:38 Terrasse 10.00 9.66 99.90
58618 2022-03-26 06:57:20 Terrasse 9.60 9.22 99.90
58617 2022-03-26 06:29:04 Terrasse 9.50 9.11 99.90
58616 2022-03-26 06:01:16 Terrasse 9.40 9.00 99.90
58615 2022-03-26 05:33:12 Terrasse 9.50 9.11 99.90
58614 2022-03-26 05:05:11 Terrasse 9.50 9.11 99.90
58613 2022-03-26 04:37:10 Terrasse 9.60 9.22 99.90
58612 2022-03-26 04:09:09 Terrasse 9.80 9.44 99.90
58611 2022-03-26 03:41:08 Terrasse 10.00 9.66 99.90
58610 2022-03-26 03:13:07 Terrasse 10.20 9.88 99.90
58609 2022-03-26 02:45:04 Terrasse 10.30 9.99 99.90
58608 2022-03-26 02:16:51 Terrasse 10.80 10.54 99.90
58607 2022-03-26 01:48:53 Terrasse 11.60 11.42 99.90
58606 2022-03-26 01:20:41 Terrasse 11.80 11.64 99.90
58605 2022-03-26 00:52:23 Terrasse 12.10 11.97 99.90
58604 2022-03-26 00:24:15 Terrasse 12.30 12.19 99.90
58603 2022-03-25 23:55:55 Terrasse 12.60 12.52 99.90
58602 2022-03-25 23:27:56 Terrasse 12.90 12.85 99.90
58601 2022-03-25 22:59:37 Terrasse 13.10 13.07 99.90
58600 2022-03-25 22:31:22 Terrasse 13.40 13.40 99.90
58599 2022-03-25 22:03:06 Terrasse 13.70 13.73 99.90
58598 2022-03-25 21:34:51 Terrasse 14.00 14.06 99.90
58597 2022-03-25 21:06:43 Terrasse 14.40 14.50 99.90
58596 2022-03-25 20:38:33 Terrasse 14.80 14.94 99.90
58595 2022-03-25 20:10:15 Terrasse 15.10 15.27 99.90
58594 2022-03-25 19:42:00 Terrasse 15.60 15.82 99.90
58593 2022-03-25 19:13:46 Terrasse 16.20 16.48 99.90
58592 2022-03-25 18:45:33 Terrasse 16.90 17.25 99.90
58591 2022-03-25 18:17:21 Terrasse 17.90 18.35 99.90
58590 2022-03-25 17:49:09 Terrasse 18.90 19.45 99.90
58589 2022-03-25 17:20:58 Terrasse 20.00 20.66 99.90
58588 2022-03-25 16:52:46 Terrasse 21.30 22.09 99.90
58587 2022-03-25 16:24:35 Terrasse 22.50 23.41 99.90
58586 2022-03-25 15:56:22 Terrasse 23.30 24.29 99.90
58585 2022-03-25 15:28:08 Terrasse 24.20 25.28 99.90
58584 2022-03-25 14:59:54 Terrasse 24.80 25.94 99.90
58583 2022-03-25 14:31:40 Terrasse 25.10 25.63 99.90
58582 2022-03-25 14:03:28 Terrasse 25.90 28.09 99.90
58581 2022-03-25 13:35:25 Terrasse 27.40 34.23 99.90
58580 2022-03-25 13:07:06 Terrasse 27.80 35.63 99.90
58579 2022-03-25 12:39:05 Terrasse 27.20 33.55 99.90
58578 2022-03-25 12:10:38 Terrasse 27.60 34.93 99.90
58577 2022-03-25 11:41:40 Terrasse 23.30 24.29 99.90
58576 2022-03-25 11:13:09 Terrasse 19.00 19.56 99.90
58575 2022-03-25 10:44:45 Terrasse 18.00 18.46 99.90
58574 2022-03-25 10:16:14 Terrasse 16.60 16.92 99.90
58573 2022-03-25 09:47:47 Terrasse 14.90 15.05 99.90
58572 2022-03-25 09:19:22 Terrasse 13.80 13.84 99.90
58571 2022-03-25 08:50:59 Terrasse 12.70 12.63 99.90
58570 2022-03-25 08:22:34 Terrasse 11.70 11.53 99.90
58569 2022-03-25 07:54:23 Terrasse 10.90 10.65 99.90
58568 2022-03-25 07:26:00 Terrasse 10.30 9.99 99.90
58567 2022-03-25 06:57:44 Terrasse 10.20 9.88 99.90
58566 2022-03-25 06:29:27 Terrasse 10.40 10.10 99.90
58565 2022-03-25 06:01:12 Terrasse 10.50 10.21 99.90
58564 2022-03-25 05:32:56 Terrasse 10.70 10.43 99.90
58563 2022-03-25 05:04:41 Terrasse 10.80 10.54 99.90
58562 2022-03-25 04:36:23 Terrasse 10.90 10.65 99.90
58561 2022-03-25 04:08:07 Terrasse 11.00 10.76 99.90
58560 2022-03-25 03:39:50 Terrasse 11.20 10.98 99.90
58559 2022-03-25 03:11:35 Terrasse 11.30 11.09 99.90
58558 2022-03-25 02:43:16 Terrasse 11.30 11.09 99.90
58557 2022-03-25 02:15:00 Terrasse 11.40 11.20 99.90
58556 2022-03-25 01:46:44 Terrasse 11.40 11.20 99.90
58555 2022-03-25 01:18:29 Terrasse 11.70 11.53 99.90
58554 2022-03-25 00:50:14 Terrasse 12.10 11.97 99.90
58553 2022-03-25 00:21:58 Terrasse 12.40 12.30 99.90
58552 2022-03-24 23:53:42 Terrasse 12.70 12.63 99.90
58551 2022-03-24 23:25:26 Terrasse 12.80 12.74 99.90
58550 2022-03-24 22:57:12 Terrasse 13.00 12.96 99.90
58549 2022-03-24 22:28:57 Terrasse 13.50 13.51 99.90
58548 2022-03-24 22:00:43 Terrasse 14.00 14.06 99.90
58547 2022-03-24 21:32:27 Terrasse 14.40 14.50 99.90
58546 2022-03-24 21:04:12 Terrasse 14.70 14.83 99.90
58545 2022-03-24 20:35:57 Terrasse 15.20 15.38 99.90
58544 2022-03-24 20:07:42 Terrasse 15.30 15.49 99.90
58543 2022-03-24 19:39:27 Terrasse 15.50 15.71 99.90
58542 2022-03-24 19:11:12 Terrasse 15.90 16.15 99.90
58541 2022-03-24 18:43:00 Terrasse 17.20 17.58 99.90
58540 2022-03-24 18:14:47 Terrasse 18.00 18.46 99.90
58539 2022-03-24 17:46:35 Terrasse 19.00 19.56 99.90
58538 2022-03-24 17:18:25 Terrasse 20.20 20.88 99.90
58537 2022-03-24 16:50:15 Terrasse 21.50 22.31 99.90
58536 2022-03-24 16:22:02 Terrasse 22.50 23.41 99.90
58535 2022-03-24 15:53:48 Terrasse 23.00 23.96 99.90
58534 2022-03-24 15:25:33 Terrasse 24.00 25.06 99.90
58533 2022-03-24 14:57:18 Terrasse 24.50 25.61 99.90
58532 2022-03-24 14:29:10 Terrasse 26.00 28.41 99.90
58531 2022-03-24 14:00:48 Terrasse 26.00 28.41 99.90
58530 2022-03-24 13:32:29 Terrasse 27.20 33.55 99.90
58529 2022-03-24 13:03:56 Terrasse 25.80 27.77 99.90
58528 2022-03-24 12:35:46 Terrasse 24.80 25.94 99.90
58527 2022-03-24 12:07:33 Terrasse 25.20 25.93 99.90
58526 2022-03-24 11:38:31 Terrasse 21.10 21.87 99.90
58525 2022-03-24 11:10:03 Terrasse 17.80 18.24 99.90
58524 2022-03-24 10:41:38 Terrasse 16.60 16.92 99.90
58523 2022-03-24 10:13:00 Terrasse 14.70 12.25 1.00
58522 2022-03-24 09:44:34 Terrasse 12.80 10.16 1.00
58521 2022-03-24 09:16:09 Terrasse 11.50 8.73 1.00
58520 2022-03-24 08:47:46 Terrasse 10.60 7.74 1.00
58519 2022-03-24 08:19:24 Terrasse 9.70 6.75 1.00
58518 2022-03-24 07:51:03 Terrasse 9.00 5.98 1.00
58517 2022-03-24 07:22:44 Terrasse 8.40 7.90 99.90
58516 2022-03-24 06:54:27 Terrasse 8.30 7.79 99.90
58515 2022-03-24 06:26:13 Terrasse 8.40 7.90 99.90
58514 2022-03-24 05:57:58 Terrasse 8.50 8.01 99.90
58513 2022-03-24 05:29:44 Terrasse 8.90 8.45 99.90
58512 2022-03-24 05:01:29 Terrasse 9.10 8.67 99.90
58511 2022-03-24 04:33:13 Terrasse 9.40 9.00 99.90
58510 2022-03-24 04:04:58 Terrasse 9.50 9.11 99.90
58509 2022-03-24 03:36:44 Terrasse 9.60 9.22 99.90
58508 2022-03-24 03:08:28 Terrasse 9.80 9.44 99.90
58507 2022-03-24 02:40:13 Terrasse 10.10 9.77 99.90
58506 2022-03-24 02:11:59 Terrasse 10.50 10.21 99.90
58505 2022-03-24 01:43:44 Terrasse 10.80 10.54 99.90
58504 2022-03-24 01:15:30 Terrasse 11.20 10.98 99.90
58503 2022-03-24 00:47:17 Terrasse 11.50 11.31 99.90
58502 2022-03-24 00:19:01 Terrasse 11.60 11.42 99.90
58501 2022-03-23 23:50:47 Terrasse 11.90 11.75 99.90
58500 2022-03-23 23:22:31 Terrasse 12.00 11.86 99.90
58499 2022-03-23 22:54:17 Terrasse 12.10 11.97 99.90
58498 2022-03-23 22:26:04 Terrasse 12.30 12.19 99.90
58497 2022-03-23 21:57:50 Terrasse 12.70 12.63 99.90
58496 2022-03-23 21:29:36 Terrasse 13.00 12.96 99.90
58495 2022-03-23 21:01:22 Terrasse 13.40 13.40 99.90
58494 2022-03-23 20:33:10 Terrasse 13.90 13.95 99.90
58493 2022-03-23 20:04:56 Terrasse 14.40 14.50 99.90
58492 2022-03-23 19:36:43 Terrasse 15.00 15.16 99.90
58491 2022-03-23 19:08:32 Terrasse 15.90 16.15 99.90
58490 2022-03-23 18:40:22 Terrasse 17.10 17.47 99.90
58489 2022-03-23 18:12:10 Terrasse 18.20 18.68 99.90
58488 2022-03-23 17:44:07 Terrasse 19.10 19.67 99.90
58487 2022-03-23 17:15:53 Terrasse 20.00 20.66 99.90
58486 2022-03-23 16:47:42 Terrasse 21.20 21.98 99.90
58485 2022-03-23 16:19:30 Terrasse 22.40 23.30 99.90
58484 2022-03-23 15:51:16 Terrasse 23.10 24.07 99.90
58483 2022-03-23 15:23:02 Terrasse 24.10 25.17 99.90
58482 2022-03-23 14:54:47 Terrasse 24.40 25.50 99.90
58481 2022-03-23 14:26:46 Terrasse 25.70 27.45 99.90
58480 2022-03-23 13:58:22 Terrasse 25.00 25.34 99.90
58479 2022-03-23 13:30:20 Terrasse 26.40 29.74 99.90
58478 2022-03-23 13:01:48 Terrasse 26.70 31.92 99.90
58477 2022-03-23 12:33:56 Terrasse 26.60 30.42 99.90
58476 2022-03-23 12:05:23 Terrasse 26.80 32.24 99.90
58475 2022-03-23 11:36:10 Terrasse 20.60 21.32 99.90
58474 2022-03-23 11:07:42 Terrasse 16.30 16.59 99.90
58473 2022-03-23 10:39:19 Terrasse 15.20 15.38 99.90
58472 2022-03-23 10:10:43 Terrasse 13.30 13.29 99.90
58471 2022-03-23 09:42:19 Terrasse 12.00 11.86 99.90
58470 2022-03-23 09:13:56 Terrasse 10.70 10.43 99.90
58469 2022-03-23 08:45:32 Terrasse 9.50 9.11 99.90
58468 2022-03-23 08:17:08 Terrasse 8.20 7.68 99.90
58467 2022-03-23 07:48:48 Terrasse 7.50 6.91 99.90
58466 2022-03-23 07:20:29 Terrasse 7.10 6.47 99.90
58465 2022-03-23 06:52:12 Terrasse 7.00 6.36 99.90
58464 2022-03-23 06:23:58 Terrasse 7.10 6.47 99.90
58463 2022-03-23 05:55:43 Terrasse 7.20 6.58 99.90
58462 2022-03-23 05:27:28 Terrasse 7.40 6.80 99.90
58461 2022-03-23 04:59:13 Terrasse 7.50 6.91 99.90
58460 2022-03-23 04:30:59 Terrasse 7.80 7.24 99.90
58459 2022-03-23 04:02:46 Terrasse 8.00 7.46 99.90
58458 2022-03-23 03:34:31 Terrasse 8.30 7.79 99.90
58457 2022-03-23 03:06:15 Terrasse 8.50 8.01 99.90
58456 2022-03-23 02:38:00 Terrasse 8.70 8.23 99.90
58455 2022-03-23 02:09:45 Terrasse 8.90 8.45 99.90
58454 2022-03-23 01:41:30 Terrasse 9.20 8.78 99.90
58453 2022-03-23 01:13:16 Terrasse 9.60 9.22 99.90
58452 2022-03-23 00:45:01 Terrasse 9.70 9.33 99.90
58451 2022-03-23 00:16:46 Terrasse 9.90 9.55 99.90
58450 2022-03-22 23:48:32 Terrasse 10.30 9.99 99.90
58449 2022-03-22 23:20:18 Terrasse 10.70 10.43 99.90
58448 2022-03-22 22:52:04 Terrasse 10.90 10.65 99.90
58447 2022-03-22 22:23:49 Terrasse 11.20 10.98 99.90
58446 2022-03-22 21:55:45 Terrasse 11.60 11.42 99.90
58445 2022-03-22 21:27:27 Terrasse 11.90 11.75 99.90
58444 2022-03-22 20:59:13 Terrasse 12.20 12.08 99.90
58443 2022-03-22 20:31:00 Terrasse 12.70 12.63 99.90
58442 2022-03-22 20:02:46 Terrasse 13.20 13.18 99.90
58441 2022-03-22 19:34:32 Terrasse 13.90 13.95 99.90
58440 2022-03-22 19:06:21 Terrasse 14.80 14.94 99.90
58439 2022-03-22 18:38:10 Terrasse 16.00 16.26 99.90
58438 2022-03-22 18:09:58 Terrasse 17.10 17.47 99.90
58437 2022-03-22 17:41:45 Terrasse 18.00 18.46 99.90
58436 2022-03-22 17:13:35 Terrasse 19.10 19.67 99.90
58435 2022-03-22 16:45:24 Terrasse 20.40 21.10 99.90
58434 2022-03-22 16:17:10 Terrasse 21.40 22.20 99.90
58433 2022-03-22 15:48:55 Terrasse 22.10 22.97 99.90
58432 2022-03-22 15:20:39 Terrasse 22.90 23.85 99.90
58431 2022-03-22 14:52:27 Terrasse 23.30 24.29 99.90
58430 2022-03-22 14:24:37 Terrasse 26.10 28.74 99.90
58429 2022-03-22 13:56:06 Terrasse 23.90 24.95 99.90
58428 2022-03-22 13:28:01 Terrasse 24.60 25.72 99.90
58427 2022-03-22 12:59:33 Terrasse 25.30 26.22 99.90
58426 2022-03-22 12:31:43 Terrasse 25.60 27.14 99.90
58425 2022-03-22 12:03:06 Terrasse 24.60 25.72 99.90
58424 2022-03-22 11:33:53 Terrasse 18.60 19.12 99.90
58423 2022-03-22 11:05:33 Terrasse 15.40 15.60 99.90
58422 2022-03-22 10:37:11 Terrasse 14.50 14.61 99.90
58421 2022-03-22 10:08:33 Terrasse 12.40 12.30 99.90
58420 2022-03-22 09:40:10 Terrasse 11.10 10.87 99.90
58419 2022-03-22 09:11:47 Terrasse 10.00 7.08 1.00
58418 2022-03-22 08:43:25 Terrasse 9.10 6.09 1.00
58417 2022-03-22 08:15:01 Terrasse 8.10 4.99 1.00
58416 2022-03-22 07:46:40 Terrasse 7.30 4.11 1.00
58415 2022-03-22 07:18:22 Terrasse 6.40 3.12 1.00
58414 2022-03-22 06:50:07 Terrasse 6.60 3.34 1.00
58413 2022-03-22 06:21:52 Terrasse 6.60 5.92 99.90
58412 2022-03-22 05:53:37 Terrasse 6.90 6.25 99.90
58411 2022-03-22 05:25:23 Terrasse 7.20 6.58 99.90
58410 2022-03-22 04:57:08 Terrasse 7.40 6.80 99.90
58409 2022-03-22 04:28:53 Terrasse 7.70 7.13 99.90
58408 2022-03-22 04:00:38 Terrasse 8.00 7.46 99.90
58407 2022-03-22 03:32:23 Terrasse 8.10 7.57 99.90
58406 2022-03-22 03:04:07 Terrasse 8.40 7.90 99.90
58405 2022-03-22 02:35:54 Terrasse 8.80 8.34 99.90
58404 2022-03-22 02:07:39 Terrasse 9.00 8.56 99.90
58403 2022-03-22 01:39:24 Terrasse 9.10 8.67 99.90
58402 2022-03-22 01:11:11 Terrasse 9.40 9.00 99.90
58401 2022-03-22 00:42:55 Terrasse 9.80 9.44 99.90
58400 2022-03-22 00:14:39 Terrasse 10.00 9.66 99.90
58399 2022-03-21 23:46:25 Terrasse 10.20 9.88 99.90
58398 2022-03-21 23:18:13 Terrasse 10.40 10.10 99.90
58397 2022-03-21 22:49:58 Terrasse 10.60 10.32 99.90
58396 2022-03-21 22:21:43 Terrasse 10.90 10.65 99.90
58395 2022-03-21 21:53:28 Terrasse 11.30 11.09 99.90
58394 2022-03-21 21:25:13 Terrasse 11.60 11.42 99.90
58393 2022-03-21 20:56:58 Terrasse 11.90 11.75 99.90
58392 2022-03-21 20:28:45 Terrasse 12.40 12.30 99.90
58391 2022-03-21 20:00:30 Terrasse 12.80 12.74 99.90
58390 2022-03-21 19:32:17 Terrasse 13.20 13.18 99.90
58389 2022-03-21 19:04:04 Terrasse 13.90 13.95 99.90
58388 2022-03-21 18:35:51 Terrasse 14.70 14.83 99.90
58387 2022-03-21 18:07:40 Terrasse 15.70 15.93 99.90
58386 2022-03-21 17:39:27 Terrasse 16.50 16.81 99.90
58385 2022-03-21 17:11:14 Terrasse 17.20 17.58 99.90
58384 2022-03-21 16:43:03 Terrasse 18.10 18.57 99.90
58383 2022-03-21 16:14:51 Terrasse 19.40 20.00 99.90
58382 2022-03-21 15:46:42 Terrasse 20.80 21.54 99.90
58381 2022-03-21 15:18:28 Terrasse 21.90 22.75 99.90
58380 2022-03-21 14:50:11 Terrasse 22.60 23.52 99.90
58379 2022-03-21 14:22:00 Terrasse 23.30 24.29 99.90
58378 2022-03-21 13:53:45 Terrasse 22.50 23.41 99.90
58377 2022-03-21 13:25:39 Terrasse 22.90 23.85 99.90
58376 2022-03-21 12:57:07 Terrasse 23.10 24.07 99.90
58375 2022-03-21 12:29:07 Terrasse 22.90 23.85 99.90
58374 2022-03-21 12:00:24 Terrasse 21.20 19.40 1.00
58373 2022-03-21 11:31:22 Terrasse 16.60 14.34 1.00
58372 2022-03-21 11:03:00 Terrasse 14.30 11.81 1.00
58371 2022-03-21 10:34:38 Terrasse 13.20 10.60 1.00
58370 2022-03-21 10:06:03 Terrasse 11.40 8.62 1.00
58369 2022-03-21 09:37:39 Terrasse 9.90 6.97 1.00
58368 2022-03-21 09:09:16 Terrasse 8.90 5.87 1.00
58367 2022-03-21 08:40:55 Terrasse 8.20 5.10 1.00
58366 2022-03-21 08:12:35 Terrasse 7.60 4.44 1.00
58365 2022-03-21 07:44:14 Terrasse 7.10 3.89 1.00
58364 2022-03-21 07:15:56 Terrasse 6.70 3.45 1.00
58363 2022-03-21 06:47:38 Terrasse 6.50 3.23 1.00
58362 2022-03-21 06:19:24 Terrasse 6.50 3.23 1.00
58361 2022-03-21 05:51:10 Terrasse 6.80 3.56 1.00
58360 2022-03-21 05:22:56 Terrasse 6.90 3.67 1.00
58359 2022-03-21 04:54:41 Terrasse 7.20 4.00 1.00
58358 2022-03-21 04:26:26 Terrasse 7.60 4.44 1.00
58357 2022-03-21 03:58:12 Terrasse 7.70 4.55 1.00
58356 2022-03-21 03:29:58 Terrasse 8.00 4.88 1.00
58355 2022-03-21 03:01:42 Terrasse 8.20 5.10 1.00
58354 2022-03-21 02:33:26 Terrasse 8.40 5.32 1.00
58353 2022-03-21 02:05:12 Terrasse 8.70 5.65 1.00
58352 2022-03-21 01:36:55 Terrasse 8.70 5.65 1.00
58351 2022-03-21 01:08:41 Terrasse 8.80 5.76 1.00
58350 2022-03-21 00:40:24 Terrasse 9.00 5.98 1.00
58349 2022-03-21 00:12:10 Terrasse 9.30 6.31 1.00
58348 2022-03-20 23:43:55 Terrasse 9.60 6.64 1.00
58347 2022-03-20 23:15:40 Terrasse 9.80 6.86 1.00
58346 2022-03-20 22:47:25 Terrasse 10.20 7.30 1.00
58345 2022-03-20 22:19:20 Terrasse 10.50 7.63 1.00
58344 2022-03-20 21:51:02 Terrasse 10.70 7.85 1.00
58343 2022-03-20 21:22:48 Terrasse 11.00 8.18 1.00
58342 2022-03-20 20:54:31 Terrasse 11.20 8.40 1.00
58341 2022-03-20 20:26:15 Terrasse 11.40 8.79 7.60
58340 2022-03-20 19:58:12 Terrasse 11.40 10.24 62.80
58339 2022-03-20 19:30:06 Terrasse 12.00 9.39 5.00
58338 2022-03-20 19:01:59 Terrasse 12.80 10.16 1.00
58337 2022-03-20 18:33:51 Terrasse 13.50 10.93 1.00
58336 2022-03-20 18:05:37 Terrasse 14.60 12.14 1.00
58335 2022-03-20 17:37:25 Terrasse 15.40 13.02 1.00
58334 2022-03-20 17:09:13 Terrasse 16.20 13.90 1.00
58333 2022-03-20 16:40:59 Terrasse 17.40 15.22 1.00
58332 2022-03-20 16:12:44 Terrasse 18.00 15.88 1.00
58331 2022-03-20 15:44:29 Terrasse 18.20 16.10 1.00
58330 2022-03-20 15:16:14 Terrasse 18.90 16.87 1.00
58329 2022-03-20 14:48:01 Terrasse 19.10 17.09 1.00
58328 2022-03-20 14:19:42 Terrasse 19.40 17.42 1.00
58327 2022-03-20 13:51:05 Terrasse 15.70 13.35 1.00
58326 2022-03-20 13:22:51 Terrasse 14.60 12.14 1.00
58325 2022-03-20 12:54:49 Terrasse 17.00 14.78 1.00
58324 2022-03-20 12:26:50 Terrasse 19.50 17.53 1.00
58323 2022-03-20 11:57:58 Terrasse 14.20 11.70 1.00
58322 2022-03-20 11:29:48 Terrasse 13.50 10.93 1.00
58321 2022-03-20 11:01:22 Terrasse 12.50 9.83 1.00
58320 2022-03-20 10:33:01 Terrasse 11.60 8.84 1.00
58319 2022-03-20 10:04:30 Terrasse 9.40 6.42 1.00
58318 2022-03-20 09:36:12 Terrasse 8.10 4.99 1.00
58317 2022-03-20 09:07:47 Terrasse 6.80 3.56 1.00
58316 2022-03-20 08:39:29 Terrasse 6.40 3.12 1.00
58315 2022-03-20 08:11:14 Terrasse 6.20 2.90 1.00
58314 2022-03-20 07:42:56 Terrasse 5.70 2.35 1.00
58313 2022-03-20 07:14:40 Terrasse 5.50 2.13 1.00
58312 2022-03-20 06:46:25 Terrasse 5.40 2.02 1.00
58311 2022-03-20 06:18:10 Terrasse 5.30 1.91 1.00
58310 2022-03-20 05:49:54 Terrasse 5.30 1.91 1.00
58309 2022-03-20 05:21:39 Terrasse 5.30 1.91 1.00
58308 2022-03-20 04:53:25 Terrasse 5.40 2.02 1.00
58307 2022-03-20 04:25:11 Terrasse 5.40 2.02 1.00
58306 2022-03-20 03:56:56 Terrasse 5.40 2.02 1.00
58305 2022-03-20 03:28:41 Terrasse 5.60 2.24 1.00
58304 2022-03-20 03:00:25 Terrasse 5.70 2.35 1.00
58303 2022-03-20 02:32:10 Terrasse 5.80 2.46 1.00
58302 2022-03-20 02:03:55 Terrasse 5.90 2.57 1.00
58301 2022-03-20 01:35:39 Terrasse 5.90 2.57 1.00
58300 2022-03-20 01:07:25 Terrasse 6.10 2.79 1.00
58299 2022-03-20 00:39:11 Terrasse 6.20 2.90 1.00
58298 2022-03-20 00:10:56 Terrasse 6.40 3.12 1.00
58297 2022-03-19 23:42:43 Terrasse 6.70 3.45 1.00
58296 2022-03-19 23:14:30 Terrasse 6.90 3.67 1.00
58295 2022-03-19 22:46:16 Terrasse 7.20 4.00 1.00
58294 2022-03-19 22:18:02 Terrasse 7.60 4.44 1.00
58293 2022-03-19 21:49:50 Terrasse 7.90 4.77 1.00
58292 2022-03-19 21:21:36 Terrasse 8.20 5.10 1.00
58291 2022-03-19 20:53:23 Terrasse 8.70 8.23 99.90
58290 2022-03-19 20:25:08 Terrasse 9.00 8.56 99.90
58289 2022-03-19 19:56:54 Terrasse 9.30 8.89 99.90
58288 2022-03-19 19:28:41 Terrasse 9.70 9.33 99.90
58287 2022-03-19 19:00:28 Terrasse 10.10 9.77 99.90
58286 2022-03-19 18:32:16 Terrasse 10.60 10.32 99.90
58285 2022-03-19 18:04:05 Terrasse 11.50 11.31 99.90
58284 2022-03-19 17:35:54 Terrasse 12.50 12.41 99.90
58283 2022-03-19 17:07:47 Terrasse 14.20 14.28 99.90
58282 2022-03-19 16:39:39 Terrasse 16.20 16.48 99.90
58281 2022-03-19 16:11:25 Terrasse 17.30 17.69 99.90
58280 2022-03-19 15:43:17 Terrasse 18.80 19.34 99.90
58279 2022-03-19 15:15:01 Terrasse 19.50 20.11 99.90
58278 2022-03-19 14:46:59 Terrasse 20.70 21.43 99.90
58277 2022-03-19 14:18:39 Terrasse 22.00 22.86 99.90
58276 2022-03-19 13:50:27 Terrasse 20.30 20.99 99.90
58275 2022-03-19 13:22:28 Terrasse 21.90 22.75 99.90
58274 2022-03-19 12:53:46 Terrasse 22.10 22.97 99.90
58273 2022-03-19 12:25:55 Terrasse 23.30 24.29 99.90
58272 2022-03-19 11:57:00 Terrasse 20.90 19.07 1.00
58271 2022-03-19 11:27:57 Terrasse 15.10 12.69 1.00
58270 2022-03-19 10:59:39 Terrasse 13.30 10.71 1.00
58269 2022-03-19 10:31:20 Terrasse 12.60 9.94 1.00
58268 2022-03-19 10:02:45 Terrasse 10.60 7.74 1.00
58267 2022-03-19 09:34:20 Terrasse 9.50 6.53 1.00
58266 2022-03-19 09:05:59 Terrasse 8.60 8.12 99.90
58265 2022-03-19 08:37:37 Terrasse 7.70 4.55 1.00
58264 2022-03-19 08:09:16 Terrasse 7.20 4.00 1.00
58263 2022-03-19 07:40:57 Terrasse 6.70 3.45 1.00
58262 2022-03-19 07:12:40 Terrasse 6.50 5.81 99.90
58261 2022-03-19 06:44:23 Terrasse 6.40 3.12 1.00
58260 2022-03-19 06:16:08 Terrasse 6.50 3.23 1.00
58259 2022-03-19 05:47:57 Terrasse 6.60 3.34 1.00
58258 2022-03-19 05:19:42 Terrasse 6.80 3.56 1.00
58257 2022-03-19 04:51:26 Terrasse 6.90 3.67 1.00
58256 2022-03-19 04:23:50 Terrasse 7.00 3.78 1.00
58255 2022-03-19 03:55:13 Terrasse 7.20 4.00 1.00
58254 2022-03-19 03:27:18 Terrasse 7.20 4.00 1.00
58253 2022-03-19 02:59:48 Terrasse 7.40 4.22 1.00
58252 2022-03-19 02:31:11 Terrasse 7.50 4.33 1.00
58251 2022-03-19 02:03:28 Terrasse 7.60 4.44 1.00
58250 2022-03-19 01:34:56 Terrasse 7.70 4.55 1.00
58249 2022-03-19 01:07:00 Terrasse 7.80 4.66 1.00
58248 2022-03-19 00:38:42 Terrasse 8.10 4.99 1.00
58247 2022-03-19 00:10:26 Terrasse 8.20 5.10 1.00
58246 2022-03-18 23:42:12 Terrasse 8.40 5.32 1.00
58245 2022-03-18 23:13:58 Terrasse 8.70 5.65 1.00
58244 2022-03-18 22:45:43 Terrasse 9.00 5.98 1.00
58243 2022-03-18 22:17:30 Terrasse 9.30 6.31 1.00
58242 2022-03-18 21:49:15 Terrasse 9.50 6.53 1.00
58241 2022-03-18 21:21:00 Terrasse 9.80 6.86 1.00
58240 2022-03-18 20:52:46 Terrasse 10.30 7.41 1.00
58239 2022-03-18 20:24:31 Terrasse 10.60 7.74 1.00
58238 2022-03-18 19:56:15 Terrasse 11.10 8.29 1.00
58237 2022-03-18 19:28:02 Terrasse 11.60 8.84 1.00
58236 2022-03-18 18:59:50 Terrasse 12.10 9.39 1.00
58235 2022-03-18 18:31:37 Terrasse 12.80 10.16 1.00
58234 2022-03-18 18:03:26 Terrasse 13.80 11.26 1.00
58233 2022-03-18 17:35:15 Terrasse 14.80 12.36 1.00
58232 2022-03-18 17:07:06 Terrasse 16.20 13.90 1.00
58231 2022-03-18 16:39:03 Terrasse 18.80 16.76 1.00
58230 2022-03-18 16:10:48 Terrasse 19.70 17.75 1.00
58229 2022-03-18 15:42:34 Terrasse 20.70 18.85 1.00
58228 2022-03-18 15:14:20 Terrasse 21.80 20.06 1.00
58227 2022-03-18 14:46:13 Terrasse 22.30 20.61 1.00
58226 2022-03-18 14:17:46 Terrasse 22.60 20.94 1.00
58225 2022-03-18 13:49:32 Terrasse 20.90 19.07 1.00
58224 2022-03-18 13:21:31 Terrasse 21.60 19.84 1.00
58223 2022-03-18 12:52:52 Terrasse 21.60 19.84 1.00
58222 2022-03-18 12:24:51 Terrasse 22.30 20.61 1.00
58221 2022-03-18 11:55:52 Terrasse 18.90 16.87 1.00
58220 2022-03-18 11:26:53 Terrasse 13.50 10.93 1.00
58219 2022-03-18 10:58:26 Terrasse 11.00 8.18 1.00
58218 2022-03-18 10:30:00 Terrasse 9.20 8.78 99.90
58217 2022-03-18 10:01:36 Terrasse 8.10 4.99 1.00
58216 2022-03-18 09:33:15 Terrasse 7.70 5.56 39.80
58215 2022-03-18 09:04:53 Terrasse 6.90 6.25 99.90
58214 2022-03-18 08:36:33 Terrasse 6.20 2.90 1.00
58213 2022-03-18 08:08:15 Terrasse 5.80 2.46 1.00
58212 2022-03-18 07:39:58 Terrasse 5.50 2.13 1.00
58211 2022-03-18 07:11:41 Terrasse 5.40 4.60 99.90
58210 2022-03-18 06:43:25 Terrasse 5.40 2.02 1.00
58209 2022-03-18 06:15:10 Terrasse 5.50 4.71 99.90
58208 2022-03-18 05:46:53 Terrasse 5.60 4.82 99.90
58207 2022-03-18 03:44:57 Terrasse 6.10 5.37 99.90
58206 2022-03-18 03:17:53 Terrasse 6.20 5.48 99.90
58205 2022-03-18 02:46:37 Terrasse 6.30 3.01 1.00
58204 2022-03-18 01:47:10 Terrasse 6.40 3.12 1.00
58203 2022-03-18 01:18:54 Terrasse 6.50 5.81 99.90
58202 2022-03-18 00:50:38 Terrasse 6.60 3.34 1.00
58201 2022-03-17 23:51:59 Terrasse 6.70 6.03 99.90
58200 2022-03-17 23:23:14 Terrasse 6.80 6.14 99.90
58199 2022-03-17 22:55:02 Terrasse 6.90 6.25 99.90
58198 2022-03-17 22:26:57 Terrasse 7.10 3.89 1.00
58197 2022-03-17 21:58:37 Terrasse 7.20 6.58 99.90
58196 2022-03-17 21:30:22 Terrasse 7.30 6.69 99.90
58195 2022-03-17 21:02:13 Terrasse 7.50 6.91 99.90
58194 2022-03-17 20:33:56 Terrasse 7.70 4.55 1.00
58193 2022-03-17 20:05:40 Terrasse 7.90 7.35 99.90
58192 2022-03-17 19:37:24 Terrasse 8.00 4.88 1.00
58191 2022-03-17 19:09:09 Terrasse 8.30 7.79 99.90
58190 2022-03-17 18:40:55 Terrasse 8.50 5.43 1.00
58189 2022-03-17 18:12:41 Terrasse 8.90 8.45 99.90
58188 2022-03-17 17:44:38 Terrasse 9.20 8.78 99.90
58187 2022-03-17 17:16:19 Terrasse 9.40 9.00 99.90
58186 2022-03-17 16:48:05 Terrasse 9.70 9.33 99.90
58185 2022-03-17 16:19:49 Terrasse 10.00 9.66 99.90
58184 2022-03-17 15:51:31 Terrasse 10.00 9.46 92.20
58183 2022-03-17 15:23:11 Terrasse 9.50 9.11 99.90
58182 2022-03-17 14:54:52 Terrasse 9.10 7.14 41.30
58181 2022-03-17 14:26:34 Terrasse 8.70 8.23 99.90
58180 2022-03-17 13:58:18 Terrasse 8.70 8.23 99.90
58179 2022-03-17 13:30:03 Terrasse 8.80 8.34 99.90
58178 2022-03-17 13:01:47 Terrasse 9.00 8.56 99.90
58177 2022-03-17 12:33:32 Terrasse 9.40 9.00 99.90
58176 2022-03-17 12:05:18 Terrasse 9.60 6.64 1.00
58175 2022-03-17 11:37:03 Terrasse 9.80 9.44 99.90
58174 2022-03-17 11:08:47 Terrasse 10.10 9.77 99.90
58173 2022-03-17 10:40:29 Terrasse 9.50 9.11 99.90
58172 2022-03-17 10:12:13 Terrasse 9.50 6.53 1.00
58171 2022-03-17 09:43:54 Terrasse 9.30 8.89 99.90
58170 2022-03-17 09:15:36 Terrasse 9.10 6.09 1.00
58169 2022-03-17 08:47:17 Terrasse 8.90 5.87 1.00
58168 2022-03-17 08:18:59 Terrasse 8.70 5.65 1.00
58167 2022-03-17 07:50:41 Terrasse 8.50 5.43 1.00
58166 2022-03-17 07:22:25 Terrasse 8.40 5.32 1.00
58165 2022-03-17 06:54:08 Terrasse 8.40 7.90 99.90
58164 2022-03-17 06:25:52 Terrasse 8.40 5.32 1.00
58163 2022-03-17 05:58:19 Terrasse 8.50 8.01 99.90
58162 2022-03-17 05:29:36 Terrasse 8.60 5.64 4.80
58161 2022-03-17 05:01:23 Terrasse 8.70 7.70 79.40
58160 2022-03-17 04:33:08 Terrasse 8.80 5.76 1.00
58159 2022-03-17 04:04:53 Terrasse 8.80 8.34 99.90
58158 2022-03-17 03:36:38 Terrasse 8.90 8.45 99.90
58157 2022-03-17 03:08:22 Terrasse 9.00 5.98 1.00
58156 2022-03-17 02:40:08 Terrasse 9.10 6.09 1.00
58155 2022-03-17 02:11:52 Terrasse 9.20 6.20 1.00
58154 2022-03-17 01:43:37 Terrasse 9.30 6.31 1.00
58153 2022-03-17 00:47:14 Terrasse 9.40 9.00 99.90
58152 2022-03-17 00:18:58 Terrasse 9.50 6.53 1.00
58151 2022-03-16 23:50:43 Terrasse 9.50 6.53 1.00
58150 2022-03-16 23:22:28 Terrasse 9.70 6.75 1.00
58149 2022-03-16 22:54:13 Terrasse 9.80 6.86 1.00
58148 2022-03-16 22:25:58 Terrasse 9.90 9.55 99.90
58147 2022-03-16 21:57:41 Terrasse 10.00 9.66 99.90
58146 2022-03-16 21:29:26 Terrasse 10.20 7.30 1.00
58145 2022-03-16 21:01:11 Terrasse 10.30 7.41 1.00
58144 2022-03-16 20:32:55 Terrasse 10.50 7.63 1.00
58143 2022-03-16 20:04:40 Terrasse 10.60 10.13 92.30
58142 2022-03-16 19:36:26 Terrasse 10.80 7.96 1.00
58141 2022-03-16 19:08:11 Terrasse 11.00 8.18 1.00
58140 2022-03-16 18:39:55 Terrasse 11.30 8.51 1.00
58139 2022-03-16 18:11:42 Terrasse 11.60 11.42 99.90
58138 2022-03-16 17:43:29 Terrasse 12.10 11.97 99.90
58137 2022-03-16 17:15:16 Terrasse 12.50 12.41 99.90
58136 2022-03-16 16:47:03 Terrasse 12.90 12.85 99.90
58135 2022-03-16 16:18:50 Terrasse 13.30 13.29 99.90
58134 2022-03-16 15:50:36 Terrasse 13.70 11.15 1.00
58133 2022-03-16 15:22:23 Terrasse 14.10 11.59 1.00
58132 2022-03-16 14:54:17 Terrasse 15.50 15.71 99.90
58131 2022-03-16 14:26:10 Terrasse 16.70 16.89 94.50
58130 2022-03-16 13:57:47 Terrasse 18.00 15.88 1.00
58129 2022-03-16 13:29:22 Terrasse 15.90 16.15 99.90
58128 2022-03-16 13:01:15 Terrasse 18.20 16.10 1.00
58127 2022-03-16 12:33:08 Terrasse 17.70 15.55 1.00
58126 2022-03-16 12:04:39 Terrasse 17.00 17.36 99.90
58125 2022-03-16 11:35:52 Terrasse 14.30 14.33 97.50
58124 2022-03-16 11:07:26 Terrasse 11.30 11.09 99.90
58123 2022-03-16 10:39:01 Terrasse 10.10 9.77 99.90
58122 2022-03-16 10:10:32 Terrasse 9.10 8.67 99.90
58121 2022-03-16 09:42:11 Terrasse 8.30 7.79 99.90
58120 2022-03-16 09:13:48 Terrasse 7.20 6.58 99.90
58119 2022-03-16 08:45:28 Terrasse 6.40 5.70 99.90
58118 2022-03-16 08:17:08 Terrasse 5.80 5.04 99.90
58117 2022-03-16 07:48:49 Terrasse 5.10 4.27 99.90
58116 2022-03-16 07:20:32 Terrasse 4.60 3.72 99.90
58115 2022-03-16 06:52:18 Terrasse 4.50 3.61 99.90
58114 2022-03-16 06:24:02 Terrasse 4.50 3.61 99.90
58113 2022-03-16 05:55:47 Terrasse 4.50 3.61 99.90
58112 2022-03-16 05:27:32 Terrasse 4.50 3.61 99.90
58111 2022-03-16 04:59:17 Terrasse 4.70 3.83 99.90
58110 2022-03-16 04:31:02 Terrasse 4.70 3.83 99.90
58109 2022-03-16 04:02:49 Terrasse 5.00 4.16 99.90
58108 2022-03-16 03:34:34 Terrasse 5.10 4.27 99.90
58107 2022-03-16 03:06:20 Terrasse 5.10 4.27 99.90
58106 2022-03-16 02:38:05 Terrasse 5.20 4.38 99.90
58105 2022-03-16 02:09:50 Terrasse 5.30 4.49 99.90
58104 2022-03-16 01:41:35 Terrasse 5.30 4.49 99.90
58103 2022-03-16 01:13:20 Terrasse 5.20 4.38 99.90
58102 2022-03-16 00:45:04 Terrasse 5.20 4.38 99.90
58101 2022-03-16 00:16:49 Terrasse 5.20 4.38 99.90
58100 2022-03-15 23:48:34 Terrasse 5.40 4.60 99.90
58099 2022-03-15 23:20:20 Terrasse 5.70 4.93 99.90
58098 2022-03-15 22:52:04 Terrasse 6.00 5.26 99.90
58097 2022-03-15 22:23:49 Terrasse 6.20 5.48 99.90
58096 2022-03-15 21:55:36 Terrasse 6.50 5.81 99.90
58095 2022-03-15 21:27:20 Terrasse 6.60 5.92 99.90
58094 2022-03-15 20:59:04 Terrasse 6.60 5.92 99.90
58093 2022-03-15 20:30:48 Terrasse 6.80 6.14 99.90
58092 2022-03-15 20:02:33 Terrasse 6.80 6.14 99.90
58091 2022-03-15 19:34:18 Terrasse 6.90 6.25 99.90
58090 2022-03-15 19:06:02 Terrasse 7.00 6.36 99.90
58089 2022-03-15 18:37:47 Terrasse 7.10 6.47 99.90
58088 2022-03-15 18:09:33 Terrasse 7.20 6.58 99.90
58087 2022-03-15 17:41:18 Terrasse 7.40 6.80 99.90
58086 2022-03-15 17:13:03 Terrasse 7.60 7.02 99.90
58085 2022-03-15 16:44:46 Terrasse 7.50 6.91 99.90
58084 2022-03-15 16:16:30 Terrasse 7.30 6.69 99.90
58083 2022-03-15 15:48:15 Terrasse 7.50 6.91 99.90
58082 2022-03-15 15:20:00 Terrasse 7.60 7.02 99.90
58081 2022-03-15 14:51:43 Terrasse 7.60 7.02 99.90
58080 2022-03-15 14:23:29 Terrasse 7.60 7.02 99.90
58079 2022-03-15 13:55:15 Terrasse 7.80 7.24 99.90
58078 2022-03-15 13:27:00 Terrasse 8.00 7.46 99.90
58077 2022-03-15 12:58:46 Terrasse 8.00 7.46 99.90
58076 2022-03-15 12:30:32 Terrasse 8.20 7.68 99.90
58075 2022-03-15 12:02:17 Terrasse 8.40 7.90 99.90
58074 2022-03-15 11:34:01 Terrasse 8.50 8.01 99.90
58073 2022-03-15 11:05:46 Terrasse 8.80 8.34 99.90
58072 2022-03-15 10:37:31 Terrasse 8.80 8.34 99.90
58071 2022-03-15 10:09:16 Terrasse 8.80 8.34 99.90
58070 2022-03-15 09:40:57 Terrasse 8.60 8.12 99.90
58069 2022-03-15 09:12:40 Terrasse 8.40 7.90 99.90
58068 2022-03-15 08:44:21 Terrasse 8.10 7.57 99.90
58067 2022-03-15 08:16:04 Terrasse 7.60 7.02 99.90
58066 2022-03-15 07:47:47 Terrasse 7.30 6.69 99.90
58065 2022-03-15 07:19:31 Terrasse 7.00 6.36 99.90
58064 2022-03-15 06:51:15 Terrasse 7.00 6.36 99.90
58063 2022-03-15 06:23:00 Terrasse 7.00 6.36 99.90
58062 2022-03-15 05:54:54 Terrasse 7.00 6.36 99.90
58061 2022-03-15 05:26:36 Terrasse 7.10 6.47 99.90
58060 2022-03-15 04:58:20 Terrasse 7.00 6.36 99.90
58059 2022-03-15 04:30:03 Terrasse 7.00 6.36 99.90
58058 2022-03-15 04:01:47 Terrasse 6.90 6.25 99.90
58057 2022-03-15 03:33:32 Terrasse 6.90 6.25 99.90
58056 2022-03-15 03:05:16 Terrasse 6.90 6.25 99.90
58055 2022-03-15 02:37:00 Terrasse 6.90 6.25 99.90
58054 2022-03-15 02:08:46 Terrasse 6.80 6.14 99.90
58053 2022-03-15 01:40:30 Terrasse 6.80 6.14 99.90
58052 2022-03-15 01:12:14 Terrasse 6.80 6.14 99.90
58051 2022-03-15 00:43:58 Terrasse 6.90 6.25 99.90
58050 2022-03-15 00:15:43 Terrasse 6.90 6.25 99.90
58049 2022-03-14 23:47:29 Terrasse 7.00 6.36 99.90
58048 2022-03-14 23:19:14 Terrasse 7.10 6.47 99.90
58047 2022-03-14 22:50:59 Terrasse 7.20 6.58 99.90
58046 2022-03-14 22:22:45 Terrasse 7.30 6.69 99.90
58045 2022-03-14 21:54:31 Terrasse 7.40 6.80 99.90
58044 2022-03-14 21:26:17 Terrasse 7.60 7.02 99.90
58043 2022-03-14 20:58:04 Terrasse 7.90 7.35 99.90
58042 2022-03-14 20:29:51 Terrasse 8.20 7.68 99.90
58041 2022-03-14 20:01:38 Terrasse 8.50 8.01 99.90
58040 2022-03-14 19:33:25 Terrasse 8.90 8.35 96.00
58039 2022-03-14 19:05:12 Terrasse 9.40 8.70 88.10
58038 2022-03-14 18:37:02 Terrasse 10.20 9.27 76.20
58037 2022-03-14 18:08:49 Terrasse 11.00 9.92 67.70
58036 2022-03-14 17:40:37 Terrasse 11.50 10.35 63.10
58035 2022-03-14 17:12:24 Terrasse 12.20 11.04 60.10
58034 2022-03-14 16:44:02 Terrasse 12.10 11.00 62.70
58033 2022-03-14 16:15:44 Terrasse 11.90 10.89 66.80
58032 2022-03-14 15:47:27 Terrasse 11.50 10.53 69.80
58031 2022-03-14 15:19:09 Terrasse 11.30 10.33 70.50
58030 2022-03-14 14:50:55 Terrasse 11.60 10.61 68.70
58029 2022-03-14 14:22:34 Terrasse 11.20 10.28 72.90
58028 2022-03-14 13:54:18 Terrasse 10.80 9.90 75.20
58027 2022-03-14 13:26:07 Terrasse 11.40 10.54 74.40
58026 2022-03-14 12:57:55 Terrasse 12.50 11.82 77.30
58025 2022-03-14 12:29:39 Terrasse 11.80 11.39 90.20
58024 2022-03-14 12:01:47 Terrasse 14.50 13.94 74.10
58023 2022-03-14 11:32:57 Terrasse 10.70 10.43 99.90
58022 2022-03-14 11:04:39 Terrasse 9.60 9.22 99.90
58021 2022-03-14 10:36:20 Terrasse 9.30 8.89 99.90
58020 2022-03-14 10:08:01 Terrasse 8.60 8.12 99.90
58019 2022-03-14 09:39:46 Terrasse 8.60 8.12 99.90
58018 2022-03-14 09:11:29 Terrasse 8.30 7.79 99.90
58017 2022-03-14 08:43:14 Terrasse 8.30 7.79 99.90
58016 2022-03-14 08:14:58 Terrasse 8.50 8.01 99.90
58015 2022-03-14 07:46:41 Terrasse 8.40 7.90 99.90
58014 2022-03-14 07:18:27 Terrasse 8.40 7.90 99.90
58013 2022-03-14 06:50:12 Terrasse 8.50 8.01 99.90
58012 2022-03-14 06:21:58 Terrasse 8.60 8.12 99.90
58011 2022-03-14 05:53:44 Terrasse 8.70 8.23 99.90
58010 2022-03-14 05:25:30 Terrasse 8.80 8.34 99.90
58009 2022-03-14 04:57:15 Terrasse 9.10 7.78 65.80
58008 2022-03-14 04:29:01 Terrasse 9.30 7.72 54.90
58007 2022-03-14 04:00:47 Terrasse 9.40 7.53 43.60
58006 2022-03-14 03:32:31 Terrasse 9.50 7.57 40.80
58005 2022-03-14 03:04:17 Terrasse 9.70 7.76 39.60
58004 2022-03-14 02:36:03 Terrasse 9.90 8.00 40.50
58003 2022-03-14 02:07:49 Terrasse 10.10 8.18 38.80
58002 2022-03-14 01:39:33 Terrasse 10.30 8.33 36.30
58001 2022-03-14 01:11:18 Terrasse 10.40 8.46 36.90
58000 2022-03-14 00:43:03 Terrasse 10.50 8.55 36.30
57999 2022-03-14 00:14:48 Terrasse 10.60 8.64 35.30
57998 2022-03-13 23:46:32 Terrasse 10.80 8.84 34.50
57997 2022-03-13 23:18:17 Terrasse 10.90 8.96 35.00
57996 2022-03-13 22:50:03 Terrasse 10.90 8.99 36.10
57995 2022-03-13 22:21:47 Terrasse 11.00 9.06 34.70
57994 2022-03-13 21:53:31 Terrasse 10.90 9.04 38.10
57993 2022-03-13 21:25:15 Terrasse 10.90 9.01 36.90
57992 2022-03-13 20:57:01 Terrasse 11.00 9.10 36.30
57991 2022-03-13 20:28:49 Terrasse 11.30 9.44 36.40
57990 2022-03-13 20:00:37 Terrasse 11.90 10.06 35.10
57989 2022-03-13 19:32:24 Terrasse 12.70 10.92 34.40
57988 2022-03-13 19:04:09 Terrasse 13.10 11.38 35.00
57987 2022-03-13 18:35:57 Terrasse 13.50 11.81 34.60
57986 2022-03-13 18:07:47 Terrasse 14.40 12.74 32.50
57985 2022-03-13 17:39:34 Terrasse 15.20 13.62 32.20
57984 2022-03-13 17:11:23 Terrasse 16.20 14.68 30.80
57983 2022-03-13 16:43:12 Terrasse 17.60 16.19 29.70
57982 2022-03-13 16:15:03 Terrasse 18.80 17.52 29.90
57981 2022-03-13 15:46:53 Terrasse 20.60 19.44 27.90
57980 2022-03-13 15:18:43 Terrasse 21.50 20.42 27.40
57979 2022-03-13 14:49:57 Terrasse 20.20 19.00 27.90
57978 2022-03-13 14:21:27 Terrasse 16.60 15.06 28.60
57977 2022-03-13 13:53:21 Terrasse 18.00 16.59 28.30
57976 2022-03-13 13:25:11 Terrasse 19.30 18.03 28.60
57975 2022-03-13 12:56:51 Terrasse 18.50 17.12 27.40
57974 2022-03-13 12:28:54 Terrasse 19.40 18.13 28.20
57973 2022-03-13 12:00:21 Terrasse 18.30 16.96 29.50
57972 2022-03-13 11:31:19 Terrasse 13.70 11.91 30.10
57971 2022-03-13 11:02:59 Terrasse 11.70 9.74 31.30
57970 2022-03-13 10:34:38 Terrasse 10.80 8.75 31.30
57969 2022-03-13 10:06:07 Terrasse 9.10 6.93 33.00
57968 2022-03-13 09:37:45 Terrasse 7.80 5.49 32.70
57967 2022-03-13 09:09:29 Terrasse 7.20 4.85 33.30
57966 2022-03-13 08:41:07 Terrasse 6.20 3.77 34.20
57965 2022-03-13 08:12:49 Terrasse 5.50 3.04 35.70
57964 2022-03-13 07:44:33 Terrasse 5.10 2.63 36.90
57963 2022-03-13 07:16:18 Terrasse 4.80 2.29 36.50
57962 2022-03-13 06:48:03 Terrasse 4.80 2.28 36.10
57961 2022-03-13 06:19:50 Terrasse 5.10 2.60 35.90
57960 2022-03-13 05:51:36 Terrasse 5.30 2.83 36.20
57959 2022-03-13 05:23:31 Terrasse 5.60 3.14 35.30
57958 2022-03-13 04:55:37 Terrasse 5.80 3.38 36.10
57957 2022-03-13 04:27:28 Terrasse 6.10 3.69 35.30
57956 2022-03-13 03:59:12 Terrasse 6.20 3.81 35.90
57955 2022-03-13 03:31:49 Terrasse 6.50 4.15 36.10
57954 2022-03-13 03:03:50 Terrasse 6.60 4.27 36.50
57953 2022-03-13 02:35:49 Terrasse 7.10 4.81 36.20
57952 2022-03-13 02:07:47 Terrasse 7.20 4.93 36.50
57951 2022-03-13 01:39:06 Terrasse 7.40 5.17 37.50
57950 2022-03-13 01:11:30 Terrasse 7.50 5.28 37.40
57949 2022-03-13 00:42:53 Terrasse 7.60 5.37 36.60
57948 2022-03-13 00:15:19 Terrasse 7.70 5.49 36.80
57947 2022-03-12 23:46:43 Terrasse 7.80 5.59 36.60
57946 2022-03-12 23:18:30 Terrasse 8.00 5.82 37.00
57945 2022-03-12 22:50:16 Terrasse 8.30 6.15 36.90
57944 2022-03-12 22:22:04 Terrasse 8.60 6.49 37.40
57943 2022-03-12 21:53:49 Terrasse 8.90 6.84 38.20
57942 2022-03-12 21:25:35 Terrasse 9.00 7.04 41.60
57941 2022-03-12 20:57:21 Terrasse 9.30 7.47 45.40
57940 2022-03-12 20:29:09 Terrasse 9.80 8.05 46.40
57939 2022-03-12 20:00:56 Terrasse 10.30 8.56 45.10
57938 2022-03-12 19:32:43 Terrasse 10.60 8.91 45.70
57937 2022-03-12 19:04:32 Terrasse 11.20 9.57 45.80
57936 2022-03-12 18:36:21 Terrasse 11.90 10.32 44.90
57935 2022-03-12 18:08:10 Terrasse 13.00 11.49 43.30
57934 2022-03-12 17:40:00 Terrasse 14.00 12.54 41.60
57933 2022-03-12 17:11:51 Terrasse 15.30 13.92 39.80
57932 2022-03-12 16:43:43 Terrasse 17.30 16.07 37.60
57931 2022-03-12 16:15:31 Terrasse 18.00 16.80 36.10
57930 2022-03-12 15:47:19 Terrasse 18.50 17.30 34.40
57929 2022-03-12 15:18:59 Terrasse 18.50 17.34 35.70
57928 2022-03-12 14:50:36 Terrasse 17.20 15.87 34.40
57927 2022-03-12 14:22:27 Terrasse 20.20 19.10 31.60
57926 2022-03-12 13:54:01 Terrasse 18.90 17.69 32.30
57925 2022-03-12 13:25:45 Terrasse 17.70 16.36 32.10
57924 2022-03-12 12:57:27 Terrasse 17.10 15.68 31.10
57923 2022-03-12 12:29:23 Terrasse 17.10 15.67 31.00
57922 2022-03-12 12:00:51 Terrasse 16.60 15.13 31.20
57921 2022-03-12 11:32:00 Terrasse 12.80 11.01 33.60
57920 2022-03-12 11:03:36 Terrasse 10.90 8.93 33.70
57919 2022-03-12 10:35:13 Terrasse 9.80 7.74 34.50
57918 2022-03-12 10:06:51 Terrasse 8.50 6.31 34.60
57917 2022-03-12 09:38:31 Terrasse 7.70 5.44 35.10
57916 2022-03-12 09:10:09 Terrasse 6.70 4.33 34.80
57915 2022-03-12 08:41:50 Terrasse 5.90 3.47 35.30
57914 2022-03-12 08:13:33 Terrasse 5.30 2.81 35.30
57913 2022-03-12 07:45:15 Terrasse 4.90 2.41 37.00
57912 2022-03-12 07:16:59 Terrasse 4.70 2.17 36.30
57911 2022-03-12 06:48:45 Terrasse 4.80 2.29 36.40
57910 2022-03-12 06:20:32 Terrasse 4.90 2.38 35.90
57909 2022-03-12 05:52:18 Terrasse 5.20 2.70 35.30
57908 2022-03-12 05:24:05 Terrasse 5.50 3.02 34.90
57907 2022-03-12 04:55:52 Terrasse 5.80 3.33 34.10
57906 2022-03-12 04:27:38 Terrasse 6.10 3.66 34.20
57905 2022-03-12 03:59:25 Terrasse 6.30 3.89 34.80
57904 2022-03-12 03:31:12 Terrasse 6.40 3.98 34.00
57903 2022-03-12 03:02:58 Terrasse 6.50 4.10 34.20
57902 2022-03-12 02:34:44 Terrasse 6.70 4.30 33.40
57901 2022-03-12 02:06:29 Terrasse 6.90 4.52 33.50
57900 2022-03-12 01:38:16 Terrasse 7.20 4.85 33.30
57899 2022-03-12 01:10:03 Terrasse 7.30 4.97 33.70
57898 2022-03-12 00:41:50 Terrasse 7.60 5.32 34.50
57897 2022-03-12 00:13:36 Terrasse 7.80 5.54 34.60
57896 2022-03-11 23:45:22 Terrasse 8.00 5.77 35.00
57895 2022-03-11 23:17:09 Terrasse 8.40 6.21 35.00
57894 2022-03-11 22:48:55 Terrasse 8.60 6.42 34.50
57893 2022-03-11 22:20:41 Terrasse 8.80 6.61 33.60
57892 2022-03-11 21:52:27 Terrasse 9.10 6.91 32.50
57891 2022-03-11 21:24:14 Terrasse 9.40 7.22 31.60
57890 2022-03-11 20:56:01 Terrasse 9.70 7.53 30.70
57889 2022-03-11 20:27:48 Terrasse 10.00 7.84 29.90
57888 2022-03-11 19:59:36 Terrasse 10.30 8.17 30.00
57887 2022-03-11 19:31:23 Terrasse 10.80 8.75 31.20
57886 2022-03-11 19:03:11 Terrasse 11.10 9.10 31.80
57885 2022-03-11 18:35:00 Terrasse 11.90 9.96 31.20
57884 2022-03-11 18:06:49 Terrasse 12.90 11.04 30.50
57883 2022-03-11 17:38:42 Terrasse 14.10 12.35 30.00
57882 2022-03-11 17:10:37 Terrasse 15.90 14.31 29.10
57881 2022-03-11 16:42:29 Terrasse 20.50 19.32 27.30
57880 2022-03-11 16:14:19 Terrasse 19.20 17.91 28.20
57879 2022-03-11 15:46:24 Terrasse 23.10 22.15 26.30
57878 2022-03-11 15:17:58 Terrasse 22.30 21.30 27.50
57877 2022-03-11 14:49:10 Terrasse 21.40 20.31 27.50
57876 2022-03-11 14:20:54 Terrasse 20.60 19.45 28.10
57875 2022-03-11 13:52:29 Terrasse 18.10 16.70 28.20
57874 2022-03-11 13:24:16 Terrasse 16.90 15.46 31.30
57873 2022-03-11 12:55:58 Terrasse 16.70 15.25 31.50
57872 2022-03-11 12:28:00 Terrasse 17.50 16.11 30.90
57871 2022-03-11 11:59:30 Terrasse 16.60 15.10 30.10
57870 2022-03-11 11:30:21 Terrasse 11.50 9.63 35.40
57869 2022-03-11 11:01:59 Terrasse 9.50 7.51 38.30
57868 2022-03-11 10:33:39 Terrasse 8.50 6.43 39.10
57867 2022-03-11 10:05:14 Terrasse 7.20 5.02 40.00
57866 2022-03-11 09:36:54 Terrasse 6.20 3.96 41.50
57865 2022-03-11 09:08:42 Terrasse 5.60 3.32 42.30
57864 2022-03-11 08:40:25 Terrasse 5.00 2.73 44.80
57863 2022-03-11 08:12:08 Terrasse 4.60 2.32 46.00
57862 2022-03-11 07:43:54 Terrasse 4.30 2.02 47.30
57861 2022-03-11 07:15:40 Terrasse 4.30 2.03 47.50
57860 2022-03-11 06:47:27 Terrasse 4.50 2.27 48.60
57859 2022-03-11 06:19:15 Terrasse 4.80 2.61 48.80
57858 2022-03-11 05:51:02 Terrasse 5.20 3.05 49.00
57857 2022-03-11 05:22:50 Terrasse 5.40 3.28 49.10
57856 2022-03-11 04:54:38 Terrasse 5.70 3.61 49.10
57855 2022-03-11 04:26:25 Terrasse 6.00 3.92 48.60
57854 2022-03-11 03:58:12 Terrasse 6.10 4.03 48.50
57853 2022-03-11 03:30:00 Terrasse 6.40 4.33 47.40
57852 2022-03-11 03:01:49 Terrasse 6.60 4.53 46.60
57851 2022-03-11 02:33:36 Terrasse 7.00 4.95 45.70
57850 2022-03-11 02:05:22 Terrasse 7.20 5.16 45.20
57849 2022-03-11 01:37:09 Terrasse 7.50 5.47 44.70
57848 2022-03-11 01:08:56 Terrasse 7.80 5.75 42.60
57847 2022-03-11 00:40:43 Terrasse 8.10 6.06 42.10
57846 2022-03-11 00:12:31 Terrasse 8.40 6.36 40.90
57845 2022-03-10 23:44:18 Terrasse 8.70 6.68 40.40
57844 2022-03-10 23:16:04 Terrasse 8.90 6.88 39.80
57843 2022-03-10 22:47:50 Terrasse 9.10 7.08 38.80
57842 2022-03-10 22:19:38 Terrasse 9.50 7.50 38.10
57841 2022-03-10 21:51:26 Terrasse 9.80 7.82 37.80
57840 2022-03-10 21:23:15 Terrasse 10.30 8.33 36.30
57839 2022-03-10 20:55:03 Terrasse 10.70 8.77 36.10
57838 2022-03-10 20:26:50 Terrasse 11.10 9.17 34.50
57837 2022-03-10 19:58:38 Terrasse 11.40 9.48 34.00
57836 2022-03-10 19:30:27 Terrasse 12.00 10.14 33.90
57835 2022-03-10 19:02:16 Terrasse 12.70 10.93 34.60
57834 2022-03-10 18:34:07 Terrasse 13.80 12.14 34.70
57833 2022-03-10 18:05:56 Terrasse 15.10 13.47 30.70
57832 2022-03-10 17:37:48 Terrasse 16.30 14.76 29.80
57831 2022-03-10 17:09:45 Terrasse 18.40 17.02 27.90
57830 2022-03-10 16:41:39 Terrasse 24.10 23.22 25.10
57829 2022-03-10 16:13:30 Terrasse 22.50 21.48 26.00
57828 2022-03-10 15:45:52 Terrasse 28.70 27.36 24.00
57827 2022-03-10 15:17:12 Terrasse 24.90 24.12 25.70
57826 2022-03-10 14:48:30 Terrasse 24.80 24.00 25.50
57825 2022-03-10 14:20:22 Terrasse 24.70 23.94 27.50
57824 2022-03-10 13:51:46 Terrasse 21.80 20.79 28.80
57823 2022-03-10 13:23:36 Terrasse 20.50 19.43 31.60
57822 2022-03-10 12:55:23 Terrasse 20.70 19.63 30.90
57821 2022-03-10 12:27:32 Terrasse 22.00 21.08 31.40
57820 2022-03-10 11:58:49 Terrasse 20.70 19.68 32.80
57819 2022-03-10 11:29:34 Terrasse 14.00 12.44 37.60
57818 2022-03-10 11:01:10 Terrasse 11.70 9.96 39.50
57817 2022-03-10 10:32:49 Terrasse 10.60 8.76 40.00
57816 2022-03-10 10:04:24 Terrasse 9.10 7.16 42.00
57815 2022-03-10 09:36:02 Terrasse 7.80 5.75 42.80
57814 2022-03-10 09:07:40 Terrasse 6.80 4.68 44.00
57813 2022-03-10 08:39:19 Terrasse 5.90 3.72 45.00
57812 2022-03-10 08:10:59 Terrasse 5.10 2.88 46.70
57811 2022-03-10 07:42:43 Terrasse 4.60 2.35 47.30
57810 2022-03-10 07:14:30 Terrasse 4.40 2.14 47.80
57809 2022-03-10 06:46:16 Terrasse 4.50 2.24 47.40
57808 2022-03-10 06:18:03 Terrasse 4.70 2.44 46.40
57807 2022-03-10 05:49:50 Terrasse 4.80 2.54 46.00
57806 2022-03-10 05:21:35 Terrasse 4.70 2.44 46.50
57805 2022-03-10 04:53:21 Terrasse 5.10 2.81 44.00
57804 2022-03-10 04:25:08 Terrasse 5.30 3.03 43.80
57803 2022-03-10 03:56:56 Terrasse 5.30 3.03 43.80
57802 2022-03-10 03:28:42 Terrasse 5.40 3.13 43.50
57801 2022-03-10 03:00:31 Terrasse 5.70 3.46 43.50
57800 2022-03-10 02:32:19 Terrasse 6.10 3.85 41.60
57799 2022-03-10 02:04:07 Terrasse 6.40 4.19 42.10
57798 2022-03-10 01:35:53 Terrasse 6.60 4.40 41.60
57797 2022-03-10 01:07:40 Terrasse 6.70 4.47 39.90
57796 2022-03-10 00:39:25 Terrasse 6.60 4.37 40.50
57795 2022-03-10 00:11:11 Terrasse 6.60 4.42 42.20
57794 2022-03-09 23:42:58 Terrasse 6.80 4.63 41.80
57793 2022-03-09 23:14:46 Terrasse 7.00 4.85 42.00
57792 2022-03-09 22:46:33 Terrasse 7.20 5.09 42.80
57791 2022-03-09 22:18:21 Terrasse 7.30 5.21 42.90
57790 2022-03-09 21:50:09 Terrasse 7.40 5.35 44.30
57789 2022-03-09 21:21:57 Terrasse 7.70 5.67 43.90
57788 2022-03-09 20:53:44 Terrasse 7.90 5.87 43.20
57787 2022-03-09 20:25:32 Terrasse 8.20 6.21 43.60
57786 2022-03-09 19:57:20 Terrasse 8.60 6.63 42.70
57785 2022-03-09 19:29:09 Terrasse 9.20 7.28 42.40
57784 2022-03-09 19:01:00 Terrasse 10.10 8.20 39.50
57783 2022-03-09 18:32:52 Terrasse 11.30 9.45 36.90
57782 2022-03-09 18:04:44 Terrasse 12.70 10.89 33.30
57781 2022-03-09 17:36:36 Terrasse 14.00 12.23 29.80
57780 2022-03-09 17:08:35 Terrasse 15.80 14.21 29.60
57779 2022-03-09 16:40:24 Terrasse 21.10 19.96 26.60
57778 2022-03-09 16:12:19 Terrasse 19.50 18.20 26.70
57777 2022-03-09 15:45:10 Terrasse 28.70 27.39 24.70
57776 2022-03-09 15:16:13 Terrasse 22.20 21.17 26.70
57775 2022-03-09 14:47:29 Terrasse 21.40 20.30 26.80
57774 2022-03-09 14:19:21 Terrasse 21.10 20.02 29.00
57773 2022-03-09 13:50:44 Terrasse 18.40 17.06 29.20
57772 2022-03-09 13:22:32 Terrasse 17.10 15.66 30.30
57771 2022-03-09 12:54:21 Terrasse 17.10 15.71 32.20
57770 2022-03-09 12:26:38 Terrasse 19.00 17.73 29.70
57769 2022-03-09 11:57:51 Terrasse 17.60 16.22 30.70
57768 2022-03-09 11:28:38 Terrasse 10.70 8.75 35.30
57767 2022-03-09 11:00:17 Terrasse 8.70 6.65 39.40
57766 2022-03-09 10:31:59 Terrasse 7.70 5.57 40.10
57765 2022-03-09 10:03:36 Terrasse 6.50 4.32 42.80
57764 2022-03-09 09:35:15 Terrasse 5.50 3.25 44.00
57763 2022-03-09 09:06:54 Terrasse 4.70 2.40 45.00
57762 2022-03-09 08:38:33 Terrasse 3.80 1.43 45.90
57761 2022-03-09 08:10:16 Terrasse 3.20 0.78 46.20
57760 2022-03-09 07:42:00 Terrasse 2.90 0.47 47.00
57759 2022-03-09 07:13:46 Terrasse 2.90 0.46 46.50
57758 2022-03-09 06:45:33 Terrasse 2.90 0.46 46.50
57757 2022-03-09 06:17:21 Terrasse 3.10 0.66 45.60
57756 2022-03-09 05:49:09 Terrasse 3.20 0.78 46.10
57755 2022-03-09 05:20:56 Terrasse 3.30 0.85 44.70
57754 2022-03-09 04:52:43 Terrasse 3.40 0.97 44.90
57753 2022-03-09 04:24:33 Terrasse 3.60 1.22 46.00
57752 2022-03-09 03:56:20 Terrasse 3.50 1.09 45.30
57751 2022-03-09 03:28:07 Terrasse 3.80 1.40 44.60
57750 2022-03-09 02:59:54 Terrasse 4.00 1.60 43.90
57749 2022-03-09 02:31:42 Terrasse 4.20 1.81 43.50
57748 2022-03-09 02:03:30 Terrasse 4.30 1.93 43.90
57747 2022-03-09 01:35:16 Terrasse 4.40 2.03 43.30
57746 2022-03-09 01:07:03 Terrasse 4.60 2.23 42.70
57745 2022-03-09 00:38:50 Terrasse 4.70 2.35 43.00
57744 2022-03-09 00:10:36 Terrasse 4.80 2.48 43.80
57743 2022-03-08 23:42:23 Terrasse 4.90 2.57 43.20
57742 2022-03-08 23:14:10 Terrasse 5.10 2.79 43.20
57741 2022-03-08 22:45:57 Terrasse 5.40 3.11 42.60
57740 2022-03-08 22:17:44 Terrasse 5.60 3.31 41.90
57739 2022-03-08 21:49:32 Terrasse 5.80 3.53 41.80
57738 2022-03-08 21:21:18 Terrasse 6.20 3.98 42.20
57737 2022-03-08 20:53:06 Terrasse 6.50 4.29 41.50
57736 2022-03-08 20:24:54 Terrasse 6.80 4.59 40.30
57735 2022-03-08 19:56:43 Terrasse 7.10 4.92 40.50
57734 2022-03-08 19:28:33 Terrasse 7.70 5.55 39.40
57733 2022-03-08 19:00:23 Terrasse 8.50 6.39 37.70
57732 2022-03-08 18:32:15 Terrasse 9.70 7.64 35.00
57731 2022-03-08 18:04:07 Terrasse 10.80 8.81 33.50
57730 2022-03-08 17:36:10 Terrasse 12.10 10.18 31.10
57729 2022-03-08 17:08:07 Terrasse 14.20 12.45 29.50
57728 2022-03-08 16:40:06 Terrasse 21.10 19.92 25.00
57727 2022-03-08 16:12:05 Terrasse 19.20 17.88 26.90
57726 2022-03-08 15:44:28 Terrasse 27.10 26.32 25.60
57725 2022-03-08 15:15:34 Terrasse 19.80 18.56 27.80
57724 2022-03-08 14:46:56 Terrasse 20.20 19.04 29.20
57723 2022-03-08 14:18:48 Terrasse 19.00 17.74 30.20
57722 2022-03-08 13:50:11 Terrasse 16.30 14.81 31.60
57721 2022-03-08 13:21:59 Terrasse 15.10 13.56 34.30
57720 2022-03-08 12:53:45 Terrasse 14.60 12.99 33.60
57719 2022-03-08 12:25:54 Terrasse 16.40 15.03 35.70
57718 2022-03-08 11:57:11 Terrasse 15.50 14.03 35.40
57717 2022-03-08 11:28:02 Terrasse 9.10 7.24 44.90
57716 2022-03-08 10:59:40 Terrasse 7.30 5.33 47.80
57715 2022-03-08 10:31:21 Terrasse 6.40 4.37 48.80
57714 2022-03-08 10:02:57 Terrasse 5.00 2.87 50.30
57713 2022-03-08 09:34:36 Terrasse 3.80 1.59 51.70
57712 2022-03-08 09:06:17 Terrasse 2.90 0.59 51.40
57711 2022-03-08 08:37:57 Terrasse 2.00 -0.39 51.80
57710 2022-03-08 08:09:41 Terrasse 1.50 -0.93 52.30
57709 2022-03-08 07:41:27 Terrasse 1.20 -1.25 52.50
57708 2022-03-08 07:13:13 Terrasse 1.00 -1.47 52.70
57707 2022-03-08 06:45:00 Terrasse 1.00 -1.46 52.90
57706 2022-03-08 06:16:47 Terrasse 1.00 -1.44 53.70
57705 2022-03-08 05:48:35 Terrasse 1.10 -1.33 53.70
57704 2022-03-08 05:20:22 Terrasse 1.10 -1.35 53.10
57703 2022-03-08 04:52:09 Terrasse 1.20 -1.22 53.60
57702 2022-03-08 04:23:56 Terrasse 1.20 -1.21 54.10
57701 2022-03-08 03:55:43 Terrasse 1.40 -0.99 54.00
57700 2022-03-08 03:27:31 Terrasse 1.50 -0.89 53.60
57699 2022-03-08 02:59:19 Terrasse 1.70 -0.70 52.70
57698 2022-03-08 02:31:05 Terrasse 1.70 -0.71 52.30
57697 2022-03-08 02:02:52 Terrasse 1.90 -0.50 51.70
57696 2022-03-08 01:34:39 Terrasse 2.10 -0.31 50.80
57695 2022-03-08 01:06:27 Terrasse 2.20 -0.22 49.80
57694 2022-03-08 00:38:19 Terrasse 2.40 -0.04 48.40
57693 2022-03-08 00:10:06 Terrasse 2.60 0.16 47.50
57692 2022-03-07 23:41:53 Terrasse 2.90 0.46 46.70
57691 2022-03-07 23:13:39 Terrasse 2.90 0.44 45.90
57690 2022-03-07 22:45:25 Terrasse 2.80 0.35 46.50
57689 2022-03-07 22:17:11 Terrasse 2.80 0.36 46.80
57688 2022-03-07 21:48:58 Terrasse 3.00 0.58 46.80
57687 2022-03-07 21:20:46 Terrasse 3.20 0.77 45.90
57686 2022-03-07 20:52:33 Terrasse 3.60 1.19 45.10
57685 2022-03-07 20:24:22 Terrasse 3.90 1.52 44.90
57684 2022-03-07 19:56:11 Terrasse 4.40 2.03 43.50
57683 2022-03-07 19:28:00 Terrasse 4.80 2.43 42.10
57682 2022-03-07 18:59:49 Terrasse 5.30 2.97 41.40
57681 2022-03-07 18:31:40 Terrasse 6.30 4.04 40.20
57680 2022-03-07 18:03:32 Terrasse 7.40 5.19 38.00
57679 2022-03-07 17:35:27 Terrasse 8.70 6.54 35.00
57678 2022-03-07 17:07:28 Terrasse 11.00 9.01 32.70
57677 2022-03-07 16:39:21 Terrasse 17.80 16.37 28.30
57676 2022-03-07 16:11:30 Terrasse 16.50 14.94 28.10
57675 2022-03-07 15:43:35 Terrasse 23.70 22.83 26.80
57674 2022-03-07 15:14:35 Terrasse 15.10 13.47 30.70
57673 2022-03-07 14:45:58 Terrasse 15.70 14.13 30.70
57672 2022-03-07 14:17:50 Terrasse 14.40 12.73 32.10
57671 2022-03-07 13:49:17 Terrasse 12.40 10.57 33.40
57670 2022-03-07 13:21:06 Terrasse 11.60 9.72 34.70
57669 2022-03-07 12:52:56 Terrasse 11.60 9.75 35.90
57668 2022-03-07 12:24:59 Terrasse 12.30 10.51 35.50
57667 2022-03-07 11:55:54 Terrasse 8.80 6.77 39.80
57666 2022-03-07 11:27:05 Terrasse 6.30 4.13 44.00
57665 2022-03-07 10:58:40 Terrasse 4.10 1.76 45.60
57664 2022-03-07 10:30:27 Terrasse 4.10 1.71 43.90
57663 2022-03-07 10:02:01 Terrasse 2.70 0.26 47.20
57662 2022-03-07 09:33:42 Terrasse 1.80 -0.71 48.00
57661 2022-03-07 09:05:14 Terrasse 1.00 -1.58 48.60
57660 2022-03-07 08:36:43 Terrasse 0.40 -2.23 48.80
57659 2022-03-07 08:08:27 Terrasse 0.00 -2.68 48.30
57658 2022-03-07 07:40:13 Terrasse -0.20 -2.89 48.70
57657 2022-03-07 07:11:59 Terrasse -0.40 -3.10 49.00
57656 2022-03-07 06:43:47 Terrasse -0.30 -3.00 48.70
57655 2022-03-07 06:15:34 Terrasse -0.30 -2.97 49.90
57654 2022-03-07 05:47:21 Terrasse -0.30 -2.97 49.80
57653 2022-03-07 05:19:08 Terrasse -0.20 -2.86 50.00
57652 2022-03-07 04:50:56 Terrasse -0.20 -2.89 48.90
57651 2022-03-07 04:22:43 Terrasse 0.00 -2.66 49.30
57650 2022-03-07 03:54:30 Terrasse 0.30 -2.33 49.00
57649 2022-03-07 03:26:17 Terrasse 0.40 -2.23 48.80
57648 2022-03-07 02:58:04 Terrasse 0.40 -2.22 49.10
57647 2022-03-07 02:29:51 Terrasse 0.60 -2.01 48.80
57646 2022-03-07 02:01:41 Terrasse 0.90 -1.67 49.20
57645 2022-03-07 01:33:29 Terrasse 1.20 -1.29 51.20
57644 2022-03-07 01:05:37 Terrasse 1.50 -0.95 51.60
57643 2022-03-07 00:37:16 Terrasse 1.70 -0.74 51.10
57642 2022-03-07 00:09:04 Terrasse 2.00 -0.43 50.30
57641 2022-03-06 23:40:51 Terrasse 2.20 -0.25 48.80
57640 2022-03-06 23:12:40 Terrasse 2.50 0.07 48.40
57639 2022-03-06 22:44:28 Terrasse 2.80 0.40 48.50
57638 2022-03-06 22:16:18 Terrasse 3.20 0.82 47.70
57637 2022-03-06 21:48:05 Terrasse 3.50 1.16 48.10
57636 2022-03-06 21:19:51 Terrasse 3.70 1.38 47.90
57635 2022-03-06 20:51:39 Terrasse 4.00 1.68 46.80
57634 2022-03-06 20:23:26 Terrasse 4.10 1.76 45.90
57633 2022-03-06 19:55:12 Terrasse 4.30 1.97 45.40
57632 2022-03-06 19:27:00 Terrasse 4.40 2.04 43.70
57631 2022-03-06 18:58:48 Terrasse 4.80 2.46 43.00
57630 2022-03-06 18:30:38 Terrasse 5.60 3.31 41.80
57629 2022-03-06 18:02:27 Terrasse 6.10 3.84 41.00
57628 2022-03-06 17:34:14 Terrasse 6.50 4.27 40.60
57627 2022-03-06 17:06:05 Terrasse 7.40 5.21 38.80
57626 2022-03-06 16:37:57 Terrasse 8.40 6.27 37.50
57625 2022-03-06 16:09:43 Terrasse 8.50 6.38 37.40
57624 2022-03-06 15:41:41 Terrasse 10.40 8.41 34.90
57623 2022-03-06 15:13:27 Terrasse 13.20 11.41 31.80
57622 2022-03-06 14:45:24 Terrasse 12.90 11.07 31.60
57621 2022-03-06 14:17:16 Terrasse 14.50 12.85 32.40
57620 2022-03-06 13:49:22 Terrasse 11.10 9.16 34.10
57619 2022-03-06 13:19:17 Terrasse 12.90 11.11 33.10
57618 2022-03-06 12:51:10 Terrasse 14.30 12.64 32.70
57617 2022-03-06 12:23:20 Terrasse 15.90 14.35 30.80
57616 2022-03-06 11:54:23 Terrasse 13.80 12.10 33.30
57615 2022-03-06 11:25:32 Terrasse 8.50 6.41 38.30
57614 2022-03-06 10:57:15 Terrasse 7.80 5.64 38.60
57613 2022-03-06 10:28:54 Terrasse 6.60 4.37 40.50
57612 2022-03-06 10:00:28 Terrasse 5.00 2.68 42.90
57611 2022-03-06 09:32:07 Terrasse 4.00 1.61 44.30
57610 2022-03-06 09:03:47 Terrasse 3.00 0.58 46.80
57609 2022-03-06 08:35:27 Terrasse 2.10 -0.34 49.50
57608 2022-03-06 08:07:12 Terrasse 1.70 -0.77 49.80
57607 2022-03-06 07:39:42 Terrasse 1.20 -1.28 51.60
57606 2022-03-06 07:10:55 Terrasse 1.00 -1.48 52.40
57605 2022-03-06 06:43:09 Terrasse 1.10 -1.40 51.10
57604 2022-03-06 06:15:45 Terrasse 1.20 -1.30 50.90
57603 2022-03-06 05:48:16 Terrasse 1.40 -1.09 50.30
57602 2022-03-06 05:19:35 Terrasse 1.60 -0.89 49.50
57601 2022-03-06 04:51:05 Terrasse 1.80 -0.67 49.50
57600 2022-03-06 04:22:34 Terrasse 1.90 -0.55 49.80
57599 2022-03-06 03:52:44 Terrasse 1.80 -0.64 50.80
57598 2022-03-06 03:24:30 Terrasse 1.90 -0.51 51.40
57597 2022-03-06 02:56:17 Terrasse 1.90 -0.52 51.10
57596 2022-03-06 02:29:25 Terrasse 2.10 -0.29 51.30
57595 2022-03-06 02:01:00 Terrasse 2.30 -0.06 51.90
57594 2022-03-06 01:31:36 Terrasse 2.70 0.35 50.90
57593 2022-03-06 01:03:21 Terrasse 3.10 0.72 48.10
57592 2022-03-06 00:35:09 Terrasse 3.50 1.16 48.20
57591 2022-03-06 00:06:58 Terrasse 3.70 1.34 46.40
57590 2022-03-05 23:38:46 Terrasse 4.00 1.66 46.30
57589 2022-03-05 23:11:35 Terrasse 4.20 1.91 47.20
57588 2022-03-05 22:43:29 Terrasse 4.40 2.11 46.70
57587 2022-03-05 22:14:54 Terrasse 4.60 2.31 45.90
57586 2022-03-05 21:46:30 Terrasse 4.90 2.61 44.50
57585 2022-03-05 21:19:20 Terrasse 5.30 3.07 45.20
57584 2022-03-05 20:51:19 Terrasse 5.60 3.43 46.50
57583 2022-03-05 20:23:12 Terrasse 5.90 3.73 45.20
57582 2022-03-05 19:54:49 Terrasse 6.30 4.14 44.10
57581 2022-03-05 19:26:26 Terrasse 6.80 4.66 43.10
57580 2022-03-05 18:58:24 Terrasse 7.30 5.19 42.30
57579 2022-03-05 18:30:19 Terrasse 8.10 6.04 41.00
57578 2022-03-05 18:02:31 Terrasse 9.00 7.00 40.00
57577 2022-03-05 17:34:09 Terrasse 10.20 8.20 35.40
57576 2022-03-05 17:06:10 Terrasse 12.20 10.39 35.00
57575 2022-03-05 16:38:21 Terrasse 19.90 18.68 28.20
57574 2022-03-05 16:10:46 Terrasse 22.50 21.56 28.90
57573 2022-03-05 15:42:19 Terrasse 23.40 22.56 29.10
57572 2022-03-05 15:13:39 Terrasse 14.90 13.37 35.40
57571 2022-03-05 14:45:08 Terrasse 17.00 15.64 33.70
57570 2022-03-05 14:16:54 Terrasse 14.10 12.56 38.10
57569 2022-03-05 13:48:17 Terrasse 10.50 8.72 42.60
57568 2022-03-05 13:20:18 Terrasse 13.30 11.77 41.40
57567 2022-03-05 12:52:09 Terrasse 13.50 11.96 40.20
57566 2022-03-05 12:24:21 Terrasse 15.10 13.74 41.30
57565 2022-03-05 11:55:34 Terrasse 13.90 12.48 43.60
57564 2022-03-05 11:27:00 Terrasse 8.00 6.34 56.70
57563 2022-03-05 10:58:28 Terrasse 6.50 4.78 60.20
57562 2022-03-05 10:31:01 Terrasse 5.60 3.90 64.50
57561 2022-03-05 10:02:03 Terrasse 4.30 2.74 74.80
57560 2022-03-05 09:34:57 Terrasse 3.30 1.97 87.50
57559 2022-03-05 09:05:26 Terrasse 2.40 -1.28 1.00
57558 2022-03-05 08:37:08 Terrasse 1.70 -2.05 1.00
57557 2022-03-05 08:08:54 Terrasse 1.10 -0.13 99.90
57556 2022-03-05 07:40:40 Terrasse 0.70 -0.57 99.90
57555 2022-03-05 07:12:26 Terrasse 0.70 -3.15 1.00
57554 2022-03-05 06:44:15 Terrasse 0.80 -0.46 99.90
57553 2022-03-05 06:16:04 Terrasse 1.00 -2.82 1.00
57552 2022-03-05 05:47:51 Terrasse 1.20 -0.02 99.90
57551 2022-03-05 05:19:40 Terrasse 1.30 -2.49 1.00
57550 2022-03-05 04:51:28 Terrasse 1.50 -2.27 1.00
57549 2022-03-05 04:23:14 Terrasse 1.50 -2.27 1.00
57548 2022-03-05 03:55:03 Terrasse 1.60 0.42 99.90
57547 2022-03-05 03:26:50 Terrasse 1.70 -2.05 1.00
57546 2022-03-05 02:58:38 Terrasse 1.80 0.64 99.90
57545 2022-03-05 02:30:26 Terrasse 2.10 -1.61 1.00
57544 2022-03-05 02:02:14 Terrasse 2.40 -1.28 1.00
57543 2022-03-05 01:34:03 Terrasse 2.70 -0.95 1.00
57542 2022-03-05 01:05:51 Terrasse 2.80 -0.84 1.00
57541 2022-03-05 00:37:40 Terrasse 3.00 -0.62 1.00
57540 2022-03-05 00:09:30 Terrasse 3.20 2.18 99.90
57539 2022-03-04 23:41:18 Terrasse 3.60 0.04 1.00
57538 2022-03-04 23:13:06 Terrasse 3.90 0.37 1.00
57537 2022-03-04 22:44:54 Terrasse 4.30 0.81 1.00
57536 2022-03-04 22:16:43 Terrasse 4.60 1.14 1.00
57535 2022-03-04 21:48:32 Terrasse 5.00 1.58 1.00
57534 2022-03-04 21:20:21 Terrasse 5.60 2.24 1.00
57533 2022-03-04 20:52:09 Terrasse 5.80 2.46 1.00
57532 2022-03-04 20:23:55 Terrasse 6.10 2.79 1.00
57531 2022-03-04 19:55:44 Terrasse 6.40 3.12 1.00
57530 2022-03-04 19:27:33 Terrasse 6.80 3.56 1.00
57529 2022-03-04 18:59:24 Terrasse 7.20 4.00 1.00
57528 2022-03-04 18:31:17 Terrasse 8.10 4.99 1.00
57527 2022-03-04 18:03:11 Terrasse 9.40 6.42 1.00
57526 2022-03-04 17:35:08 Terrasse 10.90 8.07 1.00
57525 2022-03-04 17:07:11 Terrasse 13.10 10.49 1.00
57524 2022-03-04 16:39:47 Terrasse 21.40 22.20 99.90
57523 2022-03-04 16:12:24 Terrasse 27.00 25.78 1.00
57522 2022-03-04 15:43:59 Terrasse 27.30 25.22 1.00
57521 2022-03-04 15:14:36 Terrasse 19.60 19.76 82.30
57520 2022-03-04 14:46:15 Terrasse 17.80 18.24 99.90
57519 2022-03-04 14:18:10 Terrasse 16.70 14.45 1.00
57518 2022-03-04 13:49:42 Terrasse 15.70 13.35 1.00
57517 2022-03-04 13:21:27 Terrasse 14.40 14.50 99.90
57516 2022-03-04 12:53:12 Terrasse 14.10 14.17 99.90
57515 2022-03-04 12:25:12 Terrasse 14.70 14.83 99.90
57514 2022-03-04 11:56:40 Terrasse 14.20 13.45 68.10
57513 2022-03-04 10:56:57 Terrasse 7.60 5.41 38.00
57512 2022-03-04 10:28:40 Terrasse 6.90 6.25 99.90
57511 2022-03-04 10:00:14 Terrasse 5.50 2.13 1.00
57510 2022-03-04 09:31:59 Terrasse 4.60 1.14 1.00
57509 2022-03-04 09:03:39 Terrasse 3.90 2.95 99.90
57508 2022-03-04 08:35:21 Terrasse 3.20 2.18 99.90
57507 2022-03-04 08:07:04 Terrasse 2.90 -0.73 1.00
57506 2022-03-04 07:38:49 Terrasse 2.90 -0.73 1.00
57505 2022-03-04 07:10:35 Terrasse 2.90 -0.73 1.00
57504 2022-03-04 05:43:39 Terrasse 3.30 2.29 99.90
57503 2022-03-04 03:08:35 Terrasse 3.70 0.15 1.00
57502 2022-03-04 01:36:38 Terrasse 4.60 1.14 1.00
57501 2022-03-04 01:08:24 Terrasse 4.80 1.36 1.00
57500 2022-03-04 00:40:10 Terrasse 5.10 1.69 1.00
57499 2022-03-04 00:11:59 Terrasse 5.30 1.91 1.00
57498 2022-03-03 23:12:36 Terrasse 6.00 2.68 1.00
57497 2022-03-03 22:14:00 Terrasse 6.60 3.34 1.00
57496 2022-03-03 21:44:16 Terrasse 6.90 3.67 1.00
57495 2022-03-03 21:16:18 Terrasse 7.10 3.89 1.00
57494 2022-03-03 20:17:22 Terrasse 8.10 4.99 1.00
57493 2022-03-03 19:49:16 Terrasse 8.80 5.76 1.00
57492 2022-03-03 19:21:22 Terrasse 9.30 6.31 1.00
57491 2022-03-03 18:53:38 Terrasse 10.00 7.08 1.00
57490 2022-03-03 18:26:52 Terrasse 10.80 10.54 99.90
57489 2022-03-03 17:54:42 Terrasse 12.30 9.61 1.00
57488 2022-03-03 17:26:41 Terrasse 14.10 11.59 1.00
57487 2022-03-03 16:58:57 Terrasse 18.00 15.88 1.00
57486 2022-03-03 16:30:47 Terrasse 26.10 28.74 99.90
57485 2022-03-03 16:03:03 Terrasse 30.30 27.47 1.00
57484 2022-03-03 15:34:28 Terrasse 29.80 27.11 1.00
57483 2022-03-03 15:05:41 Terrasse 20.60 18.74 1.00
57482 2022-03-03 14:36:54 Terrasse 19.80 17.86 1.00
57481 2022-03-03 14:08:38 Terrasse 19.40 17.42 1.00
57480 2022-03-03 13:40:14 Terrasse 16.80 17.14 99.90
57479 2022-03-03 13:12:04 Terrasse 16.50 14.23 1.00
57478 2022-03-03 12:43:48 Terrasse 16.00 16.26 99.90
57477 2022-03-03 12:15:49 Terrasse 17.20 15.00 1.00
57476 2022-03-03 11:46:57 Terrasse 14.40 11.92 1.00
57475 2022-03-03 11:18:10 Terrasse 9.20 6.30 4.90
57474 2022-03-03 10:49:49 Terrasse 7.90 4.77 1.00
57473 2022-03-03 10:21:30 Terrasse 7.20 4.00 1.00
57472 2022-03-03 09:53:05 Terrasse 5.50 2.13 1.00
57471 2022-03-03 09:24:43 Terrasse 4.30 0.81 1.00
57470 2022-03-03 08:56:23 Terrasse 3.20 -0.40 1.00
57469 2022-03-03 08:28:05 Terrasse 2.30 -1.39 1.00
57468 2022-03-03 07:59:50 Terrasse 2.00 -1.72 1.00
57467 2022-03-03 07:31:35 Terrasse 1.70 -2.05 1.00
57466 2022-03-03 07:03:23 Terrasse 1.80 -1.94 1.00
57465 2022-03-03 06:35:28 Terrasse 2.00 -1.72 1.00
57464 2022-03-03 06:08:11 Terrasse 2.10 -1.61 1.00
57463 2022-03-03 05:38:45 Terrasse 2.30 -1.39 1.00
57462 2022-03-03 05:10:52 Terrasse 2.40 -1.28 1.00
57461 2022-03-03 04:43:02 Terrasse 2.40 -1.28 1.00
57460 2022-03-03 04:15:20 Terrasse 2.50 -1.17 1.00
57459 2022-03-03 03:47:00 Terrasse 2.60 -1.06 1.00
57458 2022-03-03 03:19:34 Terrasse 2.70 -0.95 1.00
57457 2022-03-03 02:50:34 Terrasse 2.80 -0.84 1.00
57456 2022-03-03 02:22:20 Terrasse 3.00 -0.62 1.00
57455 2022-03-03 01:54:56 Terrasse 3.10 -0.51 1.00
57454 2022-03-03 01:26:39 Terrasse 3.20 -0.40 1.00
57453 2022-03-03 00:58:28 Terrasse 3.40 -0.18 1.00
57452 2022-03-03 00:30:10 Terrasse 3.60 0.04 1.00
57451 2022-03-03 00:00:48 Terrasse 3.70 2.73 99.90
57450 2022-03-02 23:32:35 Terrasse 4.00 0.48 1.00
57449 2022-03-02 23:04:23 Terrasse 4.20 3.28 99.90
57448 2022-03-02 22:08:06 Terrasse 4.60 3.72 99.90
57447 2022-03-02 20:10:37 Terrasse 6.00 2.68 1.00
57446 2022-03-02 19:42:24 Terrasse 6.50 5.81 99.90
57445 2022-03-02 19:14:34 Terrasse 7.20 6.58 99.90
57444 2022-03-02 18:46:38 Terrasse 8.10 4.99 1.00
57443 2022-03-02 18:18:31 Terrasse 9.60 9.22 99.90
57442 2022-03-02 17:50:15 Terrasse 11.20 10.98 99.90
57441 2022-03-02 17:22:10 Terrasse 12.20 12.08 99.90
57440 2022-03-02 16:54:14 Terrasse 14.40 11.92 1.00
57439 2022-03-02 16:26:23 Terrasse 20.20 20.88 99.90
57438 2022-03-02 15:58:11 Terrasse 22.20 20.50 1.00
57437 2022-03-02 15:29:58 Terrasse 22.70 21.05 1.00
57436 2022-03-02 15:01:31 Terrasse 22.40 23.30 99.90
57435 2022-03-02 14:33:19 Terrasse 24.30 25.39 99.90
57434 2022-03-02 14:04:24 Terrasse 21.20 21.98 99.90
57433 2022-03-02 13:36:16 Terrasse 19.50 20.11 99.90
57432 2022-03-02 13:07:28 Terrasse 14.60 14.72 99.90
57431 2022-03-02 12:39:06 Terrasse 12.10 11.97 99.90
57430 2022-03-02 12:10:38 Terrasse 10.40 10.10 99.90
57429 2022-03-02 11:42:11 Terrasse 8.00 4.88 1.00
57428 2022-03-02 11:14:27 Terrasse 7.20 6.58 99.90
57427 2022-03-02 10:44:05 Terrasse 6.40 5.70 99.90
57426 2022-03-02 10:15:50 Terrasse 6.10 5.37 99.90
57425 2022-03-02 09:47:37 Terrasse 6.20 5.48 99.90
57424 2022-03-02 09:19:18 Terrasse 5.60 4.82 99.90
57423 2022-03-02 08:51:02 Terrasse 5.20 4.38 99.90
57422 2022-03-02 08:22:46 Terrasse 4.70 3.83 99.90
57421 2022-03-02 07:54:32 Terrasse 4.50 3.61 99.90
57420 2022-03-02 07:26:18 Terrasse 4.40 0.92 1.00
57419 2022-03-02 06:58:05 Terrasse 4.30 3.39 99.90
57418 2022-03-02 06:29:52 Terrasse 4.20 3.28 99.90
57417 2022-03-02 06:01:40 Terrasse 4.30 3.39 99.90
57416 2022-03-02 05:33:26 Terrasse 4.20 3.28 99.90
57415 2022-03-02 05:05:12 Terrasse 4.00 3.06 99.90
57414 2022-03-02 04:36:59 Terrasse 3.80 2.84 99.90
57413 2022-03-02 04:08:46 Terrasse 3.60 2.62 99.90
57412 2022-03-02 03:40:33 Terrasse 3.70 2.73 99.90
57411 2022-03-02 03:12:21 Terrasse 3.70 2.73 99.90
57410 2022-03-02 02:44:08 Terrasse 3.70 2.73 99.90
57409 2022-03-02 02:15:57 Terrasse 3.90 1.82 56.40
57408 2022-03-02 01:47:44 Terrasse 4.10 2.71 82.00
57407 2022-03-02 01:19:33 Terrasse 4.40 3.50 99.90
57406 2022-03-02 00:51:21 Terrasse 4.60 1.88 29.10
57405 2022-03-02 00:23:09 Terrasse 4.80 3.82 95.20
57404 2022-03-01 23:54:56 Terrasse 4.80 2.78 55.50
57403 2022-03-01 23:26:42 Terrasse 4.80 3.80 94.40
57402 2022-03-01 22:58:27 Terrasse 4.70 3.83 99.90
57401 2022-03-01 22:30:13 Terrasse 4.30 3.39 99.90
57400 2022-03-01 22:02:01 Terrasse 4.40 3.20 88.10
57399 2022-03-01 21:33:49 Terrasse 4.40 3.50 99.90
57398 2022-03-01 21:05:37 Terrasse 4.90 4.05 99.90
57397 2022-03-01 20:37:27 Terrasse 5.40 4.19 84.10
57396 2022-03-01 20:09:15 Terrasse 5.70 4.27 74.50
57395 2022-03-01 19:41:05 Terrasse 6.10 2.94 6.50
57394 2022-03-01 19:12:54 Terrasse 6.50 5.63 92.90
57393 2022-03-01 18:44:44 Terrasse 7.20 5.62 63.10
57392 2022-03-01 18:16:33 Terrasse 7.70 4.55 1.00
57391 2022-03-01 17:48:23 Terrasse 8.00 7.12 86.60
57390 2022-03-01 17:20:15 Terrasse 8.90 8.24 91.60
57389 2022-03-01 16:52:07 Terrasse 9.90 6.97 1.00
57388 2022-03-01 16:23:57 Terrasse 10.30 9.19 69.10
57387 2022-03-01 15:55:51 Terrasse 11.50 9.45 28.40
57386 2022-03-01 15:27:47 Terrasse 13.20 12.80 85.30
57385 2022-03-01 14:59:51 Terrasse 15.00 13.01 17.50
57384 2022-03-01 14:31:53 Terrasse 16.50 16.81 99.90
57383 2022-03-01 14:03:09 Terrasse 18.90 16.87 1.00
57382 2022-03-01 13:34:52 Terrasse 16.30 16.59 99.90
57381 2022-03-01 13:06:21 Terrasse 14.10 14.17 99.90
57380 2022-03-01 12:38:23 Terrasse 13.40 13.40 99.90
57379 2022-03-01 12:09:53 Terrasse 11.40 11.20 99.90
57378 2022-03-01 11:41:46 Terrasse 10.80 10.54 99.90
57377 2022-03-01 11:13:20 Terrasse 9.80 9.44 99.90
57376 2022-03-01 10:45:23 Terrasse 12.10 11.97 99.90
57375 2022-03-01 10:16:37 Terrasse 8.50 8.01 99.90
57374 2022-03-01 09:48:21 Terrasse 8.70 8.23 99.90
57373 2022-03-01 09:19:48 Terrasse 3.70 2.73 99.90
57372 2022-03-01 08:51:30 Terrasse 2.90 1.85 99.90
57371 2022-03-01 08:23:15 Terrasse 2.30 1.08 95.60
57370 2022-03-01 07:55:00 Terrasse 2.10 0.97 99.90
57369 2022-03-01 07:26:47 Terrasse 2.00 0.80 97.60
57368 2022-03-01 06:58:36 Terrasse 1.80 -0.69 48.90
57367 2022-03-01 06:30:25 Terrasse 2.00 0.25 76.30
57366 2022-03-01 06:02:13 Terrasse 2.40 1.30 99.90
57365 2022-03-01 05:34:01 Terrasse 2.60 -0.23 32.70
57364 2022-03-01 05:05:50 Terrasse 2.80 -0.07 30.30
57363 2022-03-01 04:37:38 Terrasse 3.00 0.36 38.30
57362 2022-03-01 04:09:27 Terrasse 3.20 1.10 58.40
57361 2022-03-01 03:41:16 Terrasse 3.30 0.92 47.10
57360 2022-03-01 03:13:04 Terrasse 3.70 0.67 20.70
57359 2022-03-01 02:44:53 Terrasse 3.90 2.40 78.50
57358 2022-03-01 02:16:43 Terrasse 4.20 3.10 92.70
57357 2022-03-01 01:48:31 Terrasse 4.60 3.72 99.90
57356 2022-03-01 01:20:21 Terrasse 4.90 3.04 61.10
57355 2022-03-01 00:52:10 Terrasse 5.20 4.38 99.90
57354 2022-03-01 00:23:58 Terrasse 5.60 2.30 3.30
57353 2022-02-28 23:55:47 Terrasse 6.00 5.18 96.70
57352 2022-02-28 23:27:35 Terrasse 6.00 4.90 86.10
57351 2022-02-28 22:59:22 Terrasse 6.00 5.26 99.90
57350 2022-02-28 22:31:11 Terrasse 6.10 5.37 99.90
57349 2022-02-28 22:02:58 Terrasse 6.30 5.59 99.90
57348 2022-02-28 21:34:48 Terrasse 6.60 5.92 99.90
57347 2022-02-28 21:06:38 Terrasse 6.90 6.25 99.90
57346 2022-02-28 20:38:26 Terrasse 7.40 6.80 99.90
57345 2022-02-28 20:10:16 Terrasse 8.20 7.68 99.90
57344 2022-02-28 19:42:06 Terrasse 8.70 8.00 91.00
57343 2022-02-28 19:13:54 Terrasse 8.90 8.45 99.90
57342 2022-02-28 18:45:45 Terrasse 9.50 9.11 99.90
57341 2022-02-28 18:17:37 Terrasse 10.30 9.99 99.90
57340 2022-02-28 17:49:32 Terrasse 11.30 8.51 1.00
57339 2022-02-28 17:21:27 Terrasse 12.60 9.94 1.00
57338 2022-02-28 16:53:31 Terrasse 14.70 12.25 1.00
57337 2022-02-28 16:25:45 Terrasse 20.80 21.54 99.90
57336 2022-02-28 15:57:32 Terrasse 22.80 23.74 99.90
57335 2022-02-28 15:29:23 Terrasse 23.90 22.37 1.00
57334 2022-02-28 15:01:08 Terrasse 24.80 23.36 1.00
57333 2022-02-28 14:04:06 Terrasse 22.20 20.50 1.00
57332 2022-02-28 13:36:02 Terrasse 19.70 20.19 94.50
57331 2022-02-28 13:07:17 Terrasse 16.90 14.67 1.00
57330 2022-02-28 12:39:00 Terrasse 13.20 10.60 1.00
57329 2022-02-28 12:10:36 Terrasse 12.00 9.28 1.00
57328 2022-02-28 11:42:23 Terrasse 11.80 9.06 1.00
57327 2022-02-28 11:14:24 Terrasse 13.40 10.82 1.00
57326 2022-02-28 10:46:21 Terrasse 14.30 14.39 99.90
57325 2022-02-28 10:17:23 Terrasse 9.30 6.31 1.00
57324 2022-02-28 09:49:10 Terrasse 9.60 7.65 39.70
57323 2022-02-28 09:20:35 Terrasse 4.40 3.50 99.90
57322 2022-02-28 08:52:16 Terrasse 3.40 -0.18 1.00
57321 2022-02-28 08:24:02 Terrasse 2.80 -0.84 1.00
57320 2022-02-28 07:55:48 Terrasse 2.40 -0.37 35.80
57319 2022-02-28 07:27:34 Terrasse 2.40 -1.28 1.00
57318 2022-02-28 06:59:21 Terrasse 2.20 1.08 99.90
57317 2022-02-28 06:31:09 Terrasse 2.40 -1.28 1.00
57316 2022-02-28 06:02:58 Terrasse 2.70 1.63 99.90
57315 2022-02-28 05:34:47 Terrasse 2.90 1.85 99.90
57314 2022-02-28 05:06:35 Terrasse 3.00 1.96 99.90
57313 2022-02-28 04:38:24 Terrasse 3.00 -0.62 1.00
57312 2022-02-28 04:10:12 Terrasse 2.80 -0.84 1.00
57311 2022-02-28 03:42:01 Terrasse 3.10 -0.51 1.00
57310 2022-02-28 03:13:48 Terrasse 2.90 1.85 99.90
57309 2022-02-28 02:45:36 Terrasse 2.90 -0.73 1.00
57308 2022-02-28 02:17:25 Terrasse 3.10 -0.51 1.00
57307 2022-02-28 01:49:12 Terrasse 3.20 -0.40 1.00
57306 2022-02-28 01:21:01 Terrasse 3.30 -0.29 1.00
57305 2022-02-28 00:52:49 Terrasse 3.40 2.40 99.90
57304 2022-02-28 00:24:37